<?xml version="1.0" encoding="UTF-8" standalone="no" ?>
<gpx xmlns="http://www.topografix.com/GPX/1/1" creator="CompeGPS" version="1.1" xmlns:xsi="http://www.w3.org/2001/XMLSchema-instance" xsi:schemaLocation="http://www.topografix.com/GPX/1/1 http://www.topografix.com/GPX/1/1/gpx.xsd http://www.garmin.com/xmlschemas/GpxExtensions/v3 http://www.garmin.com/xmlschemas/GpxExtensionsv3.xsd http://www.garmin.com/xmlschemas/TrackPointExtension/v1 http://www.garmin.com/xmlschemas/TrackPointExtensionv1.xsd" xmlns:gpxtpx="http://www.garmin.com/xmlschemas/TrackPointExtension/v1">
  <metadata>
    <link href="http://www.compegps.com">
      <text>CompeGPS TEAM, SL</text>
    </link>
    <time>2014-02-15T13:34:09Z</time>
    <bounds maxlat="44.100892" maxlon="1.090078" minlat="44.089933" minlon="1.005672"/>
  </metadata>
<wpt lat="44.099899" lon="1.090010">
<ele>70</ele>
<name>Moissac</name>
</wpt>
<wpt lat="44.100838" lon="1.077778">
<ele>75</ele>
<name>Canal Lateral</name>
</wpt>
<wpt lat="44.093182" lon="1.050995">
<ele>75</ele>
<name>Ecluse de l Espagnette</name>
</wpt>
<wpt lat="44.094654" lon="1.046679">
<ele>130</ele>
<name>Laroquette</name>
</wpt>
<wpt lat="44.097966" lon="1.032236">
<ele>170</ele>
<name>Pinete</name>
</wpt>
<wpt lat="44.094151" lon="1.014127">
<ele>170</ele>
<name>Boudou - T. orient.</name>
</wpt>
<wpt lat="44.091792" lon="1.005769">
<ele>70</ele>
<name>Ecluse Petit-Bezy</name>
</wpt>
<wpt lat="44.092833" lon="1.029339">
<ele>74</ele>
<name>Pont de Coudol</name>
</wpt>
<trk>
    <name>Moissac - Boudou</name>
    <trkseg>
      <trkpt lat="44.099899" lon="1.090010">
        <ele>70.0</ele>
        <time>2014-02-14T13:16:03Z</time>
     	   <name>Moissac</name>
	</trkpt>
      <trkpt lat="44.099855" lon="1.090078">
        <ele>70.8</ele>
        <time>2014-02-14T13:16:20Z</time>
      </trkpt>
      <trkpt lat="44.099794" lon="1.089994">
        <ele>71.3</ele>
        <time>2014-02-14T13:16:30Z</time>
      </trkpt>
      <trkpt lat="44.099735" lon="1.089901">
        <ele>71.7</ele>
        <time>2014-02-14T13:16:51Z</time>
      </trkpt>
      <trkpt lat="44.099670" lon="1.089775">
        <ele>70.6</ele>
        <time>2014-02-14T13:17:05Z</time>
      </trkpt>
      <trkpt lat="44.099610" lon="1.089678">
        <ele>69.7</ele>
        <time>2014-02-14T13:17:15Z</time>
      </trkpt>
      <trkpt lat="44.099559" lon="1.089568">
        <ele>68.6</ele>
        <time>2014-02-14T13:17:24Z</time>
      </trkpt>
      <trkpt lat="44.099517" lon="1.089444">
        <ele>68.0</ele>
        <time>2014-02-14T13:17:34Z</time>
      </trkpt>
      <trkpt lat="44.099494" lon="1.089311">
        <ele>68.1</ele>
        <time>2014-02-14T13:17:44Z</time>
      </trkpt>
      <trkpt lat="44.099509" lon="1.089165">
        <ele>68.4</ele>
        <time>2014-02-14T13:17:55Z</time>
      </trkpt>
      <trkpt lat="44.099494" lon="1.089052">
        <ele>68.1</ele>
        <time>2014-02-14T13:18:12Z</time>
      </trkpt>
      <trkpt lat="44.099516" lon="1.088920">
        <ele>68.4</ele>
        <time>2014-02-14T13:18:21Z</time>
      </trkpt>
      <trkpt lat="44.099536" lon="1.088771">
        <ele>68.6</ele>
        <time>2014-02-14T13:18:30Z</time>
      </trkpt>
      <trkpt lat="44.099561" lon="1.088641">
        <ele>68.6</ele>
        <time>2014-02-14T13:18:39Z</time>
      </trkpt>
      <trkpt lat="44.099571" lon="1.088506">
        <ele>68.7</ele>
        <time>2014-02-14T13:18:48Z</time>
      </trkpt>
      <trkpt lat="44.099594" lon="1.088367">
        <ele>68.9</ele>
        <time>2014-02-14T13:18:57Z</time>
      </trkpt>
      <trkpt lat="44.099618" lon="1.088243">
        <ele>69.0</ele>
        <time>2014-02-14T13:19:06Z</time>
      </trkpt>
      <trkpt lat="44.099644" lon="1.088093">
        <ele>69.0</ele>
        <time>2014-02-14T13:19:18Z</time>
      </trkpt>
      <trkpt lat="44.099667" lon="1.087963">
        <ele>68.8</ele>
        <time>2014-02-14T13:19:28Z</time>
      </trkpt>
      <trkpt lat="44.099691" lon="1.087818">
        <ele>68.9</ele>
        <time>2014-02-14T13:19:38Z</time>
      </trkpt>
      <trkpt lat="44.099689" lon="1.087679">
        <ele>69.3</ele>
        <time>2014-02-14T13:19:53Z</time>
      </trkpt>
      <trkpt lat="44.099686" lon="1.087560">
        <ele>67.5</ele>
        <time>2014-02-14T13:20:02Z</time>
      </trkpt>
      <trkpt lat="44.099679" lon="1.087449">
        <ele>67.0</ele>
        <time>2014-02-14T13:20:11Z</time>
      </trkpt>
      <trkpt lat="44.099693" lon="1.087315">
        <ele>66.9</ele>
        <time>2014-02-14T13:20:20Z</time>
      </trkpt>
      <trkpt lat="44.099713" lon="1.087163">
        <ele>66.8</ele>
        <time>2014-02-14T13:20:29Z</time>
      </trkpt>
      <trkpt lat="44.099756" lon="1.087049">
        <ele>66.7</ele>
        <time>2014-02-14T13:20:38Z</time>
      </trkpt>
      <trkpt lat="44.099763" lon="1.086913">
        <ele>66.4</ele>
        <time>2014-02-14T13:20:48Z</time>
      </trkpt>
      <trkpt lat="44.099795" lon="1.086783">
        <ele>66.4</ele>
        <time>2014-02-14T13:20:58Z</time>
      </trkpt>
      <trkpt lat="44.099814" lon="1.086635">
        <ele>66.3</ele>
        <time>2014-02-14T13:21:07Z</time>
      </trkpt>
      <trkpt lat="44.099827" lon="1.086509">
        <ele>66.3</ele>
        <time>2014-02-14T13:21:15Z</time>
      </trkpt>
      <trkpt lat="44.099751" lon="1.086309">
        <ele>66.6</ele>
        <time>2014-02-14T13:21:27Z</time>
      </trkpt>
      <trkpt lat="44.099687" lon="1.086146">
        <ele>66.5</ele>
        <time>2014-02-14T13:21:37Z</time>
      </trkpt>
      <trkpt lat="44.099617" lon="1.086075">
        <ele>66.4</ele>
        <time>2014-02-14T13:21:48Z</time>
      </trkpt>
      <trkpt lat="44.099557" lon="1.085983">
        <ele>66.5</ele>
        <time>2014-02-14T13:21:58Z</time>
      </trkpt>
      <trkpt lat="44.099536" lon="1.085858">
        <ele>66.9</ele>
        <time>2014-02-14T13:22:08Z</time>
      </trkpt>
      <trkpt lat="44.099525" lon="1.085725">
        <ele>67.0</ele>
        <time>2014-02-14T13:22:18Z</time>
      </trkpt>
      <trkpt lat="44.099485" lon="1.085562">
        <ele>67.0</ele>
        <time>2014-02-14T13:22:27Z</time>
      </trkpt>
      <trkpt lat="44.099517" lon="1.085559">
        <ele>67.4</ele>
        <time>2014-02-14T13:23:43Z</time>
      </trkpt>
      <trkpt lat="44.099610" lon="1.085541">
        <ele>67.6</ele>
        <time>2014-02-14T13:23:51Z</time>
      </trkpt>
      <trkpt lat="44.099693" lon="1.085438">
        <ele>68.1</ele>
        <time>2014-02-14T13:24:00Z</time>
      </trkpt>
      <trkpt lat="44.099751" lon="1.085302">
        <ele>68.1</ele>
        <time>2014-02-14T13:24:09Z</time>
      </trkpt>
      <trkpt lat="44.099785" lon="1.085164">
        <ele>68.2</ele>
        <time>2014-02-14T13:24:17Z</time>
      </trkpt>
      <trkpt lat="44.099790" lon="1.085012">
        <ele>68.3</ele>
        <time>2014-02-14T13:24:26Z</time>
      </trkpt>
      <trkpt lat="44.099755" lon="1.084885">
        <ele>68.1</ele>
        <time>2014-02-14T13:24:34Z</time>
      </trkpt>
      <trkpt lat="44.099728" lon="1.084766">
        <ele>68.1</ele>
        <time>2014-02-14T13:24:41Z</time>
      </trkpt>
      <trkpt lat="44.099716" lon="1.084633">
        <ele>68.3</ele>
        <time>2014-02-14T13:24:49Z</time>
      </trkpt>
      <trkpt lat="44.099754" lon="1.084504">
        <ele>68.5</ele>
        <time>2014-02-14T13:24:57Z</time>
      </trkpt>
      <trkpt lat="44.099742" lon="1.084352">
        <ele>69.1</ele>
        <time>2014-02-14T13:25:07Z</time>
      </trkpt>
      <trkpt lat="44.099713" lon="1.084202">
        <ele>69.5</ele>
        <time>2014-02-14T13:25:23Z</time>
      </trkpt>
      <trkpt lat="44.099717" lon="1.084042">
        <ele>69.3</ele>
        <time>2014-02-14T13:25:33Z</time>
      </trkpt>
      <trkpt lat="44.099704" lon="1.083874">
        <ele>69.1</ele>
        <time>2014-02-14T13:25:43Z</time>
      </trkpt>
      <trkpt lat="44.099695" lon="1.083738">
        <ele>68.8</ele>
        <time>2014-02-14T13:25:53Z</time>
      </trkpt>
      <trkpt lat="44.099701" lon="1.083578">
        <ele>68.8</ele>
        <time>2014-02-14T13:26:03Z</time>
      </trkpt>
      <trkpt lat="44.099690" lon="1.083407">
        <ele>68.7</ele>
        <time>2014-02-14T13:26:15Z</time>
      </trkpt>
      <trkpt lat="44.099686" lon="1.083244">
        <ele>68.6</ele>
        <time>2014-02-14T13:26:31Z</time>
      </trkpt>
      <trkpt lat="44.099635" lon="1.083213">
        <ele>68.6</ele>
        <time>2014-02-14T13:27:37Z</time>
      </trkpt>
      <trkpt lat="44.099648" lon="1.083084">
        <ele>68.6</ele>
        <time>2014-02-14T13:27:49Z</time>
      </trkpt>
      <trkpt lat="44.099653" lon="1.083057">
        <ele>68.3</ele>
        <time>2014-02-14T13:28:24Z</time>
      </trkpt>
      <trkpt lat="44.099686" lon="1.082837">
        <ele>68.2</ele>
        <time>2014-02-14T13:28:34Z</time>
      </trkpt>
      <trkpt lat="44.099686" lon="1.082676">
        <ele>68.5</ele>
        <time>2014-02-14T13:28:42Z</time>
      </trkpt>
      <trkpt lat="44.099647" lon="1.082517">
        <ele>72.7</ele>
        <time>2014-02-14T13:28:50Z</time>
      </trkpt>
      <trkpt lat="44.099647" lon="1.082332">
        <ele>72.8</ele>
        <time>2014-02-14T13:28:58Z</time>
      </trkpt>
      <trkpt lat="44.099653" lon="1.082169">
        <ele>72.9</ele>
        <time>2014-02-14T13:29:06Z</time>
      </trkpt>
      <trkpt lat="44.099679" lon="1.081983">
        <ele>72.9</ele>
        <time>2014-02-14T13:29:14Z</time>
      </trkpt>
      <trkpt lat="44.099682" lon="1.081825">
        <ele>73.0</ele>
        <time>2014-02-14T13:29:22Z</time>
      </trkpt>
      <trkpt lat="44.099702" lon="1.081630">
        <ele>73.0</ele>
        <time>2014-02-14T13:29:32Z</time>
      </trkpt>
      <trkpt lat="44.099728" lon="1.081445">
        <ele>72.7</ele>
        <time>2014-02-14T13:29:43Z</time>
      </trkpt>
      <trkpt lat="44.099747" lon="1.081214">
        <ele>72.5</ele>
        <time>2014-02-14T13:29:51Z</time>
      </trkpt>
      <trkpt lat="44.099751" lon="1.080956">
        <ele>72.1</ele>
        <time>2014-02-14T13:30:00Z</time>
      </trkpt>
      <trkpt lat="44.099751" lon="1.080803">
        <ele>71.9</ele>
        <time>2014-02-14T13:30:08Z</time>
      </trkpt>
      <trkpt lat="44.099767" lon="1.080712">
        <ele>71.7</ele>
        <time>2014-02-14T13:30:16Z</time>
      </trkpt>
      <trkpt lat="44.099777" lon="1.080585">
        <ele>71.5</ele>
        <time>2014-02-14T13:30:25Z</time>
      </trkpt>
      <trkpt lat="44.099783" lon="1.080491">
        <ele>71.3</ele>
        <time>2014-02-14T13:31:24Z</time>
      </trkpt>
      <trkpt lat="44.099806" lon="1.080192">
        <ele>70.7</ele>
        <time>2014-02-14T13:31:34Z</time>
      </trkpt>
      <trkpt lat="44.099819" lon="1.079902">
        <ele>70.3</ele>
        <time>2014-02-14T13:31:43Z</time>
      </trkpt>
      <trkpt lat="44.099845" lon="1.079685">
        <ele>70.1</ele>
        <time>2014-02-14T13:31:52Z</time>
      </trkpt>
      <trkpt lat="44.099838" lon="1.079436">
        <ele>69.9</ele>
        <time>2014-02-14T13:32:01Z</time>
      </trkpt>
      <trkpt lat="44.099851" lon="1.079197">
        <ele>69.7</ele>
        <time>2014-02-14T13:32:10Z</time>
      </trkpt>
      <trkpt lat="44.099887" lon="1.078848">
        <ele>69.8</ele>
        <time>2014-02-14T13:32:20Z</time>
      </trkpt>
      <trkpt lat="44.099880" lon="1.078432">
        <ele>69.8</ele>
        <time>2014-02-14T13:32:30Z</time>
      </trkpt>
      <trkpt lat="44.099972" lon="1.078152">
        <ele>70.0</ele>
        <time>2014-02-14T13:32:38Z</time>
      </trkpt>
      <trkpt lat="44.100105" lon="1.077984">
        <ele>70.4</ele>
        <time>2014-02-14T13:32:45Z</time>
      </trkpt>
      <trkpt lat="44.100364" lon="1.078097">
        <ele>71.6</ele>
        <time>2014-02-14T13:32:53Z</time>
      </trkpt>
      <trkpt lat="44.100573" lon="1.078210">
        <ele>72.6</ele>
        <time>2014-02-14T13:33:01Z</time>
      </trkpt>
      <trkpt lat="44.100716" lon="1.078190">
        <ele>73.3</ele>
        <time>2014-02-14T13:33:09Z</time>
      </trkpt>
      <trkpt lat="44.100757" lon="1.078089">
        <ele>73.4</ele>
        <time>2014-02-14T13:33:17Z</time>
      </trkpt>
      <trkpt lat="44.100791" lon="1.077958">
        <ele>73.4</ele>
        <time>2014-02-14T13:33:25Z</time>
      </trkpt>
      <trkpt lat="44.100838" lon="1.077778">
        <ele>73.4</ele>
        <time>2014-02-14T13:33:33Z</time>
        <name>Canal Lateral</name>
      </trkpt>
      <trkpt lat="44.100848" lon="1.077615">
        <ele>73.2</ele>
        <time>2014-02-14T13:33:42Z</time>
      </trkpt>
      <trkpt lat="44.100846" lon="1.077553">
        <ele>73.1</ele>
        <time>2014-02-14T13:33:52Z</time>
      </trkpt>
      <trkpt lat="44.100846" lon="1.077434">
        <ele>73.1</ele>
        <time>2014-02-14T13:34:15Z</time>
      </trkpt>
      <trkpt lat="44.100856" lon="1.077333">
        <ele>73.1</ele>
        <time>2014-02-14T13:34:23Z</time>
      </trkpt>
      <trkpt lat="44.100878" lon="1.077159">
        <ele>74.6</ele>
        <time>2014-02-14T13:34:32Z</time>
      </trkpt>
      <trkpt lat="44.100877" lon="1.077016">
        <ele>74.4</ele>
        <time>2014-02-14T13:34:40Z</time>
      </trkpt>
      <trkpt lat="44.100884" lon="1.076875">
        <ele>74.6</ele>
        <time>2014-02-14T13:34:48Z</time>
      </trkpt>
      <trkpt lat="44.100882" lon="1.076737">
        <ele>74.6</ele>
        <time>2014-02-14T13:34:56Z</time>
      </trkpt>
      <trkpt lat="44.100888" lon="1.076601">
        <ele>74.7</ele>
        <time>2014-02-14T13:35:04Z</time>
      </trkpt>
      <trkpt lat="44.100882" lon="1.076464">
        <ele>74.6</ele>
        <time>2014-02-14T13:35:12Z</time>
      </trkpt>
      <trkpt lat="44.100886" lon="1.076319">
        <ele>74.4</ele>
        <time>2014-02-14T13:35:20Z</time>
      </trkpt>
      <trkpt lat="44.100885" lon="1.076188">
        <ele>74.3</ele>
        <time>2014-02-14T13:35:28Z</time>
      </trkpt>
      <trkpt lat="44.100881" lon="1.076059">
        <ele>74.5</ele>
        <time>2014-02-14T13:35:36Z</time>
      </trkpt>
      <trkpt lat="44.100880" lon="1.075920">
        <ele>74.4</ele>
        <time>2014-02-14T13:35:44Z</time>
      </trkpt>
      <trkpt lat="44.100875" lon="1.075786">
        <ele>74.4</ele>
        <time>2014-02-14T13:35:52Z</time>
      </trkpt>
      <trkpt lat="44.100869" lon="1.075641">
        <ele>74.6</ele>
        <time>2014-02-14T13:36:00Z</time>
      </trkpt>
      <trkpt lat="44.100892" lon="1.075517">
        <ele>74.6</ele>
        <time>2014-02-14T13:36:07Z</time>
      </trkpt>
      <trkpt lat="44.100873" lon="1.075369">
        <ele>74.6</ele>
        <time>2014-02-14T13:36:15Z</time>
      </trkpt>
      <trkpt lat="44.100874" lon="1.075233">
        <ele>74.7</ele>
        <time>2014-02-14T13:36:22Z</time>
      </trkpt>
      <trkpt lat="44.100875" lon="1.075101">
        <ele>74.9</ele>
        <time>2014-02-14T13:36:29Z</time>
      </trkpt>
      <trkpt lat="44.100878" lon="1.074973">
        <ele>74.7</ele>
        <time>2014-02-14T13:36:36Z</time>
      </trkpt>
      <trkpt lat="44.100875" lon="1.074843">
        <ele>74.7</ele>
        <time>2014-02-14T13:36:44Z</time>
      </trkpt>
      <trkpt lat="44.100878" lon="1.074710">
        <ele>74.7</ele>
        <time>2014-02-14T13:36:51Z</time>
      </trkpt>
      <trkpt lat="44.100879" lon="1.074583">
        <ele>74.6</ele>
        <time>2014-02-14T13:36:58Z</time>
      </trkpt>
      <trkpt lat="44.100881" lon="1.074459">
        <ele>74.6</ele>
        <time>2014-02-14T13:37:05Z</time>
      </trkpt>
      <trkpt lat="44.100875" lon="1.074334">
        <ele>74.7</ele>
        <time>2014-02-14T13:37:12Z</time>
      </trkpt>
      <trkpt lat="44.100881" lon="1.074193">
        <ele>74.7</ele>
        <time>2014-02-14T13:37:20Z</time>
      </trkpt>
      <trkpt lat="44.100876" lon="1.074055">
        <ele>74.7</ele>
        <time>2014-02-14T13:37:28Z</time>
      </trkpt>
      <trkpt lat="44.100869" lon="1.073914">
        <ele>74.6</ele>
        <time>2014-02-14T13:37:36Z</time>
      </trkpt>
      <trkpt lat="44.100866" lon="1.073785">
        <ele>74.5</ele>
        <time>2014-02-14T13:37:43Z</time>
      </trkpt>
      <trkpt lat="44.100857" lon="1.073654">
        <ele>74.3</ele>
        <time>2014-02-14T13:37:50Z</time>
      </trkpt>
      <trkpt lat="44.100853" lon="1.073528">
        <ele>74.3</ele>
        <time>2014-02-14T13:37:57Z</time>
      </trkpt>
      <trkpt lat="44.100845" lon="1.073392">
        <ele>74.2</ele>
        <time>2014-02-14T13:38:05Z</time>
      </trkpt>
      <trkpt lat="44.100839" lon="1.073254">
        <ele>74.5</ele>
        <time>2014-02-14T13:38:13Z</time>
      </trkpt>
      <trkpt lat="44.100822" lon="1.073119">
        <ele>74.7</ele>
        <time>2014-02-14T13:38:21Z</time>
      </trkpt>
      <trkpt lat="44.100805" lon="1.072986">
        <ele>74.6</ele>
        <time>2014-02-14T13:38:29Z</time>
      </trkpt>
      <trkpt lat="44.100793" lon="1.072851">
        <ele>74.6</ele>
        <time>2014-02-14T13:38:37Z</time>
      </trkpt>
      <trkpt lat="44.100768" lon="1.072712">
        <ele>74.5</ele>
        <time>2014-02-14T13:38:45Z</time>
      </trkpt>
      <trkpt lat="44.100738" lon="1.072582">
        <ele>74.5</ele>
        <time>2014-02-14T13:38:53Z</time>
      </trkpt>
      <trkpt lat="44.100714" lon="1.072450">
        <ele>74.6</ele>
        <time>2014-02-14T13:39:01Z</time>
      </trkpt>
      <trkpt lat="44.100684" lon="1.072327">
        <ele>74.6</ele>
        <time>2014-02-14T13:39:09Z</time>
      </trkpt>
      <trkpt lat="44.100657" lon="1.072187">
        <ele>74.5</ele>
        <time>2014-02-14T13:39:17Z</time>
      </trkpt>
      <trkpt lat="44.100626" lon="1.072043">
        <ele>74.6</ele>
        <time>2014-02-14T13:39:25Z</time>
      </trkpt>
      <trkpt lat="44.100599" lon="1.071897">
        <ele>74.6</ele>
        <time>2014-02-14T13:39:34Z</time>
      </trkpt>
      <trkpt lat="44.100567" lon="1.071749">
        <ele>74.6</ele>
        <time>2014-02-14T13:39:43Z</time>
      </trkpt>
      <trkpt lat="44.100533" lon="1.071610">
        <ele>74.9</ele>
        <time>2014-02-14T13:39:52Z</time>
      </trkpt>
      <trkpt lat="44.100496" lon="1.071467">
        <ele>74.8</ele>
        <time>2014-02-14T13:40:03Z</time>
      </trkpt>
      <trkpt lat="44.100447" lon="1.071320">
        <ele>74.7</ele>
        <time>2014-02-14T13:40:12Z</time>
      </trkpt>
      <trkpt lat="44.100394" lon="1.071185">
        <ele>74.7</ele>
        <time>2014-02-14T13:40:20Z</time>
      </trkpt>
      <trkpt lat="44.100342" lon="1.071057">
        <ele>74.7</ele>
        <time>2014-02-14T13:40:28Z</time>
      </trkpt>
      <trkpt lat="44.100294" lon="1.070944">
        <ele>74.9</ele>
        <time>2014-02-14T13:40:36Z</time>
      </trkpt>
      <trkpt lat="44.100243" lon="1.070823">
        <ele>75.0</ele>
        <time>2014-02-14T13:40:44Z</time>
      </trkpt>
      <trkpt lat="44.100201" lon="1.070698">
        <ele>75.1</ele>
        <time>2014-02-14T13:40:52Z</time>
      </trkpt>
      <trkpt lat="44.100157" lon="1.070565">
        <ele>75.2</ele>
        <time>2014-02-14T13:41:00Z</time>
      </trkpt>
      <trkpt lat="44.100109" lon="1.070463">
        <ele>75.2</ele>
        <time>2014-02-14T13:41:08Z</time>
      </trkpt>
      <trkpt lat="44.100055" lon="1.070345">
        <ele>75.2</ele>
        <time>2014-02-14T13:41:51Z</time>
      </trkpt>
      <trkpt lat="44.100001" lon="1.070226">
        <ele>75.3</ele>
        <time>2014-02-14T13:41:59Z</time>
      </trkpt>
      <trkpt lat="44.099962" lon="1.070129">
        <ele>75.5</ele>
        <time>2014-02-14T13:42:08Z</time>
      </trkpt>
      <trkpt lat="44.099919" lon="1.070003">
        <ele>75.2</ele>
        <time>2014-02-14T13:42:17Z</time>
      </trkpt>
      <trkpt lat="44.099850" lon="1.069868">
        <ele>74.7</ele>
        <time>2014-02-14T13:42:27Z</time>
      </trkpt>
      <trkpt lat="44.099786" lon="1.069696">
        <ele>74.7</ele>
        <time>2014-02-14T13:42:36Z</time>
      </trkpt>
      <trkpt lat="44.099737" lon="1.069559">
        <ele>74.7</ele>
        <time>2014-02-14T13:42:45Z</time>
      </trkpt>
      <trkpt lat="44.099688" lon="1.069416">
        <ele>74.5</ele>
        <time>2014-02-14T13:42:55Z</time>
      </trkpt>
      <trkpt lat="44.099640" lon="1.069276">
        <ele>74.3</ele>
        <time>2014-02-14T13:43:05Z</time>
      </trkpt>
      <trkpt lat="44.099602" lon="1.069132">
        <ele>74.3</ele>
        <time>2014-02-14T13:43:14Z</time>
      </trkpt>
      <trkpt lat="44.099551" lon="1.068991">
        <ele>74.3</ele>
        <time>2014-02-14T13:43:22Z</time>
      </trkpt>
      <trkpt lat="44.099506" lon="1.068861">
        <ele>74.5</ele>
        <time>2014-02-14T13:43:31Z</time>
      </trkpt>
      <trkpt lat="44.099454" lon="1.068713">
        <ele>74.4</ele>
        <time>2014-02-14T13:43:41Z</time>
      </trkpt>
      <trkpt lat="44.099389" lon="1.068576">
        <ele>74.3</ele>
        <time>2014-02-14T13:43:51Z</time>
      </trkpt>
      <trkpt lat="44.099328" lon="1.068429">
        <ele>74.3</ele>
        <time>2014-02-14T13:44:00Z</time>
      </trkpt>
      <trkpt lat="44.099281" lon="1.068287">
        <ele>74.4</ele>
        <time>2014-02-14T13:44:09Z</time>
      </trkpt>
      <trkpt lat="44.099241" lon="1.068163">
        <ele>74.3</ele>
        <time>2014-02-14T13:44:18Z</time>
      </trkpt>
      <trkpt lat="44.099186" lon="1.068036">
        <ele>74.3</ele>
        <time>2014-02-14T13:44:28Z</time>
      </trkpt>
      <trkpt lat="44.099117" lon="1.067914">
        <ele>74.5</ele>
        <time>2014-02-14T13:44:38Z</time>
      </trkpt>
      <trkpt lat="44.099052" lon="1.067776">
        <ele>74.4</ele>
        <time>2014-02-14T13:44:47Z</time>
      </trkpt>
      <trkpt lat="44.098978" lon="1.067641">
        <ele>74.5</ele>
        <time>2014-02-14T13:44:57Z</time>
      </trkpt>
      <trkpt lat="44.098902" lon="1.067502">
        <ele>74.4</ele>
        <time>2014-02-14T13:45:07Z</time>
      </trkpt>
      <trkpt lat="44.098837" lon="1.067364">
        <ele>74.4</ele>
        <time>2014-02-14T13:45:17Z</time>
      </trkpt>
      <trkpt lat="44.098756" lon="1.067257">
        <ele>74.3</ele>
        <time>2014-02-14T13:45:25Z</time>
      </trkpt>
      <trkpt lat="44.098697" lon="1.067154">
        <ele>74.3</ele>
        <time>2014-02-14T13:45:34Z</time>
      </trkpt>
      <trkpt lat="44.098621" lon="1.067033">
        <ele>74.1</ele>
        <time>2014-02-14T13:45:45Z</time>
      </trkpt>
      <trkpt lat="44.098546" lon="1.066924">
        <ele>74.1</ele>
        <time>2014-02-14T13:45:55Z</time>
      </trkpt>
      <trkpt lat="44.098461" lon="1.066810">
        <ele>74.2</ele>
        <time>2014-02-14T13:46:06Z</time>
      </trkpt>
      <trkpt lat="44.098396" lon="1.066696">
        <ele>74.1</ele>
        <time>2014-02-14T13:46:15Z</time>
      </trkpt>
      <trkpt lat="44.098332" lon="1.066596">
        <ele>74.2</ele>
        <time>2014-02-14T13:46:23Z</time>
      </trkpt>
      <trkpt lat="44.098269" lon="1.066483">
        <ele>74.3</ele>
        <time>2014-02-14T13:46:31Z</time>
      </trkpt>
      <trkpt lat="44.098206" lon="1.066379">
        <ele>74.3</ele>
        <time>2014-02-14T13:46:39Z</time>
      </trkpt>
      <trkpt lat="44.098113" lon="1.066259">
        <ele>74.0</ele>
        <time>2014-02-14T13:46:49Z</time>
      </trkpt>
      <trkpt lat="44.098037" lon="1.066168">
        <ele>74.2</ele>
        <time>2014-02-14T13:46:57Z</time>
      </trkpt>
      <trkpt lat="44.097970" lon="1.066059">
        <ele>74.2</ele>
        <time>2014-02-14T13:47:06Z</time>
      </trkpt>
      <trkpt lat="44.097898" lon="1.065939">
        <ele>74.2</ele>
        <time>2014-02-14T13:47:16Z</time>
      </trkpt>
      <trkpt lat="44.097833" lon="1.065828">
        <ele>74.2</ele>
        <time>2014-02-14T13:47:25Z</time>
      </trkpt>
      <trkpt lat="44.097754" lon="1.065717">
        <ele>74.2</ele>
        <time>2014-02-14T13:47:34Z</time>
      </trkpt>
      <trkpt lat="44.097656" lon="1.065606">
        <ele>74.3</ele>
        <time>2014-02-14T13:47:44Z</time>
      </trkpt>
      <trkpt lat="44.097574" lon="1.065503">
        <ele>74.4</ele>
        <time>2014-02-14T13:47:52Z</time>
      </trkpt>
      <trkpt lat="44.097494" lon="1.065390">
        <ele>74.5</ele>
        <time>2014-02-14T13:48:01Z</time>
      </trkpt>
      <trkpt lat="44.097424" lon="1.065283">
        <ele>74.5</ele>
        <time>2014-02-14T13:48:10Z</time>
      </trkpt>
      <trkpt lat="44.097353" lon="1.065169">
        <ele>74.6</ele>
        <time>2014-02-14T13:48:19Z</time>
      </trkpt>
      <trkpt lat="44.097280" lon="1.065053">
        <ele>74.3</ele>
        <time>2014-02-14T13:48:28Z</time>
      </trkpt>
      <trkpt lat="44.097212" lon="1.064961">
        <ele>74.0</ele>
        <time>2014-02-14T13:48:36Z</time>
      </trkpt>
      <trkpt lat="44.097146" lon="1.064858">
        <ele>74.0</ele>
        <time>2014-02-14T13:48:44Z</time>
      </trkpt>
      <trkpt lat="44.097076" lon="1.064766">
        <ele>74.0</ele>
        <time>2014-02-14T13:48:52Z</time>
      </trkpt>
      <trkpt lat="44.097003" lon="1.064675">
        <ele>73.9</ele>
        <time>2014-02-14T13:49:00Z</time>
      </trkpt>
      <trkpt lat="44.096944" lon="1.064571">
        <ele>73.9</ele>
        <time>2014-02-14T13:49:08Z</time>
      </trkpt>
      <trkpt lat="44.096878" lon="1.064471">
        <ele>74.1</ele>
        <time>2014-02-14T13:49:16Z</time>
      </trkpt>
      <trkpt lat="44.096817" lon="1.064377">
        <ele>74.1</ele>
        <time>2014-02-14T13:49:24Z</time>
      </trkpt>
      <trkpt lat="44.096750" lon="1.064274">
        <ele>74.1</ele>
        <time>2014-02-14T13:49:32Z</time>
      </trkpt>
      <trkpt lat="44.096685" lon="1.064162">
        <ele>74.2</ele>
        <time>2014-02-14T13:49:41Z</time>
      </trkpt>
      <trkpt lat="44.096610" lon="1.064060">
        <ele>74.0</ele>
        <time>2014-02-14T13:49:49Z</time>
      </trkpt>
      <trkpt lat="44.096540" lon="1.063953">
        <ele>74.2</ele>
        <time>2014-02-14T13:49:58Z</time>
      </trkpt>
      <trkpt lat="44.096482" lon="1.063848">
        <ele>74.1</ele>
        <time>2014-02-14T13:50:05Z</time>
      </trkpt>
      <trkpt lat="44.096412" lon="1.063745">
        <ele>73.9</ele>
        <time>2014-02-14T13:50:13Z</time>
      </trkpt>
      <trkpt lat="44.096338" lon="1.063639">
        <ele>73.8</ele>
        <time>2014-02-14T13:50:21Z</time>
      </trkpt>
      <trkpt lat="44.096275" lon="1.063527">
        <ele>73.7</ele>
        <time>2014-02-14T13:50:30Z</time>
      </trkpt>
      <trkpt lat="44.096226" lon="1.063412">
        <ele>73.7</ele>
        <time>2014-02-14T13:50:38Z</time>
      </trkpt>
      <trkpt lat="44.096172" lon="1.063291">
        <ele>73.5</ele>
        <time>2014-02-14T13:50:46Z</time>
      </trkpt>
      <trkpt lat="44.096110" lon="1.063189">
        <ele>73.4</ele>
        <time>2014-02-14T13:50:53Z</time>
      </trkpt>
      <trkpt lat="44.096065" lon="1.063087">
        <ele>73.2</ele>
        <time>2014-02-14T13:51:02Z</time>
      </trkpt>
      <trkpt lat="44.096013" lon="1.062950">
        <ele>73.1</ele>
        <time>2014-02-14T13:51:11Z</time>
      </trkpt>
      <trkpt lat="44.095976" lon="1.062817">
        <ele>73.1</ele>
        <time>2014-02-14T13:51:20Z</time>
      </trkpt>
      <trkpt lat="44.095920" lon="1.062675">
        <ele>73.0</ele>
        <time>2014-02-14T13:51:29Z</time>
      </trkpt>
      <trkpt lat="44.095862" lon="1.062536">
        <ele>73.1</ele>
        <time>2014-02-14T13:51:39Z</time>
      </trkpt>
      <trkpt lat="44.095809" lon="1.062390">
        <ele>73.1</ele>
        <time>2014-02-14T13:51:49Z</time>
      </trkpt>
      <trkpt lat="44.095783" lon="1.062264">
        <ele>73.0</ele>
        <time>2014-02-14T13:51:58Z</time>
      </trkpt>
      <trkpt lat="44.095761" lon="1.062196">
        <ele>72.6</ele>
        <time>2014-02-14T13:52:56Z</time>
      </trkpt>
      <trkpt lat="44.095708" lon="1.062069">
        <ele>72.8</ele>
        <time>2014-02-14T13:53:05Z</time>
      </trkpt>
      <trkpt lat="44.095686" lon="1.061918">
        <ele>72.6</ele>
        <time>2014-02-14T13:53:14Z</time>
      </trkpt>
      <trkpt lat="44.095660" lon="1.061794">
        <ele>72.8</ele>
        <time>2014-02-14T13:53:22Z</time>
      </trkpt>
      <trkpt lat="44.095634" lon="1.061648">
        <ele>72.8</ele>
        <time>2014-02-14T13:53:31Z</time>
      </trkpt>
      <trkpt lat="44.095615" lon="1.061495">
        <ele>72.9</ele>
        <time>2014-02-14T13:53:39Z</time>
      </trkpt>
      <trkpt lat="44.095581" lon="1.061352">
        <ele>73.1</ele>
        <time>2014-02-14T13:53:49Z</time>
      </trkpt>
      <trkpt lat="44.095557" lon="1.061226">
        <ele>72.8</ele>
        <time>2014-02-14T13:53:59Z</time>
      </trkpt>
      <trkpt lat="44.095538" lon="1.061036">
        <ele>72.8</ele>
        <time>2014-02-14T13:54:08Z</time>
      </trkpt>
      <trkpt lat="44.095522" lon="1.060903">
        <ele>73.0</ele>
        <time>2014-02-14T13:54:17Z</time>
      </trkpt>
      <trkpt lat="44.095512" lon="1.060731">
        <ele>73.0</ele>
        <time>2014-02-14T13:54:28Z</time>
      </trkpt>
      <trkpt lat="44.095509" lon="1.060558">
        <ele>73.0</ele>
        <time>2014-02-14T13:54:37Z</time>
      </trkpt>
      <trkpt lat="44.095505" lon="1.060398">
        <ele>73.4</ele>
        <time>2014-02-14T13:54:48Z</time>
      </trkpt>
      <trkpt lat="44.095483" lon="1.060339">
        <ele>73.1</ele>
        <time>2014-02-14T13:55:30Z</time>
      </trkpt>
      <trkpt lat="44.095480" lon="1.060189">
        <ele>73.2</ele>
        <time>2014-02-14T13:55:39Z</time>
      </trkpt>
      <trkpt lat="44.095463" lon="1.060012">
        <ele>73.3</ele>
        <time>2014-02-14T13:55:48Z</time>
      </trkpt>
      <trkpt lat="44.095450" lon="1.059856">
        <ele>73.4</ele>
        <time>2014-02-14T13:55:56Z</time>
      </trkpt>
      <trkpt lat="44.095440" lon="1.059707">
        <ele>73.4</ele>
        <time>2014-02-14T13:56:06Z</time>
      </trkpt>
      <trkpt lat="44.095436" lon="1.059551">
        <ele>73.3</ele>
        <time>2014-02-14T13:56:13Z</time>
      </trkpt>
      <trkpt lat="44.095429" lon="1.059407">
        <ele>73.0</ele>
        <time>2014-02-14T13:56:21Z</time>
      </trkpt>
      <trkpt lat="44.095411" lon="1.059253">
        <ele>72.9</ele>
        <time>2014-02-14T13:56:29Z</time>
      </trkpt>
      <trkpt lat="44.095395" lon="1.059114">
        <ele>72.6</ele>
        <time>2014-02-14T13:56:37Z</time>
      </trkpt>
      <trkpt lat="44.095369" lon="1.058942">
        <ele>72.5</ele>
        <time>2014-02-14T13:56:45Z</time>
      </trkpt>
      <trkpt lat="44.095356" lon="1.058794">
        <ele>72.6</ele>
        <time>2014-02-14T13:56:53Z</time>
      </trkpt>
      <trkpt lat="44.095332" lon="1.058657">
        <ele>72.5</ele>
        <time>2014-02-14T13:57:02Z</time>
      </trkpt>
      <trkpt lat="44.095333" lon="1.058514">
        <ele>72.3</ele>
        <time>2014-02-14T13:57:11Z</time>
      </trkpt>
      <trkpt lat="44.095326" lon="1.058344">
        <ele>72.3</ele>
        <time>2014-02-14T13:57:20Z</time>
      </trkpt>
      <trkpt lat="44.095323" lon="1.058192">
        <ele>72.3</ele>
        <time>2014-02-14T13:57:28Z</time>
      </trkpt>
      <trkpt lat="44.095293" lon="1.058049">
        <ele>72.1</ele>
        <time>2014-02-14T13:57:36Z</time>
      </trkpt>
      <trkpt lat="44.095290" lon="1.057916">
        <ele>72.1</ele>
        <time>2014-02-14T13:57:45Z</time>
      </trkpt>
      <trkpt lat="44.095273" lon="1.057745">
        <ele>72.2</ele>
        <time>2014-02-14T13:57:53Z</time>
      </trkpt>
      <trkpt lat="44.095271" lon="1.057606">
        <ele>72.2</ele>
        <time>2014-02-14T13:58:02Z</time>
      </trkpt>
      <trkpt lat="44.095254" lon="1.057448">
        <ele>72.2</ele>
        <time>2014-02-14T13:58:11Z</time>
      </trkpt>
      <trkpt lat="44.095236" lon="1.057281">
        <ele>72.0</ele>
        <time>2014-02-14T13:58:20Z</time>
      </trkpt>
      <trkpt lat="44.095211" lon="1.057109">
        <ele>72.0</ele>
        <time>2014-02-14T13:58:30Z</time>
      </trkpt>
      <trkpt lat="44.095184" lon="1.056957">
        <ele>72.2</ele>
        <time>2014-02-14T13:58:38Z</time>
      </trkpt>
      <trkpt lat="44.095170" lon="1.056794">
        <ele>72.2</ele>
        <time>2014-02-14T13:58:47Z</time>
      </trkpt>
      <trkpt lat="44.095148" lon="1.056639">
        <ele>72.1</ele>
        <time>2014-02-14T13:58:55Z</time>
      </trkpt>
      <trkpt lat="44.095132" lon="1.056483">
        <ele>72.1</ele>
        <time>2014-02-14T13:59:04Z</time>
      </trkpt>
      <trkpt lat="44.095102" lon="1.056339">
        <ele>72.1</ele>
        <time>2014-02-14T13:59:13Z</time>
      </trkpt>
      <trkpt lat="44.095075" lon="1.056172">
        <ele>72.0</ele>
        <time>2014-02-14T13:59:22Z</time>
      </trkpt>
      <trkpt lat="44.095045" lon="1.056016">
        <ele>72.0</ele>
        <time>2014-02-14T13:59:32Z</time>
      </trkpt>
      <trkpt lat="44.095018" lon="1.055885">
        <ele>72.4</ele>
        <time>2014-02-14T13:59:40Z</time>
      </trkpt>
      <trkpt lat="44.094984" lon="1.055744">
        <ele>72.4</ele>
        <time>2014-02-14T13:59:48Z</time>
      </trkpt>
      <trkpt lat="44.094982" lon="1.055591">
        <ele>72.3</ele>
        <time>2014-02-14T13:59:56Z</time>
      </trkpt>
      <trkpt lat="44.094948" lon="1.055447">
        <ele>72.2</ele>
        <time>2014-02-14T14:00:04Z</time>
      </trkpt>
      <trkpt lat="44.094915" lon="1.055306">
        <ele>72.5</ele>
        <time>2014-02-14T14:00:13Z</time>
      </trkpt>
      <trkpt lat="44.094875" lon="1.055144">
        <ele>72.7</ele>
        <time>2014-02-14T14:00:22Z</time>
      </trkpt>
      <trkpt lat="44.094838" lon="1.055010">
        <ele>72.7</ele>
        <time>2014-02-14T14:00:30Z</time>
      </trkpt>
      <trkpt lat="44.094790" lon="1.054877">
        <ele>72.5</ele>
        <time>2014-02-14T14:00:38Z</time>
      </trkpt>
      <trkpt lat="44.094749" lon="1.054749">
        <ele>72.6</ele>
        <time>2014-02-14T14:00:46Z</time>
      </trkpt>
      <trkpt lat="44.094706" lon="1.054625">
        <ele>72.4</ele>
        <time>2014-02-14T14:00:54Z</time>
      </trkpt>
      <trkpt lat="44.094663" lon="1.054484">
        <ele>72.4</ele>
        <time>2014-02-14T14:01:02Z</time>
      </trkpt>
      <trkpt lat="44.094632" lon="1.054369">
        <ele>72.5</ele>
        <time>2014-02-14T14:01:10Z</time>
      </trkpt>
      <trkpt lat="44.094587" lon="1.054213">
        <ele>72.6</ele>
        <time>2014-02-14T14:01:19Z</time>
      </trkpt>
      <trkpt lat="44.094550" lon="1.054066">
        <ele>72.6</ele>
        <time>2014-02-14T14:01:27Z</time>
      </trkpt>
      <trkpt lat="44.094510" lon="1.053949">
        <ele>72.6</ele>
        <time>2014-02-14T14:01:35Z</time>
      </trkpt>
      <trkpt lat="44.094464" lon="1.053803">
        <ele>72.5</ele>
        <time>2014-02-14T14:01:44Z</time>
      </trkpt>
      <trkpt lat="44.094421" lon="1.053670">
        <ele>72.5</ele>
        <time>2014-02-14T14:01:52Z</time>
      </trkpt>
      <trkpt lat="44.094371" lon="1.053555">
        <ele>72.6</ele>
        <time>2014-02-14T14:01:59Z</time>
      </trkpt>
      <trkpt lat="44.094319" lon="1.053431">
        <ele>72.7</ele>
        <time>2014-02-14T14:02:06Z</time>
      </trkpt>
      <trkpt lat="44.094269" lon="1.053301">
        <ele>72.8</ele>
        <time>2014-02-14T14:02:14Z</time>
      </trkpt>
      <trkpt lat="44.094216" lon="1.053172">
        <ele>72.8</ele>
        <time>2014-02-14T14:02:22Z</time>
      </trkpt>
      <trkpt lat="44.094153" lon="1.053052">
        <ele>72.9</ele>
        <time>2014-02-14T14:02:30Z</time>
      </trkpt>
      <trkpt lat="44.094106" lon="1.052942">
        <ele>72.9</ele>
        <time>2014-02-14T14:02:37Z</time>
      </trkpt>
      <trkpt lat="44.094052" lon="1.052822">
        <ele>72.8</ele>
        <time>2014-02-14T14:02:45Z</time>
      </trkpt>
      <trkpt lat="44.093988" lon="1.052695">
        <ele>72.7</ele>
        <time>2014-02-14T14:02:52Z</time>
      </trkpt>
      <trkpt lat="44.093933" lon="1.052571">
        <ele>72.8</ele>
        <time>2014-02-14T14:03:00Z</time>
      </trkpt>
      <trkpt lat="44.093875" lon="1.052462">
        <ele>72.9</ele>
        <time>2014-02-14T14:03:08Z</time>
      </trkpt>
      <trkpt lat="44.093811" lon="1.052348">
        <ele>72.7</ele>
        <time>2014-02-14T14:03:15Z</time>
      </trkpt>
      <trkpt lat="44.093757" lon="1.052229">
        <ele>72.6</ele>
        <time>2014-02-14T14:03:23Z</time>
      </trkpt>
      <trkpt lat="44.093691" lon="1.052107">
        <ele>72.5</ele>
        <time>2014-02-14T14:03:32Z</time>
      </trkpt>
      <trkpt lat="44.093638" lon="1.051980">
        <ele>72.7</ele>
        <time>2014-02-14T14:03:41Z</time>
      </trkpt>
      <trkpt lat="44.093573" lon="1.051865">
        <ele>73.0</ele>
        <time>2014-02-14T14:03:49Z</time>
      </trkpt>
      <trkpt lat="44.093495" lon="1.051731">
        <ele>73.0</ele>
        <time>2014-02-14T14:03:57Z</time>
      </trkpt>
      <trkpt lat="44.093431" lon="1.051631">
        <ele>72.9</ele>
        <time>2014-02-14T14:04:05Z</time>
      </trkpt>
      <trkpt lat="44.093415" lon="1.051494">
        <ele>72.8</ele>
        <time>2014-02-14T14:04:13Z</time>
      </trkpt>
      <trkpt lat="44.093380" lon="1.051360">
        <ele>72.6</ele>
        <time>2014-02-14T14:04:22Z</time>
      </trkpt>
      <trkpt lat="44.093270" lon="1.051326">
        <ele>72.7</ele>
        <time>2014-02-14T14:04:33Z</time>
      </trkpt>
      <trkpt lat="44.093195" lon="1.051255">
        <ele>72.8</ele>
        <time>2014-02-14T14:04:41Z</time>
      </trkpt>
      <trkpt lat="44.093145" lon="1.051142">
        <ele>73.2</ele>
        <time>2014-02-14T14:04:50Z</time>
      </trkpt>
      <trkpt lat="44.093182" lon="1.050995">
        <ele>74.3</ele>
        <time>2014-02-14T14:05:03Z</time>
        <name>Ecluse de l Espagnette</name>
      </trkpt>
      <trkpt lat="44.093258" lon="1.050953">
        <ele>74.8</ele>
        <time>2014-02-14T14:06:21Z</time>
      </trkpt>
      <trkpt lat="44.093343" lon="1.050849">
        <ele>74.8</ele>
        <time>2014-02-14T14:06:31Z</time>
      </trkpt>
      <trkpt lat="44.093414" lon="1.050803">
        <ele>75.1</ele>
        <time>2014-02-14T14:06:41Z</time>
      </trkpt>
      <trkpt lat="44.093481" lon="1.050724">
        <ele>75.6</ele>
        <time>2014-02-14T14:07:34Z</time>
      </trkpt>
      <trkpt lat="44.093571" lon="1.050629">
        <ele>75.8</ele>
        <time>2014-02-14T14:07:43Z</time>
      </trkpt>
      <trkpt lat="44.093682" lon="1.050644">
        <ele>76.1</ele>
        <time>2014-02-14T14:07:54Z</time>
      </trkpt>
      <trkpt lat="44.093770" lon="1.050758">
        <ele>76.6</ele>
        <time>2014-02-14T14:08:03Z</time>
      </trkpt>
      <trkpt lat="44.093836" lon="1.050880">
        <ele>76.7</ele>
        <time>2014-02-14T14:08:11Z</time>
      </trkpt>
      <trkpt lat="44.093915" lon="1.051006">
        <ele>76.3</ele>
        <time>2014-02-14T14:08:21Z</time>
      </trkpt>
      <trkpt lat="44.093970" lon="1.051125">
        <ele>76.5</ele>
        <time>2014-02-14T14:08:29Z</time>
      </trkpt>
      <trkpt lat="44.094025" lon="1.051243">
        <ele>76.9</ele>
        <time>2014-02-14T14:08:37Z</time>
      </trkpt>
      <trkpt lat="44.094089" lon="1.051350">
        <ele>76.9</ele>
        <time>2014-02-14T14:08:45Z</time>
      </trkpt>
      <trkpt lat="44.094166" lon="1.051477">
        <ele>76.9</ele>
        <time>2014-02-14T14:08:54Z</time>
      </trkpt>
      <trkpt lat="44.094227" lon="1.051605">
        <ele>76.8</ele>
        <time>2014-02-14T14:09:02Z</time>
      </trkpt>
      <trkpt lat="44.094290" lon="1.051718">
        <ele>76.8</ele>
        <time>2014-02-14T14:09:10Z</time>
      </trkpt>
      <trkpt lat="44.094376" lon="1.051837">
        <ele>76.7</ele>
        <time>2014-02-14T14:09:18Z</time>
      </trkpt>
      <trkpt lat="44.094455" lon="1.051960">
        <ele>76.8</ele>
        <time>2014-02-14T14:09:26Z</time>
      </trkpt>
      <trkpt lat="44.094506" lon="1.052076">
        <ele>76.7</ele>
        <time>2014-02-14T14:09:34Z</time>
      </trkpt>
      <trkpt lat="44.094574" lon="1.052191">
        <ele>76.6</ele>
        <time>2014-02-14T14:09:42Z</time>
      </trkpt>
      <trkpt lat="44.094669" lon="1.052265">
        <ele>76.6</ele>
        <time>2014-02-14T14:09:50Z</time>
      </trkpt>
      <trkpt lat="44.094764" lon="1.052319">
        <ele>76.9</ele>
        <time>2014-02-14T14:09:59Z</time>
      </trkpt>
      <trkpt lat="44.094851" lon="1.052439">
        <ele>76.9</ele>
        <time>2014-02-14T14:10:10Z</time>
      </trkpt>
      <trkpt lat="44.094960" lon="1.052548">
        <ele>76.7</ele>
        <time>2014-02-14T14:10:21Z</time>
      </trkpt>
      <trkpt lat="44.095044" lon="1.052652">
        <ele>76.7</ele>
        <time>2014-02-14T14:10:30Z</time>
      </trkpt>
      <trkpt lat="44.095142" lon="1.052751">
        <ele>76.7</ele>
        <time>2014-02-14T14:10:39Z</time>
      </trkpt>
      <trkpt lat="44.095238" lon="1.052862">
        <ele>76.8</ele>
        <time>2014-02-14T14:10:49Z</time>
      </trkpt>
      <trkpt lat="44.095317" lon="1.052894">
        <ele>76.7</ele>
        <time>2014-02-14T14:10:59Z</time>
      </trkpt>
      <trkpt lat="44.095343" lon="1.052758">
        <ele>76.8</ele>
        <time>2014-02-14T14:11:08Z</time>
      </trkpt>
      <trkpt lat="44.095351" lon="1.052627">
        <ele>77.4</ele>
        <time>2014-02-14T14:11:17Z</time>
      </trkpt>
      <trkpt lat="44.095262" lon="1.052539">
        <ele>78.2</ele>
        <time>2014-02-14T14:11:27Z</time>
      </trkpt>
      <trkpt lat="44.095151" lon="1.052535">
        <ele>79.3</ele>
        <time>2014-02-14T14:11:37Z</time>
      </trkpt>
      <trkpt lat="44.095050" lon="1.052489">
        <ele>80.7</ele>
        <time>2014-02-14T14:11:47Z</time>
      </trkpt>
      <trkpt lat="44.095020" lon="1.052350">
        <ele>82.3</ele>
        <time>2014-02-14T14:11:57Z</time>
      </trkpt>
      <trkpt lat="44.095051" lon="1.052205">
        <ele>83.9</ele>
        <time>2014-02-14T14:12:08Z</time>
      </trkpt>
      <trkpt lat="44.095117" lon="1.052094">
        <ele>85.4</ele>
        <time>2014-02-14T14:12:18Z</time>
      </trkpt>
      <trkpt lat="44.095176" lon="1.051964">
        <ele>87.3</ele>
        <time>2014-02-14T14:12:29Z</time>
      </trkpt>
      <trkpt lat="44.095153" lon="1.051800">
        <ele>88.1</ele>
        <time>2014-02-14T14:12:40Z</time>
      </trkpt>
      <trkpt lat="44.095057" lon="1.051755">
        <ele>89.5</ele>
        <time>2014-02-14T14:12:50Z</time>
      </trkpt>
      <trkpt lat="44.094945" lon="1.051762">
        <ele>90.8</ele>
        <time>2014-02-14T14:13:00Z</time>
      </trkpt>
      <trkpt lat="44.094850" lon="1.051730">
        <ele>91.8</ele>
        <time>2014-02-14T14:13:09Z</time>
      </trkpt>
      <trkpt lat="44.094797" lon="1.051619">
        <ele>93.2</ele>
        <time>2014-02-14T14:13:19Z</time>
      </trkpt>
      <trkpt lat="44.094813" lon="1.051479">
        <ele>94.9</ele>
        <time>2014-02-14T14:13:29Z</time>
      </trkpt>
      <trkpt lat="44.094857" lon="1.051357">
        <ele>96.6</ele>
        <time>2014-02-14T14:13:39Z</time>
      </trkpt>
      <trkpt lat="44.094879" lon="1.051214">
        <ele>97.8</ele>
        <time>2014-02-14T14:13:49Z</time>
      </trkpt>
      <trkpt lat="44.094873" lon="1.051048">
        <ele>99.4</ele>
        <time>2014-02-14T14:13:59Z</time>
      </trkpt>
      <trkpt lat="44.094848" lon="1.050905">
        <ele>100.4</ele>
        <time>2014-02-14T14:14:08Z</time>
      </trkpt>
      <trkpt lat="44.094837" lon="1.050769">
        <ele>101.4</ele>
        <time>2014-02-14T14:14:17Z</time>
      </trkpt>
      <trkpt lat="44.094816" lon="1.050616">
        <ele>102.4</ele>
        <time>2014-02-14T14:14:26Z</time>
      </trkpt>
      <trkpt lat="44.094805" lon="1.050477">
        <ele>103.8</ele>
        <time>2014-02-14T14:14:35Z</time>
      </trkpt>
      <trkpt lat="44.094769" lon="1.050334">
        <ele>105.0</ele>
        <time>2014-02-14T14:14:45Z</time>
      </trkpt>
      <trkpt lat="44.094717" lon="1.050202">
        <ele>106.1</ele>
        <time>2014-02-14T14:14:54Z</time>
      </trkpt>
      <trkpt lat="44.094653" lon="1.050081">
        <ele>107.6</ele>
        <time>2014-02-14T14:15:05Z</time>
      </trkpt>
      <trkpt lat="44.094573" lon="1.049972">
        <ele>108.7</ele>
        <time>2014-02-14T14:15:14Z</time>
      </trkpt>
      <trkpt lat="44.094498" lon="1.049870">
        <ele>109.7</ele>
        <time>2014-02-14T14:15:24Z</time>
      </trkpt>
      <trkpt lat="44.094415" lon="1.049762">
        <ele>111.1</ele>
        <time>2014-02-14T14:15:33Z</time>
      </trkpt>
      <trkpt lat="44.094340" lon="1.049680">
        <ele>112.5</ele>
        <time>2014-02-14T14:15:43Z</time>
      </trkpt>
      <trkpt lat="44.094259" lon="1.049537">
        <ele>114.1</ele>
        <time>2014-02-14T14:15:56Z</time>
      </trkpt>
      <trkpt lat="44.094186" lon="1.049406">
        <ele>115.6</ele>
        <time>2014-02-14T14:16:07Z</time>
      </trkpt>
      <trkpt lat="44.094139" lon="1.049257">
        <ele>117.0</ele>
        <time>2014-02-14T14:16:16Z</time>
      </trkpt>
      <trkpt lat="44.094086" lon="1.049114">
        <ele>118.5</ele>
        <time>2014-02-14T14:16:27Z</time>
      </trkpt>
      <trkpt lat="44.094041" lon="1.048970">
        <ele>120.2</ele>
        <time>2014-02-14T14:16:37Z</time>
      </trkpt>
      <trkpt lat="44.094023" lon="1.048809">
        <ele>121.5</ele>
        <time>2014-02-14T14:16:47Z</time>
      </trkpt>
      <trkpt lat="44.094022" lon="1.048668">
        <ele>122.8</ele>
        <time>2014-02-14T14:16:56Z</time>
      </trkpt>
      <trkpt lat="44.094051" lon="1.048536">
        <ele>123.6</ele>
        <time>2014-02-14T14:17:06Z</time>
      </trkpt>
      <trkpt lat="44.094100" lon="1.048429">
        <ele>125.5</ele>
        <time>2014-02-14T14:17:18Z</time>
      </trkpt>
      <trkpt lat="44.094151" lon="1.048289">
        <ele>126.6</ele>
        <time>2014-02-14T14:17:30Z</time>
      </trkpt>
      <trkpt lat="44.094219" lon="1.048168">
        <ele>127.6</ele>
        <time>2014-02-14T14:17:41Z</time>
      </trkpt>
      <trkpt lat="44.094289" lon="1.048024">
        <ele>129.0</ele>
        <time>2014-02-14T14:17:52Z</time>
      </trkpt>
      <trkpt lat="44.094366" lon="1.047887">
        <ele>130.2</ele>
        <time>2014-02-14T14:18:04Z</time>
      </trkpt>
      <trkpt lat="44.094453" lon="1.047783">
        <ele>131.1</ele>
        <time>2014-02-14T14:18:15Z</time>
      </trkpt>
      <trkpt lat="44.094517" lon="1.047655">
        <ele>132.0</ele>
        <time>2014-02-14T14:18:25Z</time>
      </trkpt>
      <trkpt lat="44.094563" lon="1.047518">
        <ele>133.1</ele>
        <time>2014-02-14T14:18:35Z</time>
      </trkpt>
      <trkpt lat="44.094592" lon="1.047355">
        <ele>133.8</ele>
        <time>2014-02-14T14:18:45Z</time>
      </trkpt>
      <trkpt lat="44.094625" lon="1.047180">
        <ele>134.5</ele>
        <time>2014-02-14T14:18:55Z</time>
      </trkpt>
      <trkpt lat="44.094645" lon="1.047044">
        <ele>135.1</ele>
        <time>2014-02-14T14:19:04Z</time>
      </trkpt>
      <trkpt lat="44.094644" lon="1.046895">
        <ele>136.1</ele>
        <time>2014-02-14T14:19:13Z</time>
      </trkpt>
      <trkpt lat="44.094654" lon="1.046679">
        <ele>138.9</ele>
        <time>2014-02-14T14:20:17Z</time>
        <name>Laroquette</name>
      </trkpt>
      <trkpt lat="44.094576" lon="1.046752">
        <ele>138.4</ele>
        <time>2014-02-14T14:20:27Z</time>
      </trkpt>
      <trkpt lat="44.094504" lon="1.046841">
        <ele>139.6</ele>
        <time>2014-02-14T14:21:07Z</time>
      </trkpt>
      <trkpt lat="44.094425" lon="1.046958">
        <ele>140.8</ele>
        <time>2014-02-14T14:21:21Z</time>
      </trkpt>
      <trkpt lat="44.094350" lon="1.047081">
        <ele>141.9</ele>
        <time>2014-02-14T14:21:37Z</time>
      </trkpt>
      <trkpt lat="44.094266" lon="1.047006">
        <ele>143.0</ele>
        <time>2014-02-14T14:21:55Z</time>
      </trkpt>
      <trkpt lat="44.094176" lon="1.046910">
        <ele>144.8</ele>
        <time>2014-02-14T14:22:14Z</time>
      </trkpt>
      <trkpt lat="44.094083" lon="1.046819">
        <ele>147.8</ele>
        <time>2014-02-14T14:22:36Z</time>
      </trkpt>
      <trkpt lat="44.093975" lon="1.046702">
        <ele>150.5</ele>
        <time>2014-02-14T14:22:57Z</time>
      </trkpt>
      <trkpt lat="44.093871" lon="1.046612">
        <ele>154.0</ele>
        <time>2014-02-14T14:23:17Z</time>
      </trkpt>
      <trkpt lat="44.093770" lon="1.046519">
        <ele>155.4</ele>
        <time>2014-02-14T14:23:29Z</time>
      </trkpt>
      <trkpt lat="44.093671" lon="1.046439">
        <ele>157.0</ele>
        <time>2014-02-14T14:23:39Z</time>
      </trkpt>
      <trkpt lat="44.093575" lon="1.046350">
        <ele>157.3</ele>
        <time>2014-02-14T14:23:49Z</time>
      </trkpt>
      <trkpt lat="44.093531" lon="1.046152">
        <ele>144.9</ele>
        <time>2014-02-14T14:24:00Z</time>
      </trkpt>
      <trkpt lat="44.093521" lon="1.046049">
        <ele>146.1</ele>
        <time>2014-02-14T14:25:52Z</time>
      </trkpt>
      <trkpt lat="44.093510" lon="1.045909">
        <ele>147.8</ele>
        <time>2014-02-14T14:26:07Z</time>
      </trkpt>
      <trkpt lat="44.093498" lon="1.045725">
        <ele>149.3</ele>
        <time>2014-02-14T14:26:19Z</time>
      </trkpt>
      <trkpt lat="44.093537" lon="1.045567">
        <ele>155.5</ele>
        <time>2014-02-14T14:27:00Z</time>
      </trkpt>
      <trkpt lat="44.093590" lon="1.045460">
        <ele>155.1</ele>
        <time>2014-02-14T14:27:13Z</time>
      </trkpt>
      <trkpt lat="44.093639" lon="1.045308">
        <ele>156.4</ele>
        <time>2014-02-14T14:27:25Z</time>
      </trkpt>
      <trkpt lat="44.093661" lon="1.045134">
        <ele>156.6</ele>
        <time>2014-02-14T14:27:36Z</time>
      </trkpt>
      <trkpt lat="44.093676" lon="1.044987">
        <ele>156.7</ele>
        <time>2014-02-14T14:27:48Z</time>
      </trkpt>
      <trkpt lat="44.093692" lon="1.044832">
        <ele>156.8</ele>
        <time>2014-02-14T14:27:59Z</time>
      </trkpt>
      <trkpt lat="44.093710" lon="1.044678">
        <ele>156.8</ele>
        <time>2014-02-14T14:28:08Z</time>
      </trkpt>
      <trkpt lat="44.093719" lon="1.044540">
        <ele>156.8</ele>
        <time>2014-02-14T14:28:17Z</time>
      </trkpt>
      <trkpt lat="44.093711" lon="1.044422">
        <ele>156.9</ele>
        <time>2014-02-14T14:29:11Z</time>
      </trkpt>
      <trkpt lat="44.093741" lon="1.044278">
        <ele>157.1</ele>
        <time>2014-02-14T14:29:21Z</time>
      </trkpt>
      <trkpt lat="44.093777" lon="1.044098">
        <ele>157.5</ele>
        <time>2014-02-14T14:29:37Z</time>
      </trkpt>
      <trkpt lat="44.093810" lon="1.043896">
        <ele>157.5</ele>
        <time>2014-02-14T14:29:48Z</time>
      </trkpt>
      <trkpt lat="44.093797" lon="1.043790">
        <ele>158.1</ele>
        <time>2014-02-14T14:30:04Z</time>
      </trkpt>
      <trkpt lat="44.093799" lon="1.043671">
        <ele>158.4</ele>
        <time>2014-02-14T14:31:01Z</time>
      </trkpt>
      <trkpt lat="44.093824" lon="1.043513">
        <ele>159.0</ele>
        <time>2014-02-14T14:31:13Z</time>
      </trkpt>
      <trkpt lat="44.093828" lon="1.043324">
        <ele>159.5</ele>
        <time>2014-02-14T14:31:30Z</time>
      </trkpt>
      <trkpt lat="44.093836" lon="1.043101">
        <ele>160.2</ele>
        <time>2014-02-14T14:31:41Z</time>
      </trkpt>
      <trkpt lat="44.093823" lon="1.042931">
        <ele>161.0</ele>
        <time>2014-02-14T14:31:53Z</time>
      </trkpt>
      <trkpt lat="44.093816" lon="1.042782">
        <ele>161.2</ele>
        <time>2014-02-14T14:32:02Z</time>
      </trkpt>
      <trkpt lat="44.093809" lon="1.042627">
        <ele>162.1</ele>
        <time>2014-02-14T14:32:12Z</time>
      </trkpt>
      <trkpt lat="44.093799" lon="1.042464">
        <ele>164.0</ele>
        <time>2014-02-14T14:32:24Z</time>
      </trkpt>
      <trkpt lat="44.093794" lon="1.042329">
        <ele>166.6</ele>
        <time>2014-02-14T14:32:37Z</time>
      </trkpt>
      <trkpt lat="44.093732" lon="1.042196">
        <ele>168.4</ele>
        <time>2014-02-14T14:32:51Z</time>
      </trkpt>
      <trkpt lat="44.093644" lon="1.042099">
        <ele>169.9</ele>
        <time>2014-02-14T14:33:04Z</time>
      </trkpt>
      <trkpt lat="44.093573" lon="1.041981">
        <ele>172.4</ele>
        <time>2014-02-14T14:33:28Z</time>
      </trkpt>
      <trkpt lat="44.093516" lon="1.041910">
        <ele>173.5</ele>
        <time>2014-02-14T14:34:14Z</time>
      </trkpt>
      <trkpt lat="44.093466" lon="1.041795">
        <ele>175.5</ele>
        <time>2014-02-14T14:34:27Z</time>
      </trkpt>
      <trkpt lat="44.093391" lon="1.041655">
        <ele>177.6</ele>
        <time>2014-02-14T14:34:41Z</time>
      </trkpt>
      <trkpt lat="44.093377" lon="1.041501">
        <ele>179.2</ele>
        <time>2014-02-14T14:34:56Z</time>
      </trkpt>
      <trkpt lat="44.093322" lon="1.041323">
        <ele>180.6</ele>
        <time>2014-02-14T14:35:11Z</time>
      </trkpt>
      <trkpt lat="44.093329" lon="1.041181">
        <ele>181.9</ele>
        <time>2014-02-14T14:35:23Z</time>
      </trkpt>
      <trkpt lat="44.093353" lon="1.041044">
        <ele>182.8</ele>
        <time>2014-02-14T14:35:34Z</time>
      </trkpt>
      <trkpt lat="44.093374" lon="1.040891">
        <ele>183.6</ele>
        <time>2014-02-14T14:35:44Z</time>
      </trkpt>
      <trkpt lat="44.093429" lon="1.040726">
        <ele>182.8</ele>
        <time>2014-02-14T14:36:37Z</time>
      </trkpt>
      <trkpt lat="44.093483" lon="1.040600">
        <ele>182.8</ele>
        <time>2014-02-14T14:36:46Z</time>
      </trkpt>
      <trkpt lat="44.093501" lon="1.040460">
        <ele>182.5</ele>
        <time>2014-02-14T14:36:56Z</time>
      </trkpt>
      <trkpt lat="44.093507" lon="1.040309">
        <ele>181.2</ele>
        <time>2014-02-14T14:37:06Z</time>
      </trkpt>
      <trkpt lat="44.093575" lon="1.040172">
        <ele>179.6</ele>
        <time>2014-02-14T14:37:18Z</time>
      </trkpt>
      <trkpt lat="44.093712" lon="1.040092">
        <ele>180.1</ele>
        <time>2014-02-14T14:37:29Z</time>
      </trkpt>
      <trkpt lat="44.093766" lon="1.039993">
        <ele>180.8</ele>
        <time>2014-02-14T14:37:43Z</time>
      </trkpt>
      <trkpt lat="44.093792" lon="1.039906">
        <ele>180.6</ele>
        <time>2014-02-14T14:38:31Z</time>
      </trkpt>
      <trkpt lat="44.093878" lon="1.039815">
        <ele>180.1</ele>
        <time>2014-02-14T14:38:40Z</time>
      </trkpt>
      <trkpt lat="44.093979" lon="1.039733">
        <ele>179.8</ele>
        <time>2014-02-14T14:38:50Z</time>
      </trkpt>
      <trkpt lat="44.094086" lon="1.039683">
        <ele>179.7</ele>
        <time>2014-02-14T14:39:01Z</time>
      </trkpt>
      <trkpt lat="44.094194" lon="1.039611">
        <ele>179.2</ele>
        <time>2014-02-14T14:39:13Z</time>
      </trkpt>
      <trkpt lat="44.094309" lon="1.039454">
        <ele>178.6</ele>
        <time>2014-02-14T14:39:24Z</time>
      </trkpt>
      <trkpt lat="44.094376" lon="1.039298">
        <ele>177.9</ele>
        <time>2014-02-14T14:39:36Z</time>
      </trkpt>
      <trkpt lat="44.094409" lon="1.039162">
        <ele>177.7</ele>
        <time>2014-02-14T14:39:45Z</time>
      </trkpt>
      <trkpt lat="44.094467" lon="1.039020">
        <ele>177.4</ele>
        <time>2014-02-14T14:39:54Z</time>
      </trkpt>
      <trkpt lat="44.094513" lon="1.038889">
        <ele>177.6</ele>
        <time>2014-02-14T14:40:03Z</time>
      </trkpt>
      <trkpt lat="44.094569" lon="1.038756">
        <ele>178.2</ele>
        <time>2014-02-14T14:40:14Z</time>
      </trkpt>
      <trkpt lat="44.094675" lon="1.038668">
        <ele>178.9</ele>
        <time>2014-02-14T14:40:26Z</time>
      </trkpt>
      <trkpt lat="44.094816" lon="1.038597">
        <ele>179.2</ele>
        <time>2014-02-14T14:40:37Z</time>
      </trkpt>
      <trkpt lat="44.094915" lon="1.038520">
        <ele>179.5</ele>
        <time>2014-02-14T14:40:47Z</time>
      </trkpt>
      <trkpt lat="44.094995" lon="1.038417">
        <ele>179.5</ele>
        <time>2014-02-14T14:40:56Z</time>
      </trkpt>
      <trkpt lat="44.095085" lon="1.038340">
        <ele>179.6</ele>
        <time>2014-02-14T14:41:04Z</time>
      </trkpt>
      <trkpt lat="44.095148" lon="1.038239">
        <ele>180.3</ele>
        <time>2014-02-14T14:41:14Z</time>
      </trkpt>
      <trkpt lat="44.095204" lon="1.038141">
        <ele>181.0</ele>
        <time>2014-02-14T14:41:25Z</time>
      </trkpt>
      <trkpt lat="44.095268" lon="1.038018">
        <ele>180.6</ele>
        <time>2014-02-14T14:41:37Z</time>
      </trkpt>
      <trkpt lat="44.095319" lon="1.037895">
        <ele>180.7</ele>
        <time>2014-02-14T14:41:47Z</time>
      </trkpt>
      <trkpt lat="44.095380" lon="1.037757">
        <ele>181.1</ele>
        <time>2014-02-14T14:41:57Z</time>
      </trkpt>
      <trkpt lat="44.095429" lon="1.037644">
        <ele>181.8</ele>
        <time>2014-02-14T14:42:06Z</time>
      </trkpt>
      <trkpt lat="44.095485" lon="1.037544">
        <ele>181.9</ele>
        <time>2014-02-14T14:42:16Z</time>
      </trkpt>
      <trkpt lat="44.095507" lon="1.037466">
        <ele>181.5</ele>
        <time>2014-02-14T14:43:12Z</time>
      </trkpt>
      <trkpt lat="44.095577" lon="1.037360">
        <ele>181.8</ele>
        <time>2014-02-14T14:43:21Z</time>
      </trkpt>
      <trkpt lat="44.095637" lon="1.037240">
        <ele>182.1</ele>
        <time>2014-02-14T14:43:31Z</time>
      </trkpt>
      <trkpt lat="44.095691" lon="1.037121">
        <ele>182.1</ele>
        <time>2014-02-14T14:43:41Z</time>
      </trkpt>
      <trkpt lat="44.095740" lon="1.037008">
        <ele>182.3</ele>
        <time>2014-02-14T14:43:50Z</time>
      </trkpt>
      <trkpt lat="44.095790" lon="1.036889">
        <ele>182.5</ele>
        <time>2014-02-14T14:43:59Z</time>
      </trkpt>
      <trkpt lat="44.095832" lon="1.036770">
        <ele>182.4</ele>
        <time>2014-02-14T14:44:08Z</time>
      </trkpt>
      <trkpt lat="44.095864" lon="1.036640">
        <ele>182.2</ele>
        <time>2014-02-14T14:44:18Z</time>
      </trkpt>
      <trkpt lat="44.095819" lon="1.036587">
        <ele>182.7</ele>
        <time>2014-02-14T14:44:40Z</time>
      </trkpt>
      <trkpt lat="44.095823" lon="1.036619">
        <ele>183.0</ele>
        <time>2014-02-14T14:45:21Z</time>
      </trkpt>
      <trkpt lat="44.095882" lon="1.036487">
        <ele>182.8</ele>
        <time>2014-02-14T14:45:30Z</time>
      </trkpt>
      <trkpt lat="44.095927" lon="1.036352">
        <ele>183.0</ele>
        <time>2014-02-14T14:45:38Z</time>
      </trkpt>
      <trkpt lat="44.095980" lon="1.036227">
        <ele>183.0</ele>
        <time>2014-02-14T14:45:46Z</time>
      </trkpt>
      <trkpt lat="44.096023" lon="1.036100">
        <ele>182.8</ele>
        <time>2014-02-14T14:45:54Z</time>
      </trkpt>
      <trkpt lat="44.096061" lon="1.035975">
        <ele>182.9</ele>
        <time>2014-02-14T14:46:02Z</time>
      </trkpt>
      <trkpt lat="44.096104" lon="1.035855">
        <ele>183.0</ele>
        <time>2014-02-14T14:46:10Z</time>
      </trkpt>
      <trkpt lat="44.096147" lon="1.035739">
        <ele>183.1</ele>
        <time>2014-02-14T14:46:18Z</time>
      </trkpt>
      <trkpt lat="44.096189" lon="1.035623">
        <ele>183.0</ele>
        <time>2014-02-14T14:46:26Z</time>
      </trkpt>
      <trkpt lat="44.096225" lon="1.035499">
        <ele>182.9</ele>
        <time>2014-02-14T14:46:34Z</time>
      </trkpt>
      <trkpt lat="44.096269" lon="1.035390">
        <ele>182.7</ele>
        <time>2014-02-14T14:46:42Z</time>
      </trkpt>
      <trkpt lat="44.096312" lon="1.035271">
        <ele>182.6</ele>
        <time>2014-02-14T14:46:50Z</time>
      </trkpt>
      <trkpt lat="44.096350" lon="1.035144">
        <ele>182.7</ele>
        <time>2014-02-14T14:46:58Z</time>
      </trkpt>
      <trkpt lat="44.096367" lon="1.035010">
        <ele>182.9</ele>
        <time>2014-02-14T14:47:06Z</time>
      </trkpt>
      <trkpt lat="44.096397" lon="1.034880">
        <ele>183.0</ele>
        <time>2014-02-14T14:47:14Z</time>
      </trkpt>
      <trkpt lat="44.096428" lon="1.034759">
        <ele>182.9</ele>
        <time>2014-02-14T14:47:22Z</time>
      </trkpt>
      <trkpt lat="44.096448" lon="1.034640">
        <ele>182.9</ele>
        <time>2014-02-14T14:47:30Z</time>
      </trkpt>
      <trkpt lat="44.096463" lon="1.034522">
        <ele>183.0</ele>
        <time>2014-02-14T14:47:38Z</time>
      </trkpt>
      <trkpt lat="44.096487" lon="1.034395">
        <ele>183.1</ele>
        <time>2014-02-14T14:47:47Z</time>
      </trkpt>
      <trkpt lat="44.096507" lon="1.034266">
        <ele>183.2</ele>
        <time>2014-02-14T14:47:55Z</time>
      </trkpt>
      <trkpt lat="44.096532" lon="1.034144">
        <ele>183.3</ele>
        <time>2014-02-14T14:48:03Z</time>
      </trkpt>
      <trkpt lat="44.096561" lon="1.034008">
        <ele>183.6</ele>
        <time>2014-02-14T14:48:12Z</time>
      </trkpt>
      <trkpt lat="44.096582" lon="1.033880">
        <ele>183.7</ele>
        <time>2014-02-14T14:48:20Z</time>
      </trkpt>
      <trkpt lat="44.096588" lon="1.033754">
        <ele>184.0</ele>
        <time>2014-02-14T14:48:28Z</time>
      </trkpt>
      <trkpt lat="44.096603" lon="1.033625">
        <ele>183.9</ele>
        <time>2014-02-14T14:48:36Z</time>
      </trkpt>
      <trkpt lat="44.096619" lon="1.033492">
        <ele>183.5</ele>
        <time>2014-02-14T14:48:45Z</time>
      </trkpt>
      <trkpt lat="44.096630" lon="1.033366">
        <ele>183.6</ele>
        <time>2014-02-14T14:48:54Z</time>
      </trkpt>
      <trkpt lat="44.096650" lon="1.033223">
        <ele>183.4</ele>
        <time>2014-02-14T14:49:03Z</time>
      </trkpt>
      <trkpt lat="44.096658" lon="1.033095">
        <ele>183.5</ele>
        <time>2014-02-14T14:49:11Z</time>
      </trkpt>
      <trkpt lat="44.096677" lon="1.032971">
        <ele>183.0</ele>
        <time>2014-02-14T14:49:21Z</time>
      </trkpt>
      <trkpt lat="44.096686" lon="1.032849">
        <ele>183.1</ele>
        <time>2014-02-14T14:49:30Z</time>
      </trkpt>
      <trkpt lat="44.096715" lon="1.032722">
        <ele>182.7</ele>
        <time>2014-02-14T14:49:39Z</time>
      </trkpt>
      <trkpt lat="44.096729" lon="1.032588">
        <ele>182.0</ele>
        <time>2014-02-14T14:49:48Z</time>
      </trkpt>
      <trkpt lat="44.096786" lon="1.032480">
        <ele>181.2</ele>
        <time>2014-02-14T14:49:57Z</time>
      </trkpt>
      <trkpt lat="44.096873" lon="1.032424">
        <ele>180.3</ele>
        <time>2014-02-14T14:50:06Z</time>
      </trkpt>
      <trkpt lat="44.096975" lon="1.032396">
        <ele>180.0</ele>
        <time>2014-02-14T14:50:16Z</time>
      </trkpt>
      <trkpt lat="44.097078" lon="1.032395">
        <ele>179.6</ele>
        <time>2014-02-14T14:50:24Z</time>
      </trkpt>
      <trkpt lat="44.097180" lon="1.032433">
        <ele>179.6</ele>
        <time>2014-02-14T14:50:32Z</time>
      </trkpt>
      <trkpt lat="44.097274" lon="1.032457">
        <ele>179.6</ele>
        <time>2014-02-14T14:50:40Z</time>
      </trkpt>
      <trkpt lat="44.097356" lon="1.032483">
        <ele>179.6</ele>
        <time>2014-02-14T14:50:48Z</time>
      </trkpt>
      <trkpt lat="44.097465" lon="1.032503">
        <ele>179.4</ele>
        <time>2014-02-14T14:50:59Z</time>
      </trkpt>
      <trkpt lat="44.097568" lon="1.032510">
        <ele>179.0</ele>
        <time>2014-02-14T14:51:12Z</time>
      </trkpt>
      <trkpt lat="44.097679" lon="1.032485">
        <ele>178.3</ele>
        <time>2014-02-14T14:51:24Z</time>
      </trkpt>
      <trkpt lat="44.097644" lon="1.032470">
        <ele>177.6</ele>
        <time>2014-02-14T14:51:42Z</time>
      </trkpt>
      <trkpt lat="44.097749" lon="1.032434">
        <ele>177.4</ele>
        <time>2014-02-14T14:51:54Z</time>
      </trkpt>
      <trkpt lat="44.097834" lon="1.032392">
        <ele>176.5</ele>
        <time>2014-02-14T14:52:02Z</time>
      </trkpt>
      <trkpt lat="44.097907" lon="1.032332">
        <ele>176.1</ele>
        <time>2014-02-14T14:52:11Z</time>
      </trkpt>
      <trkpt lat="44.097966" lon="1.032236">
        <ele>175.6</ele>
        <time>2014-02-14T14:52:21Z</time>
        <name>Pinete</name>
      </trkpt>
      <trkpt lat="44.097978" lon="1.032121">
        <ele>174.7</ele>
        <time>2014-02-14T14:52:31Z</time>
      </trkpt>
      <trkpt lat="44.097915" lon="1.031978">
        <ele>174.5</ele>
        <time>2014-02-14T14:52:42Z</time>
      </trkpt>
      <trkpt lat="44.097853" lon="1.031833">
        <ele>173.3</ele>
        <time>2014-02-14T14:52:56Z</time>
      </trkpt>
      <trkpt lat="44.097836" lon="1.031681">
        <ele>170.6</ele>
        <time>2014-02-14T14:53:10Z</time>
      </trkpt>
      <trkpt lat="44.097801" lon="1.031636">
        <ele>169.9</ele>
        <time>2014-02-14T14:54:06Z</time>
      </trkpt>
      <trkpt lat="44.097774" lon="1.031490">
        <ele>167.6</ele>
        <time>2014-02-14T14:54:16Z</time>
      </trkpt>
      <trkpt lat="44.097766" lon="1.031371">
        <ele>164.9</ele>
        <time>2014-02-14T14:54:26Z</time>
      </trkpt>
      <trkpt lat="44.097769" lon="1.031253">
        <ele>162.2</ele>
        <time>2014-02-14T14:54:37Z</time>
      </trkpt>
      <trkpt lat="44.097770" lon="1.031113">
        <ele>159.3</ele>
        <time>2014-02-14T14:54:49Z</time>
      </trkpt>
      <trkpt lat="44.097770" lon="1.030974">
        <ele>156.4</ele>
        <time>2014-02-14T14:55:00Z</time>
      </trkpt>
      <trkpt lat="44.097777" lon="1.030831">
        <ele>152.9</ele>
        <time>2014-02-14T14:55:13Z</time>
      </trkpt>
      <trkpt lat="44.097791" lon="1.030709">
        <ele>150.5</ele>
        <time>2014-02-14T14:55:24Z</time>
      </trkpt>
      <trkpt lat="44.097805" lon="1.030571">
        <ele>148.1</ele>
        <time>2014-02-14T14:55:36Z</time>
      </trkpt>
      <trkpt lat="44.097834" lon="1.030446">
        <ele>146.0</ele>
        <time>2014-02-14T14:55:47Z</time>
      </trkpt>
      <trkpt lat="44.097842" lon="1.030298">
        <ele>143.8</ele>
        <time>2014-02-14T14:55:58Z</time>
      </trkpt>
      <trkpt lat="44.097855" lon="1.030166">
        <ele>142.1</ele>
        <time>2014-02-14T14:56:08Z</time>
      </trkpt>
      <trkpt lat="44.097857" lon="1.030018">
        <ele>140.8</ele>
        <time>2014-02-14T14:56:20Z</time>
      </trkpt>
      <trkpt lat="44.097854" lon="1.029873">
        <ele>139.8</ele>
        <time>2014-02-14T14:56:31Z</time>
      </trkpt>
      <trkpt lat="44.097871" lon="1.029729">
        <ele>138.3</ele>
        <time>2014-02-14T14:56:41Z</time>
      </trkpt>
      <trkpt lat="44.097860" lon="1.029564">
        <ele>136.6</ele>
        <time>2014-02-14T14:56:52Z</time>
      </trkpt>
      <trkpt lat="44.097885" lon="1.029407">
        <ele>134.8</ele>
        <time>2014-02-14T14:57:04Z</time>
      </trkpt>
      <trkpt lat="44.097832" lon="1.029269">
        <ele>133.4</ele>
        <time>2014-02-14T14:57:13Z</time>
      </trkpt>
      <trkpt lat="44.097761" lon="1.029169">
        <ele>132.4</ele>
        <time>2014-02-14T14:57:24Z</time>
      </trkpt>
      <trkpt lat="44.097693" lon="1.029064">
        <ele>130.9</ele>
        <time>2014-02-14T14:57:37Z</time>
      </trkpt>
      <trkpt lat="44.097597" lon="1.028937">
        <ele>130.3</ele>
        <time>2014-02-14T14:57:50Z</time>
      </trkpt>
      <trkpt lat="44.097491" lon="1.028821">
        <ele>129.5</ele>
        <time>2014-02-14T14:58:01Z</time>
      </trkpt>
      <trkpt lat="44.097385" lon="1.028726">
        <ele>129.4</ele>
        <time>2014-02-14T14:58:13Z</time>
      </trkpt>
      <trkpt lat="44.097315" lon="1.028595">
        <ele>129.6</ele>
        <time>2014-02-14T14:58:27Z</time>
      </trkpt>
      <trkpt lat="44.097261" lon="1.028411">
        <ele>130.6</ele>
        <time>2014-02-14T14:58:42Z</time>
      </trkpt>
      <trkpt lat="44.097250" lon="1.028208">
        <ele>131.1</ele>
        <time>2014-02-14T14:58:55Z</time>
      </trkpt>
      <trkpt lat="44.097234" lon="1.028040">
        <ele>130.5</ele>
        <time>2014-02-14T14:59:07Z</time>
      </trkpt>
      <trkpt lat="44.097225" lon="1.027861">
        <ele>129.9</ele>
        <time>2014-02-14T14:59:21Z</time>
      </trkpt>
      <trkpt lat="44.097209" lon="1.027677">
        <ele>128.6</ele>
        <time>2014-02-14T14:59:37Z</time>
      </trkpt>
      <trkpt lat="44.097201" lon="1.027496">
        <ele>127.6</ele>
        <time>2014-02-14T14:59:49Z</time>
      </trkpt>
      <trkpt lat="44.097259" lon="1.027351">
        <ele>125.4</ele>
        <time>2014-02-14T15:00:03Z</time>
      </trkpt>
      <trkpt lat="44.097365" lon="1.027366">
        <ele>123.2</ele>
        <time>2014-02-14T15:00:14Z</time>
      </trkpt>
      <trkpt lat="44.097475" lon="1.027344">
        <ele>120.8</ele>
        <time>2014-02-14T15:00:26Z</time>
      </trkpt>
      <trkpt lat="44.097577" lon="1.027275">
        <ele>118.3</ele>
        <time>2014-02-14T15:00:39Z</time>
      </trkpt>
      <trkpt lat="44.097607" lon="1.027133">
        <ele>115.8</ele>
        <time>2014-02-14T15:00:54Z</time>
      </trkpt>
      <trkpt lat="44.097610" lon="1.026966">
        <ele>114.3</ele>
        <time>2014-02-14T15:01:07Z</time>
      </trkpt>
      <trkpt lat="44.097624" lon="1.026795">
        <ele>112.9</ele>
        <time>2014-02-14T15:01:19Z</time>
      </trkpt>
      <trkpt lat="44.097657" lon="1.026621">
        <ele>111.5</ele>
        <time>2014-02-14T15:01:32Z</time>
      </trkpt>
      <trkpt lat="44.097662" lon="1.026421">
        <ele>110.3</ele>
        <time>2014-02-14T15:01:46Z</time>
      </trkpt>
      <trkpt lat="44.097668" lon="1.026251">
        <ele>109.5</ele>
        <time>2014-02-14T15:01:57Z</time>
      </trkpt>
      <trkpt lat="44.097668" lon="1.026058">
        <ele>108.5</ele>
        <time>2014-02-14T15:02:12Z</time>
      </trkpt>
      <trkpt lat="44.097660" lon="1.025905">
        <ele>107.7</ele>
        <time>2014-02-14T15:02:24Z</time>
      </trkpt>
      <trkpt lat="44.097651" lon="1.025746">
        <ele>107.0</ele>
        <time>2014-02-14T15:02:35Z</time>
      </trkpt>
      <trkpt lat="44.097610" lon="1.025598">
        <ele>106.4</ele>
        <time>2014-02-14T15:02:46Z</time>
      </trkpt>
      <trkpt lat="44.097554" lon="1.025492">
        <ele>105.5</ele>
        <time>2014-02-14T15:02:57Z</time>
      </trkpt>
      <trkpt lat="44.097541" lon="1.025383">
        <ele>104.3</ele>
        <time>2014-02-14T15:03:11Z</time>
      </trkpt>
      <trkpt lat="44.097655" lon="1.025341">
        <ele>101.9</ele>
        <time>2014-02-14T15:03:27Z</time>
      </trkpt>
      <trkpt lat="44.097798" lon="1.025292">
        <ele>101.6</ele>
        <time>2014-02-14T15:03:40Z</time>
      </trkpt>
      <trkpt lat="44.097886" lon="1.025138">
        <ele>101.9</ele>
        <time>2014-02-14T15:03:52Z</time>
      </trkpt>
      <trkpt lat="44.097924" lon="1.024978">
        <ele>102.7</ele>
        <time>2014-02-14T15:04:07Z</time>
      </trkpt>
      <trkpt lat="44.097936" lon="1.024855">
        <ele>103.5</ele>
        <time>2014-02-14T15:04:25Z</time>
      </trkpt>
      <trkpt lat="44.097984" lon="1.024726">
        <ele>104.5</ele>
        <time>2014-02-14T15:04:40Z</time>
      </trkpt>
      <trkpt lat="44.098005" lon="1.024574">
        <ele>106.9</ele>
        <time>2014-02-14T15:04:59Z</time>
      </trkpt>
      <trkpt lat="44.098014" lon="1.024425">
        <ele>109.9</ele>
        <time>2014-02-14T15:05:22Z</time>
      </trkpt>
      <trkpt lat="44.098015" lon="1.024285">
        <ele>113.4</ele>
        <time>2014-02-14T15:05:42Z</time>
      </trkpt>
      <trkpt lat="44.098051" lon="1.024160">
        <ele>116.8</ele>
        <time>2014-02-14T15:06:05Z</time>
      </trkpt>
      <trkpt lat="44.098023" lon="1.024041">
        <ele>119.9</ele>
        <time>2014-02-14T15:06:25Z</time>
      </trkpt>
      <trkpt lat="44.098024" lon="1.023911">
        <ele>123.0</ele>
        <time>2014-02-14T15:06:49Z</time>
      </trkpt>
      <trkpt lat="44.098037" lon="1.023784">
        <ele>126.4</ele>
        <time>2014-02-14T15:07:12Z</time>
      </trkpt>
      <trkpt lat="44.098023" lon="1.023649">
        <ele>129.4</ele>
        <time>2014-02-14T15:07:32Z</time>
      </trkpt>
      <trkpt lat="44.097992" lon="1.023492">
        <ele>131.6</ele>
        <time>2014-02-14T15:07:51Z</time>
      </trkpt>
      <trkpt lat="44.097969" lon="1.023334">
        <ele>133.1</ele>
        <time>2014-02-14T15:08:04Z</time>
      </trkpt>
      <trkpt lat="44.097953" lon="1.023164">
        <ele>134.7</ele>
        <time>2014-02-14T15:08:18Z</time>
      </trkpt>
      <trkpt lat="44.097937" lon="1.023041">
        <ele>137.4</ele>
        <time>2014-02-14T15:08:36Z</time>
      </trkpt>
      <trkpt lat="44.097916" lon="1.022907">
        <ele>140.7</ele>
        <time>2014-02-14T15:08:58Z</time>
      </trkpt>
      <trkpt lat="44.097908" lon="1.022772">
        <ele>143.1</ele>
        <time>2014-02-14T15:09:18Z</time>
      </trkpt>
      <trkpt lat="44.097886" lon="1.022641">
        <ele>146.9</ele>
        <time>2014-02-14T15:09:38Z</time>
      </trkpt>
      <trkpt lat="44.097886" lon="1.022489">
        <ele>149.6</ele>
        <time>2014-02-14T15:10:02Z</time>
      </trkpt>
      <trkpt lat="44.097907" lon="1.022358">
        <ele>152.1</ele>
        <time>2014-02-14T15:10:17Z</time>
      </trkpt>
      <trkpt lat="44.097975" lon="1.022236">
        <ele>155.4</ele>
        <time>2014-02-14T15:10:34Z</time>
      </trkpt>
      <trkpt lat="44.097948" lon="1.022092">
        <ele>155.8</ele>
        <time>2014-02-14T15:10:48Z</time>
      </trkpt>
      <trkpt lat="44.097935" lon="1.021953">
        <ele>157.3</ele>
        <time>2014-02-14T15:11:03Z</time>
      </trkpt>
      <trkpt lat="44.097924" lon="1.021848">
        <ele>160.7</ele>
        <time>2014-02-14T15:11:25Z</time>
      </trkpt>
      <trkpt lat="44.097921" lon="1.021851">
        <ele>160.9</ele>
        <time>2014-02-14T15:12:18Z</time>
      </trkpt>
      <trkpt lat="44.097940" lon="1.021680">
        <ele>162.8</ele>
        <time>2014-02-14T15:12:33Z</time>
      </trkpt>
      <trkpt lat="44.097970" lon="1.021523">
        <ele>165.7</ele>
        <time>2014-02-14T15:12:48Z</time>
      </trkpt>
      <trkpt lat="44.098002" lon="1.021383">
        <ele>168.7</ele>
        <time>2014-02-14T15:13:03Z</time>
      </trkpt>
      <trkpt lat="44.098019" lon="1.021262">
        <ele>169.7</ele>
        <time>2014-02-14T15:13:59Z</time>
      </trkpt>
      <trkpt lat="44.098085" lon="1.021115">
        <ele>170.3</ele>
        <time>2014-02-14T15:14:10Z</time>
      </trkpt>
      <trkpt lat="44.098138" lon="1.021001">
        <ele>171.4</ele>
        <time>2014-02-14T15:14:21Z</time>
      </trkpt>
      <trkpt lat="44.098179" lon="1.020872">
        <ele>173.8</ele>
        <time>2014-02-14T15:14:35Z</time>
      </trkpt>
      <trkpt lat="44.098200" lon="1.020751">
        <ele>175.5</ele>
        <time>2014-02-14T15:15:16Z</time>
      </trkpt>
      <trkpt lat="44.098241" lon="1.020647">
        <ele>176.3</ele>
        <time>2014-02-14T15:15:26Z</time>
      </trkpt>
      <trkpt lat="44.098279" lon="1.020518">
        <ele>176.3</ele>
        <time>2014-02-14T15:15:38Z</time>
      </trkpt>
      <trkpt lat="44.098321" lon="1.020384">
        <ele>177.1</ele>
        <time>2014-02-14T15:15:49Z</time>
      </trkpt>
      <trkpt lat="44.098358" lon="1.020268">
        <ele>177.6</ele>
        <time>2014-02-14T15:15:59Z</time>
      </trkpt>
      <trkpt lat="44.098404" lon="1.020158">
        <ele>177.6</ele>
        <time>2014-02-14T15:16:08Z</time>
      </trkpt>
      <trkpt lat="44.098459" lon="1.020046">
        <ele>177.2</ele>
        <time>2014-02-14T15:16:17Z</time>
      </trkpt>
      <trkpt lat="44.098502" lon="1.019931">
        <ele>177.0</ele>
        <time>2014-02-14T15:16:26Z</time>
      </trkpt>
      <trkpt lat="44.098554" lon="1.019815">
        <ele>177.0</ele>
        <time>2014-02-14T15:16:37Z</time>
      </trkpt>
      <trkpt lat="44.098596" lon="1.019704">
        <ele>177.1</ele>
        <time>2014-02-14T15:16:48Z</time>
      </trkpt>
      <trkpt lat="44.098614" lon="1.019576">
        <ele>176.2</ele>
        <time>2014-02-14T15:16:59Z</time>
      </trkpt>
      <trkpt lat="44.098557" lon="1.019516">
        <ele>175.5</ele>
        <time>2014-02-14T15:17:13Z</time>
      </trkpt>
      <trkpt lat="44.098456" lon="1.019491">
        <ele>175.2</ele>
        <time>2014-02-14T15:17:23Z</time>
      </trkpt>
      <trkpt lat="44.098360" lon="1.019440">
        <ele>175.1</ele>
        <time>2014-02-14T15:17:34Z</time>
      </trkpt>
      <trkpt lat="44.098259" lon="1.019390">
        <ele>174.7</ele>
        <time>2014-02-14T15:17:44Z</time>
      </trkpt>
      <trkpt lat="44.098165" lon="1.019342">
        <ele>174.8</ele>
        <time>2014-02-14T15:17:54Z</time>
      </trkpt>
      <trkpt lat="44.098074" lon="1.019302">
        <ele>174.9</ele>
        <time>2014-02-14T15:18:04Z</time>
      </trkpt>
      <trkpt lat="44.098026" lon="1.019323">
        <ele>175.9</ele>
        <time>2014-02-14T15:18:39Z</time>
      </trkpt>
      <trkpt lat="44.097964" lon="1.019240">
        <ele>175.4</ele>
        <time>2014-02-14T15:19:00Z</time>
      </trkpt>
      <trkpt lat="44.097894" lon="1.019129">
        <ele>175.4</ele>
        <time>2014-02-14T15:19:09Z</time>
      </trkpt>
      <trkpt lat="44.097809" lon="1.019034">
        <ele>175.6</ele>
        <time>2014-02-14T15:19:20Z</time>
      </trkpt>
      <trkpt lat="44.097736" lon="1.018947">
        <ele>175.4</ele>
        <time>2014-02-14T15:19:30Z</time>
      </trkpt>
      <trkpt lat="44.097653" lon="1.018851">
        <ele>175.1</ele>
        <time>2014-02-14T15:19:40Z</time>
      </trkpt>
      <trkpt lat="44.097571" lon="1.018760">
        <ele>175.0</ele>
        <time>2014-02-14T15:19:50Z</time>
      </trkpt>
      <trkpt lat="44.097503" lon="1.018659">
        <ele>175.0</ele>
        <time>2014-02-14T15:19:59Z</time>
      </trkpt>
      <trkpt lat="44.097431" lon="1.018572">
        <ele>175.2</ele>
        <time>2014-02-14T15:20:08Z</time>
      </trkpt>
      <trkpt lat="44.097361" lon="1.018479">
        <ele>175.5</ele>
        <time>2014-02-14T15:20:17Z</time>
      </trkpt>
      <trkpt lat="44.097285" lon="1.018378">
        <ele>175.9</ele>
        <time>2014-02-14T15:20:27Z</time>
      </trkpt>
      <trkpt lat="44.097219" lon="1.018272">
        <ele>175.9</ele>
        <time>2014-02-14T15:20:36Z</time>
      </trkpt>
      <trkpt lat="44.097172" lon="1.018119">
        <ele>176.5</ele>
        <time>2014-02-14T15:20:47Z</time>
      </trkpt>
      <trkpt lat="44.097136" lon="1.017967">
        <ele>176.9</ele>
        <time>2014-02-14T15:20:58Z</time>
      </trkpt>
      <trkpt lat="44.097110" lon="1.017792">
        <ele>177.9</ele>
        <time>2014-02-14T15:21:10Z</time>
      </trkpt>
      <trkpt lat="44.097064" lon="1.017602">
        <ele>178.8</ele>
        <time>2014-02-14T15:21:22Z</time>
      </trkpt>
      <trkpt lat="44.097060" lon="1.017447">
        <ele>179.6</ele>
        <time>2014-02-14T15:21:32Z</time>
      </trkpt>
      <trkpt lat="44.097053" lon="1.017293">
        <ele>180.4</ele>
        <time>2014-02-14T15:21:41Z</time>
      </trkpt>
      <trkpt lat="44.097049" lon="1.017161">
        <ele>181.2</ele>
        <time>2014-02-14T15:21:50Z</time>
      </trkpt>
      <trkpt lat="44.097028" lon="1.017023">
        <ele>182.1</ele>
        <time>2014-02-14T15:21:59Z</time>
      </trkpt>
      <trkpt lat="44.097006" lon="1.016874">
        <ele>183.4</ele>
        <time>2014-02-14T15:22:09Z</time>
      </trkpt>
      <trkpt lat="44.096981" lon="1.016729">
        <ele>184.6</ele>
        <time>2014-02-14T15:22:19Z</time>
      </trkpt>
      <trkpt lat="44.096953" lon="1.016590">
        <ele>185.9</ele>
        <time>2014-02-14T15:22:29Z</time>
      </trkpt>
      <trkpt lat="44.096908" lon="1.016449">
        <ele>186.8</ele>
        <time>2014-02-14T15:22:39Z</time>
      </trkpt>
      <trkpt lat="44.096841" lon="1.016336">
        <ele>187.1</ele>
        <time>2014-02-14T15:22:49Z</time>
      </trkpt>
      <trkpt lat="44.096790" lon="1.016201">
        <ele>187.6</ele>
        <time>2014-02-14T15:22:59Z</time>
      </trkpt>
      <trkpt lat="44.096742" lon="1.016081">
        <ele>187.8</ele>
        <time>2014-02-14T15:23:08Z</time>
      </trkpt>
      <trkpt lat="44.096700" lon="1.015969">
        <ele>187.9</ele>
        <time>2014-02-14T15:23:17Z</time>
      </trkpt>
      <trkpt lat="44.096653" lon="1.015846">
        <ele>188.2</ele>
        <time>2014-02-14T15:23:26Z</time>
      </trkpt>
      <trkpt lat="44.096604" lon="1.015718">
        <ele>187.9</ele>
        <time>2014-02-14T15:23:36Z</time>
      </trkpt>
      <trkpt lat="44.096556" lon="1.015601">
        <ele>187.6</ele>
        <time>2014-02-14T15:23:45Z</time>
      </trkpt>
      <trkpt lat="44.096502" lon="1.015471">
        <ele>187.4</ele>
        <time>2014-02-14T15:23:54Z</time>
      </trkpt>
      <trkpt lat="44.096458" lon="1.015342">
        <ele>187.6</ele>
        <time>2014-02-14T15:24:05Z</time>
      </trkpt>
      <trkpt lat="44.096423" lon="1.015193">
        <ele>187.7</ele>
        <time>2014-02-14T15:24:16Z</time>
      </trkpt>
      <trkpt lat="44.096356" lon="1.015062">
        <ele>187.9</ele>
        <time>2014-02-14T15:24:26Z</time>
      </trkpt>
      <trkpt lat="44.096288" lon="1.014953">
        <ele>187.8</ele>
        <time>2014-02-14T15:24:35Z</time>
      </trkpt>
      <trkpt lat="44.096240" lon="1.014818">
        <ele>188.0</ele>
        <time>2014-02-14T15:24:46Z</time>
      </trkpt>
      <trkpt lat="44.096190" lon="1.014711">
        <ele>187.8</ele>
        <time>2014-02-14T15:24:55Z</time>
      </trkpt>
      <trkpt lat="44.096160" lon="1.014606">
        <ele>187.6</ele>
        <time>2014-02-14T15:25:03Z</time>
      </trkpt>
      <trkpt lat="44.096094" lon="1.014490">
        <ele>187.2</ele>
        <time>2014-02-14T15:25:14Z</time>
      </trkpt>
      <trkpt lat="44.096015" lon="1.014348">
        <ele>186.8</ele>
        <time>2014-02-14T15:25:25Z</time>
      </trkpt>
      <trkpt lat="44.095942" lon="1.014230">
        <ele>187.1</ele>
        <time>2014-02-14T15:25:34Z</time>
      </trkpt>
      <trkpt lat="44.095870" lon="1.014147">
        <ele>186.7</ele>
        <time>2014-02-14T15:25:43Z</time>
      </trkpt>
      <trkpt lat="44.095780" lon="1.014065">
        <ele>186.2</ele>
        <time>2014-02-14T15:25:53Z</time>
      </trkpt>
      <trkpt lat="44.095689" lon="1.013981">
        <ele>185.9</ele>
        <time>2014-02-14T15:26:04Z</time>
      </trkpt>
      <trkpt lat="44.095587" lon="1.013911">
        <ele>185.2</ele>
        <time>2014-02-14T15:26:15Z</time>
      </trkpt>
      <trkpt lat="44.095480" lon="1.013872">
        <ele>184.6</ele>
        <time>2014-02-14T15:26:24Z</time>
      </trkpt>
      <trkpt lat="44.095381" lon="1.013856">
        <ele>183.9</ele>
        <time>2014-02-14T15:26:34Z</time>
      </trkpt>
      <trkpt lat="44.095186" lon="1.013872">
        <ele>172.5</ele>
        <time>2014-02-14T15:26:44Z</time>
      </trkpt>
      <trkpt lat="44.095035" lon="1.013912">
        <ele>172.3</ele>
        <time>2014-02-14T15:26:53Z</time>
      </trkpt>
      <trkpt lat="44.094931" lon="1.013922">
        <ele>172.1</ele>
        <time>2014-02-14T15:27:02Z</time>
      </trkpt>
      <trkpt lat="44.094787" lon="1.013927">
        <ele>171.7</ele>
        <time>2014-02-14T15:27:12Z</time>
      </trkpt>
      <trkpt lat="44.094672" lon="1.013937">
        <ele>171.3</ele>
        <time>2014-02-14T15:27:22Z</time>
      </trkpt>
      <trkpt lat="44.094500" lon="1.014002">
        <ele>171.0</ele>
        <time>2014-02-14T15:27:36Z</time>
      </trkpt>
      <trkpt lat="44.094288" lon="1.014113">
        <ele>170.9</ele>
        <time>2014-02-14T15:27:47Z</time>
      </trkpt>
      <trkpt lat="44.094151" lon="1.014127">
        <ele>170.6</ele>
        <time>2014-02-14T15:28:00Z</time>
        <name>Boudou - T. orient.</name>
      </trkpt>
      <trkpt lat="44.094446" lon="1.014012">
        <ele>170.9</ele>
        <time>2014-02-14T15:28:12Z</time>
      </trkpt>
      <trkpt lat="44.094661" lon="1.013907">
        <ele>171.3</ele>
        <time>2014-02-14T15:28:22Z</time>
      </trkpt>
      <trkpt lat="44.094575" lon="1.013802">
        <ele>170.8</ele>
        <time>2014-02-14T15:28:33Z</time>
      </trkpt>
      <trkpt lat="44.094439" lon="1.013707">
        <ele>170.0</ele>
        <time>2014-02-14T15:28:42Z</time>
      </trkpt>
      <trkpt lat="44.094338" lon="1.013562">
        <ele>169.0</ele>
        <time>2014-02-14T15:28:51Z</time>
      </trkpt>
      <trkpt lat="44.094234" lon="1.013437">
        <ele>167.9</ele>
        <time>2014-02-14T15:29:00Z</time>
      </trkpt>
      <trkpt lat="44.094137" lon="1.013272">
        <ele>165.8</ele>
        <time>2014-02-14T15:29:09Z</time>
      </trkpt>
      <trkpt lat="44.094039" lon="1.013069">
        <ele>171.2</ele>
        <time>2014-02-14T15:29:18Z</time>
      </trkpt>
      <trkpt lat="44.093975" lon="1.012955">
        <ele>170.2</ele>
        <time>2014-02-14T15:29:28Z</time>
      </trkpt>
      <trkpt lat="44.093919" lon="1.012833">
        <ele>169.3</ele>
        <time>2014-02-14T15:29:38Z</time>
      </trkpt>
      <trkpt lat="44.093878" lon="1.012707">
        <ele>168.7</ele>
        <time>2014-02-14T15:29:48Z</time>
      </trkpt>
      <trkpt lat="44.093838" lon="1.012580">
        <ele>168.3</ele>
        <time>2014-02-14T15:29:57Z</time>
      </trkpt>
      <trkpt lat="44.093796" lon="1.012473">
        <ele>168.0</ele>
        <time>2014-02-14T15:30:06Z</time>
      </trkpt>
      <trkpt lat="44.093722" lon="1.012386">
        <ele>167.6</ele>
        <time>2014-02-14T15:30:19Z</time>
      </trkpt>
      <trkpt lat="44.093616" lon="1.012303">
        <ele>163.8</ele>
        <time>2014-02-14T15:30:39Z</time>
      </trkpt>
      <trkpt lat="44.093514" lon="1.012201">
        <ele>161.1</ele>
        <time>2014-02-14T15:30:53Z</time>
      </trkpt>
      <trkpt lat="44.093441" lon="1.012037">
        <ele>158.8</ele>
        <time>2014-02-14T15:31:04Z</time>
      </trkpt>
      <trkpt lat="44.093402" lon="1.011897">
        <ele>157.4</ele>
        <time>2014-02-14T15:31:17Z</time>
      </trkpt>
      <trkpt lat="44.093371" lon="1.011712">
        <ele>156.0</ele>
        <time>2014-02-14T15:31:30Z</time>
      </trkpt>
      <trkpt lat="44.093333" lon="1.011539">
        <ele>154.3</ele>
        <time>2014-02-14T15:31:44Z</time>
      </trkpt>
      <trkpt lat="44.093255" lon="1.011382">
        <ele>151.4</ele>
        <time>2014-02-14T15:32:01Z</time>
      </trkpt>
      <trkpt lat="44.093206" lon="1.011208">
        <ele>149.2</ele>
        <time>2014-02-14T15:32:17Z</time>
      </trkpt>
      <trkpt lat="44.093151" lon="1.011008">
        <ele>147.1</ele>
        <time>2014-02-14T15:32:32Z</time>
      </trkpt>
      <trkpt lat="44.093076" lon="1.010871">
        <ele>144.8</ele>
        <time>2014-02-14T15:32:47Z</time>
      </trkpt>
      <trkpt lat="44.092980" lon="1.010722">
        <ele>141.4</ele>
        <time>2014-02-14T15:33:06Z</time>
      </trkpt>
      <trkpt lat="44.092896" lon="1.010580">
        <ele>138.2</ele>
        <time>2014-02-14T15:33:21Z</time>
      </trkpt>
      <trkpt lat="44.092844" lon="1.010433">
        <ele>134.8</ele>
        <time>2014-02-14T15:33:36Z</time>
      </trkpt>
      <trkpt lat="44.092795" lon="1.010277">
        <ele>131.9</ele>
        <time>2014-02-14T15:33:52Z</time>
      </trkpt>
      <trkpt lat="44.092782" lon="1.010134">
        <ele>129.3</ele>
        <time>2014-02-14T15:34:05Z</time>
      </trkpt>
      <trkpt lat="44.092786" lon="1.009952">
        <ele>126.1</ele>
        <time>2014-02-14T15:34:21Z</time>
      </trkpt>
      <trkpt lat="44.092796" lon="1.009772">
        <ele>122.6</ele>
        <time>2014-02-14T15:34:38Z</time>
      </trkpt>
      <trkpt lat="44.092760" lon="1.009578">
        <ele>117.8</ele>
        <time>2014-02-14T15:34:58Z</time>
      </trkpt>
      <trkpt lat="44.092722" lon="1.009386">
        <ele>112.9</ele>
        <time>2014-02-14T15:35:19Z</time>
      </trkpt>
      <trkpt lat="44.092682" lon="1.009202">
        <ele>108.3</ele>
        <time>2014-02-14T15:35:39Z</time>
      </trkpt>
      <trkpt lat="44.092601" lon="1.009058">
        <ele>103.6</ele>
        <time>2014-02-14T15:35:58Z</time>
      </trkpt>
      <trkpt lat="44.092534" lon="1.008898">
        <ele>98.6</ele>
        <time>2014-02-14T15:36:18Z</time>
      </trkpt>
      <trkpt lat="44.092473" lon="1.008761">
        <ele>94.9</ele>
        <time>2014-02-14T15:36:33Z</time>
      </trkpt>
      <trkpt lat="44.092423" lon="1.008623">
        <ele>92.4</ele>
        <time>2014-02-14T15:36:48Z</time>
      </trkpt>
      <trkpt lat="44.092387" lon="1.008477">
        <ele>90.3</ele>
        <time>2014-02-14T15:37:01Z</time>
      </trkpt>
      <trkpt lat="44.092297" lon="1.008376">
        <ele>88.9</ele>
        <time>2014-02-14T15:37:15Z</time>
      </trkpt>
      <trkpt lat="44.092177" lon="1.008289">
        <ele>87.0</ele>
        <time>2014-02-14T15:37:30Z</time>
      </trkpt>
      <trkpt lat="44.092153" lon="1.008405">
        <ele>86.2</ele>
        <time>2014-02-14T15:37:55Z</time>
      </trkpt>
      <trkpt lat="44.092156" lon="1.008574">
        <ele>86.6</ele>
        <time>2014-02-14T15:38:07Z</time>
      </trkpt>
      <trkpt lat="44.092093" lon="1.008720">
        <ele>86.5</ele>
        <time>2014-02-14T15:38:18Z</time>
      </trkpt>
      <trkpt lat="44.092097" lon="1.008869">
        <ele>86.7</ele>
        <time>2014-02-14T15:38:28Z</time>
      </trkpt>
      <trkpt lat="44.092032" lon="1.008957">
        <ele>85.8</ele>
        <time>2014-02-14T15:38:43Z</time>
      </trkpt>
      <trkpt lat="44.091928" lon="1.008851">
        <ele>85.1</ele>
        <time>2014-02-14T15:38:59Z</time>
      </trkpt>
      <trkpt lat="44.091869" lon="1.008711">
        <ele>84.2</ele>
        <time>2014-02-14T15:39:10Z</time>
      </trkpt>
      <trkpt lat="44.091834" lon="1.008527">
        <ele>83.4</ele>
        <time>2014-02-14T15:39:21Z</time>
      </trkpt>
      <trkpt lat="44.091837" lon="1.008371">
        <ele>82.3</ele>
        <time>2014-02-14T15:39:31Z</time>
      </trkpt>
      <trkpt lat="44.091847" lon="1.008202">
        <ele>81.3</ele>
        <time>2014-02-14T15:39:42Z</time>
      </trkpt>
      <trkpt lat="44.091866" lon="1.008062">
        <ele>81.1</ele>
        <time>2014-02-14T15:39:52Z</time>
      </trkpt>
      <trkpt lat="44.091869" lon="1.007909">
        <ele>80.6</ele>
        <time>2014-02-14T15:40:02Z</time>
      </trkpt>
      <trkpt lat="44.091852" lon="1.007772">
        <ele>80.2</ele>
        <time>2014-02-14T15:40:13Z</time>
      </trkpt>
      <trkpt lat="44.091758" lon="1.007693">
        <ele>79.8</ele>
        <time>2014-02-14T15:40:25Z</time>
      </trkpt>
      <trkpt lat="44.091702" lon="1.007557">
        <ele>79.4</ele>
        <time>2014-02-14T15:40:37Z</time>
      </trkpt>
      <trkpt lat="44.091706" lon="1.007405">
        <ele>78.6</ele>
        <time>2014-02-14T15:40:48Z</time>
      </trkpt>
      <trkpt lat="44.091749" lon="1.007266">
        <ele>78.2</ele>
        <time>2014-02-14T15:40:58Z</time>
      </trkpt>
      <trkpt lat="44.091784" lon="1.007129">
        <ele>77.9</ele>
        <time>2014-02-14T15:41:07Z</time>
      </trkpt>
      <trkpt lat="44.091796" lon="1.007005">
        <ele>77.8</ele>
        <time>2014-02-14T15:41:16Z</time>
      </trkpt>
      <trkpt lat="44.091801" lon="1.006872">
        <ele>77.4</ele>
        <time>2014-02-14T15:41:26Z</time>
      </trkpt>
      <trkpt lat="44.091824" lon="1.006732">
        <ele>77.5</ele>
        <time>2014-02-14T15:41:35Z</time>
      </trkpt>
      <trkpt lat="44.091847" lon="1.006604">
        <ele>77.7</ele>
        <time>2014-02-14T15:41:44Z</time>
      </trkpt>
      <trkpt lat="44.091856" lon="1.006466">
        <ele>78.3</ele>
        <time>2014-02-14T15:41:53Z</time>
      </trkpt>
      <trkpt lat="44.091860" lon="1.006326">
        <ele>78.5</ele>
        <time>2014-02-14T15:42:02Z</time>
      </trkpt>
      <trkpt lat="44.091868" lon="1.006183">
        <ele>78.5</ele>
        <time>2014-02-14T15:42:12Z</time>
      </trkpt>
      <trkpt lat="44.091869" lon="1.006028">
        <ele>78.6</ele>
        <time>2014-02-14T15:42:23Z</time>
      </trkpt>
      <trkpt lat="44.091815" lon="1.005891">
        <ele>79.7</ele>
        <time>2014-02-14T15:42:35Z</time>
      </trkpt>
      <trkpt lat="44.091792" lon="1.005769">
        <ele>80.8</ele>
        <time>2014-02-14T15:42:47Z</time>
        <name>Ecluse Petit-Bezy</name>
      </trkpt>
      <trkpt lat="44.091738" lon="1.005672">
        <ele>81.3</ele>
        <time>2014-02-14T15:43:46Z</time>
      </trkpt>
      <trkpt lat="44.091671" lon="1.005680">
        <ele>82.1</ele>
        <time>2014-02-14T15:44:24Z</time>
      </trkpt>
      <trkpt lat="44.091660" lon="1.005741">
        <ele>82.1</ele>
        <time>2014-02-14T15:44:59Z</time>
      </trkpt>
      <trkpt lat="44.091550" lon="1.005726">
        <ele>81.9</ele>
        <time>2014-02-14T15:45:11Z</time>
      </trkpt>
      <trkpt lat="44.091488" lon="1.005826">
        <ele>81.4</ele>
        <time>2014-02-14T15:45:21Z</time>
      </trkpt>
      <trkpt lat="44.091492" lon="1.005963">
        <ele>81.3</ele>
        <time>2014-02-14T15:45:31Z</time>
      </trkpt>
      <trkpt lat="44.091497" lon="1.006036">
        <ele>80.8</ele>
        <time>2014-02-14T15:46:00Z</time>
      </trkpt>
      <trkpt lat="44.091502" lon="1.006192">
        <ele>80.6</ele>
        <time>2014-02-14T15:46:09Z</time>
      </trkpt>
      <trkpt lat="44.091500" lon="1.006330">
        <ele>80.3</ele>
        <time>2014-02-14T15:46:18Z</time>
      </trkpt>
      <trkpt lat="44.091483" lon="1.006454">
        <ele>80.4</ele>
        <time>2014-02-14T15:46:28Z</time>
      </trkpt>
      <trkpt lat="44.091466" lon="1.006597">
        <ele>80.6</ele>
        <time>2014-02-14T15:46:38Z</time>
      </trkpt>
      <trkpt lat="44.091448" lon="1.006727">
        <ele>80.6</ele>
        <time>2014-02-14T15:46:46Z</time>
      </trkpt>
      <trkpt lat="44.091425" lon="1.006876">
        <ele>80.6</ele>
        <time>2014-02-14T15:46:55Z</time>
      </trkpt>
      <trkpt lat="44.091410" lon="1.007010">
        <ele>80.6</ele>
        <time>2014-02-14T15:47:03Z</time>
      </trkpt>
      <trkpt lat="44.091396" lon="1.007148">
        <ele>80.4</ele>
        <time>2014-02-14T15:47:11Z</time>
      </trkpt>
      <trkpt lat="44.091372" lon="1.007268">
        <ele>80.3</ele>
        <time>2014-02-14T15:47:19Z</time>
      </trkpt>
      <trkpt lat="44.091349" lon="1.007398">
        <ele>80.5</ele>
        <time>2014-02-14T15:47:27Z</time>
      </trkpt>
      <trkpt lat="44.091326" lon="1.007536">
        <ele>80.7</ele>
        <time>2014-02-14T15:47:35Z</time>
      </trkpt>
      <trkpt lat="44.091330" lon="1.007571">
        <ele>80.6</ele>
        <time>2014-02-14T15:48:03Z</time>
      </trkpt>
      <trkpt lat="44.091295" lon="1.007715">
        <ele>80.8</ele>
        <time>2014-02-14T15:48:13Z</time>
      </trkpt>
      <trkpt lat="44.091285" lon="1.007846">
        <ele>81.0</ele>
        <time>2014-02-14T15:48:22Z</time>
      </trkpt>
      <trkpt lat="44.091252" lon="1.007994">
        <ele>81.0</ele>
        <time>2014-02-14T15:48:31Z</time>
      </trkpt>
      <trkpt lat="44.091240" lon="1.008131">
        <ele>81.0</ele>
        <time>2014-02-14T15:48:39Z</time>
      </trkpt>
      <trkpt lat="44.091219" lon="1.008286">
        <ele>80.9</ele>
        <time>2014-02-14T15:48:48Z</time>
      </trkpt>
      <trkpt lat="44.091203" lon="1.008427">
        <ele>80.9</ele>
        <time>2014-02-14T15:48:56Z</time>
      </trkpt>
      <trkpt lat="44.091191" lon="1.008566">
        <ele>80.8</ele>
        <time>2014-02-14T15:49:05Z</time>
      </trkpt>
      <trkpt lat="44.091165" lon="1.008704">
        <ele>80.5</ele>
        <time>2014-02-14T15:49:13Z</time>
      </trkpt>
      <trkpt lat="44.091160" lon="1.008824">
        <ele>80.5</ele>
        <time>2014-02-14T15:49:21Z</time>
      </trkpt>
      <trkpt lat="44.091167" lon="1.008963">
        <ele>80.8</ele>
        <time>2014-02-14T15:49:30Z</time>
      </trkpt>
      <trkpt lat="44.091153" lon="1.009086">
        <ele>80.6</ele>
        <time>2014-02-14T15:49:38Z</time>
      </trkpt>
      <trkpt lat="44.091147" lon="1.009209">
        <ele>80.3</ele>
        <time>2014-02-14T15:49:46Z</time>
      </trkpt>
      <trkpt lat="44.091160" lon="1.009329">
        <ele>80.4</ele>
        <time>2014-02-14T15:49:54Z</time>
      </trkpt>
      <trkpt lat="44.091148" lon="1.009461">
        <ele>80.7</ele>
        <time>2014-02-14T15:50:02Z</time>
      </trkpt>
      <trkpt lat="44.091154" lon="1.009589">
        <ele>80.8</ele>
        <time>2014-02-14T15:50:10Z</time>
      </trkpt>
      <trkpt lat="44.091164" lon="1.009738">
        <ele>80.7</ele>
        <time>2014-02-14T15:50:19Z</time>
      </trkpt>
      <trkpt lat="44.091177" lon="1.009883">
        <ele>80.4</ele>
        <time>2014-02-14T15:50:28Z</time>
      </trkpt>
      <trkpt lat="44.091165" lon="1.010030">
        <ele>80.2</ele>
        <time>2014-02-14T15:50:37Z</time>
      </trkpt>
      <trkpt lat="44.091156" lon="1.010158">
        <ele>80.5</ele>
        <time>2014-02-14T15:50:45Z</time>
      </trkpt>
      <trkpt lat="44.091146" lon="1.010298">
        <ele>80.4</ele>
        <time>2014-02-14T15:50:54Z</time>
      </trkpt>
      <trkpt lat="44.091165" lon="1.010434">
        <ele>80.4</ele>
        <time>2014-02-14T15:51:03Z</time>
      </trkpt>
      <trkpt lat="44.091179" lon="1.010568">
        <ele>80.5</ele>
        <time>2014-02-14T15:51:12Z</time>
      </trkpt>
      <trkpt lat="44.091183" lon="1.010716">
        <ele>80.3</ele>
        <time>2014-02-14T15:51:21Z</time>
      </trkpt>
      <trkpt lat="44.091195" lon="1.010862">
        <ele>80.6</ele>
        <time>2014-02-14T15:51:30Z</time>
      </trkpt>
      <trkpt lat="44.091200" lon="1.011006">
        <ele>80.7</ele>
        <time>2014-02-14T15:51:39Z</time>
      </trkpt>
      <trkpt lat="44.091195" lon="1.011143">
        <ele>80.6</ele>
        <time>2014-02-14T15:51:47Z</time>
      </trkpt>
      <trkpt lat="44.091183" lon="1.011274">
        <ele>80.6</ele>
        <time>2014-02-14T15:51:55Z</time>
      </trkpt>
      <trkpt lat="44.091182" lon="1.011403">
        <ele>80.9</ele>
        <time>2014-02-14T15:52:03Z</time>
      </trkpt>
      <trkpt lat="44.091175" lon="1.011543">
        <ele>81.2</ele>
        <time>2014-02-14T15:52:12Z</time>
      </trkpt>
      <trkpt lat="44.091182" lon="1.011686">
        <ele>81.3</ele>
        <time>2014-02-14T15:52:21Z</time>
      </trkpt>
      <trkpt lat="44.091186" lon="1.011826">
        <ele>81.4</ele>
        <time>2014-02-14T15:52:30Z</time>
      </trkpt>
      <trkpt lat="44.091201" lon="1.011973">
        <ele>81.3</ele>
        <time>2014-02-14T15:52:39Z</time>
      </trkpt>
      <trkpt lat="44.091208" lon="1.012103">
        <ele>81.2</ele>
        <time>2014-02-14T15:52:47Z</time>
      </trkpt>
      <trkpt lat="44.091217" lon="1.012232">
        <ele>81.3</ele>
        <time>2014-02-14T15:52:55Z</time>
      </trkpt>
      <trkpt lat="44.091227" lon="1.012363">
        <ele>81.4</ele>
        <time>2014-02-14T15:53:04Z</time>
      </trkpt>
      <trkpt lat="44.091227" lon="1.012492">
        <ele>81.5</ele>
        <time>2014-02-14T15:53:12Z</time>
      </trkpt>
      <trkpt lat="44.091246" lon="1.012607">
        <ele>81.7</ele>
        <time>2014-02-14T15:53:23Z</time>
      </trkpt>
      <trkpt lat="44.091224" lon="1.012791">
        <ele>81.5</ele>
        <time>2014-02-14T15:53:33Z</time>
      </trkpt>
      <trkpt lat="44.091244" lon="1.012948">
        <ele>81.6</ele>
        <time>2014-02-14T15:53:42Z</time>
      </trkpt>
      <trkpt lat="44.091262" lon="1.013087">
        <ele>81.3</ele>
        <time>2014-02-14T15:53:51Z</time>
      </trkpt>
      <trkpt lat="44.091233" lon="1.013157">
        <ele>80.3</ele>
        <time>2014-02-14T15:54:40Z</time>
      </trkpt>
      <trkpt lat="44.091228" lon="1.013250">
        <ele>80.7</ele>
        <time>2014-02-14T15:54:54Z</time>
      </trkpt>
      <trkpt lat="44.091239" lon="1.013374">
        <ele>80.7</ele>
        <time>2014-02-14T15:55:03Z</time>
      </trkpt>
      <trkpt lat="44.091238" lon="1.013521">
        <ele>80.6</ele>
        <time>2014-02-14T15:55:12Z</time>
      </trkpt>
      <trkpt lat="44.091226" lon="1.013654">
        <ele>80.4</ele>
        <time>2014-02-14T15:55:20Z</time>
      </trkpt>
      <trkpt lat="44.091245" lon="1.013788">
        <ele>80.4</ele>
        <time>2014-02-14T15:55:28Z</time>
      </trkpt>
      <trkpt lat="44.091251" lon="1.013925">
        <ele>80.1</ele>
        <time>2014-02-14T15:55:35Z</time>
      </trkpt>
      <trkpt lat="44.091258" lon="1.014072">
        <ele>80.4</ele>
        <time>2014-02-14T15:55:43Z</time>
      </trkpt>
      <trkpt lat="44.091276" lon="1.014207">
        <ele>80.2</ele>
        <time>2014-02-14T15:55:51Z</time>
      </trkpt>
      <trkpt lat="44.091293" lon="1.014335">
        <ele>80.0</ele>
        <time>2014-02-14T15:55:59Z</time>
      </trkpt>
      <trkpt lat="44.091318" lon="1.014463">
        <ele>79.8</ele>
        <time>2014-02-14T15:56:07Z</time>
      </trkpt>
      <trkpt lat="44.091328" lon="1.014604">
        <ele>79.9</ele>
        <time>2014-02-14T15:56:15Z</time>
      </trkpt>
      <trkpt lat="44.091347" lon="1.014739">
        <ele>80.0</ele>
        <time>2014-02-14T15:56:23Z</time>
      </trkpt>
      <trkpt lat="44.091368" lon="1.014868">
        <ele>80.1</ele>
        <time>2014-02-14T15:56:31Z</time>
      </trkpt>
      <trkpt lat="44.091377" lon="1.015013">
        <ele>79.8</ele>
        <time>2014-02-14T15:56:40Z</time>
      </trkpt>
      <trkpt lat="44.091405" lon="1.015151">
        <ele>79.8</ele>
        <time>2014-02-14T15:56:48Z</time>
      </trkpt>
      <trkpt lat="44.091445" lon="1.015294">
        <ele>79.8</ele>
        <time>2014-02-14T15:56:57Z</time>
      </trkpt>
      <trkpt lat="44.091471" lon="1.015434">
        <ele>79.7</ele>
        <time>2014-02-14T15:57:05Z</time>
      </trkpt>
      <trkpt lat="44.091475" lon="1.015569">
        <ele>79.8</ele>
        <time>2014-02-14T15:57:13Z</time>
      </trkpt>
      <trkpt lat="44.091497" lon="1.015708">
        <ele>79.6</ele>
        <time>2014-02-14T15:57:21Z</time>
      </trkpt>
      <trkpt lat="44.091545" lon="1.015842">
        <ele>79.3</ele>
        <time>2014-02-14T15:57:29Z</time>
      </trkpt>
      <trkpt lat="44.091570" lon="1.015977">
        <ele>79.3</ele>
        <time>2014-02-14T15:57:37Z</time>
      </trkpt>
      <trkpt lat="44.091605" lon="1.016096">
        <ele>79.3</ele>
        <time>2014-02-14T15:57:45Z</time>
      </trkpt>
      <trkpt lat="44.091633" lon="1.016236">
        <ele>79.4</ele>
        <time>2014-02-14T15:57:53Z</time>
      </trkpt>
      <trkpt lat="44.091684" lon="1.016362">
        <ele>79.3</ele>
        <time>2014-02-14T15:58:01Z</time>
      </trkpt>
      <trkpt lat="44.091711" lon="1.016492">
        <ele>79.3</ele>
        <time>2014-02-14T15:58:09Z</time>
      </trkpt>
      <trkpt lat="44.091743" lon="1.016603">
        <ele>79.3</ele>
        <time>2014-02-14T15:58:16Z</time>
      </trkpt>
      <trkpt lat="44.091783" lon="1.016722">
        <ele>79.4</ele>
        <time>2014-02-14T15:58:24Z</time>
      </trkpt>
      <trkpt lat="44.091809" lon="1.016852">
        <ele>79.6</ele>
        <time>2014-02-14T15:58:32Z</time>
      </trkpt>
      <trkpt lat="44.091857" lon="1.016963">
        <ele>79.7</ele>
        <time>2014-02-14T15:58:40Z</time>
      </trkpt>
      <trkpt lat="44.091900" lon="1.017082">
        <ele>79.7</ele>
        <time>2014-02-14T15:58:48Z</time>
      </trkpt>
      <trkpt lat="44.091955" lon="1.017207">
        <ele>79.5</ele>
        <time>2014-02-14T15:58:56Z</time>
      </trkpt>
      <trkpt lat="44.091999" lon="1.017343">
        <ele>79.5</ele>
        <time>2014-02-14T15:59:04Z</time>
      </trkpt>
      <trkpt lat="44.092041" lon="1.017477">
        <ele>79.6</ele>
        <time>2014-02-14T15:59:12Z</time>
      </trkpt>
      <trkpt lat="44.092090" lon="1.017596">
        <ele>79.5</ele>
        <time>2014-02-14T15:59:20Z</time>
      </trkpt>
      <trkpt lat="44.092133" lon="1.017716">
        <ele>79.5</ele>
        <time>2014-02-14T15:59:28Z</time>
      </trkpt>
      <trkpt lat="44.092197" lon="1.017838">
        <ele>79.8</ele>
        <time>2014-02-14T15:59:38Z</time>
      </trkpt>
      <trkpt lat="44.092239" lon="1.017961">
        <ele>80.3</ele>
        <time>2014-02-14T15:59:47Z</time>
      </trkpt>
      <trkpt lat="44.092280" lon="1.018092">
        <ele>80.3</ele>
        <time>2014-02-14T15:59:56Z</time>
      </trkpt>
      <trkpt lat="44.092287" lon="1.018103">
        <ele>79.9</ele>
        <time>2014-02-14T16:00:37Z</time>
      </trkpt>
      <trkpt lat="44.092325" lon="1.018244">
        <ele>80.2</ele>
        <time>2014-02-14T16:00:53Z</time>
      </trkpt>
      <trkpt lat="44.092385" lon="1.018359">
        <ele>80.3</ele>
        <time>2014-02-14T16:01:01Z</time>
      </trkpt>
      <trkpt lat="44.092439" lon="1.018473">
        <ele>80.3</ele>
        <time>2014-02-14T16:01:10Z</time>
      </trkpt>
      <trkpt lat="44.092486" lon="1.018597">
        <ele>80.3</ele>
        <time>2014-02-14T16:01:18Z</time>
      </trkpt>
      <trkpt lat="44.092537" lon="1.018723">
        <ele>80.2</ele>
        <time>2014-02-14T16:01:26Z</time>
      </trkpt>
      <trkpt lat="44.092588" lon="1.018842">
        <ele>80.2</ele>
        <time>2014-02-14T16:01:34Z</time>
      </trkpt>
      <trkpt lat="44.092635" lon="1.018963">
        <ele>80.4</ele>
        <time>2014-02-14T16:01:42Z</time>
      </trkpt>
      <trkpt lat="44.092689" lon="1.019091">
        <ele>80.4</ele>
        <time>2014-02-14T16:01:51Z</time>
      </trkpt>
      <trkpt lat="44.092747" lon="1.019209">
        <ele>80.5</ele>
        <time>2014-02-14T16:01:59Z</time>
      </trkpt>
      <trkpt lat="44.092787" lon="1.019343">
        <ele>80.5</ele>
        <time>2014-02-14T16:02:07Z</time>
      </trkpt>
      <trkpt lat="44.092839" lon="1.019463">
        <ele>80.7</ele>
        <time>2014-02-14T16:02:15Z</time>
      </trkpt>
      <trkpt lat="44.092890" lon="1.019590">
        <ele>80.5</ele>
        <time>2014-02-14T16:02:23Z</time>
      </trkpt>
      <trkpt lat="44.092945" lon="1.019716">
        <ele>80.6</ele>
        <time>2014-02-14T16:02:31Z</time>
      </trkpt>
      <trkpt lat="44.092994" lon="1.019849">
        <ele>80.9</ele>
        <time>2014-02-14T16:02:39Z</time>
      </trkpt>
      <trkpt lat="44.093056" lon="1.019973">
        <ele>81.0</ele>
        <time>2014-02-14T16:02:47Z</time>
      </trkpt>
      <trkpt lat="44.093105" lon="1.020100">
        <ele>80.9</ele>
        <time>2014-02-14T16:02:55Z</time>
      </trkpt>
      <trkpt lat="44.093140" lon="1.020163">
        <ele>80.5</ele>
        <time>2014-02-14T16:03:12Z</time>
      </trkpt>
      <trkpt lat="44.093183" lon="1.020293">
        <ele>80.6</ele>
        <time>2014-02-14T16:03:35Z</time>
      </trkpt>
      <trkpt lat="44.093241" lon="1.020431">
        <ele>80.5</ele>
        <time>2014-02-14T16:03:44Z</time>
      </trkpt>
      <trkpt lat="44.093299" lon="1.020557">
        <ele>80.2</ele>
        <time>2014-02-14T16:03:53Z</time>
      </trkpt>
      <trkpt lat="44.093332" lon="1.020684">
        <ele>80.5</ele>
        <time>2014-02-14T16:04:01Z</time>
      </trkpt>
      <trkpt lat="44.093391" lon="1.020815">
        <ele>81.1</ele>
        <time>2014-02-14T16:04:10Z</time>
      </trkpt>
      <trkpt lat="44.093430" lon="1.020952">
        <ele>81.3</ele>
        <time>2014-02-14T16:04:18Z</time>
      </trkpt>
      <trkpt lat="44.093471" lon="1.021092">
        <ele>81.2</ele>
        <time>2014-02-14T16:04:26Z</time>
      </trkpt>
      <trkpt lat="44.093498" lon="1.021220">
        <ele>81.2</ele>
        <time>2014-02-14T16:04:34Z</time>
      </trkpt>
      <trkpt lat="44.093538" lon="1.021342">
        <ele>81.1</ele>
        <time>2014-02-14T16:04:42Z</time>
      </trkpt>
      <trkpt lat="44.093570" lon="1.021478">
        <ele>81.2</ele>
        <time>2014-02-14T16:04:50Z</time>
      </trkpt>
      <trkpt lat="44.093611" lon="1.021605">
        <ele>81.1</ele>
        <time>2014-02-14T16:04:58Z</time>
      </trkpt>
      <trkpt lat="44.093645" lon="1.021752">
        <ele>81.2</ele>
        <time>2014-02-14T16:05:06Z</time>
      </trkpt>
      <trkpt lat="44.093678" lon="1.021885">
        <ele>81.2</ele>
        <time>2014-02-14T16:05:14Z</time>
      </trkpt>
      <trkpt lat="44.093703" lon="1.022018">
        <ele>81.1</ele>
        <time>2014-02-14T16:05:22Z</time>
      </trkpt>
      <trkpt lat="44.093732" lon="1.022141">
        <ele>81.1</ele>
        <time>2014-02-14T16:05:30Z</time>
      </trkpt>
      <trkpt lat="44.093759" lon="1.022279">
        <ele>81.2</ele>
        <time>2014-02-14T16:05:38Z</time>
      </trkpt>
      <trkpt lat="44.093783" lon="1.022416">
        <ele>81.1</ele>
        <time>2014-02-14T16:05:46Z</time>
      </trkpt>
      <trkpt lat="44.093803" lon="1.022558">
        <ele>81.1</ele>
        <time>2014-02-14T16:05:54Z</time>
      </trkpt>
      <trkpt lat="44.093817" lon="1.022699">
        <ele>81.0</ele>
        <time>2014-02-14T16:06:02Z</time>
      </trkpt>
      <trkpt lat="44.093848" lon="1.022847">
        <ele>80.9</ele>
        <time>2014-02-14T16:06:10Z</time>
      </trkpt>
      <trkpt lat="44.093868" lon="1.022984">
        <ele>81.2</ele>
        <time>2014-02-14T16:06:18Z</time>
      </trkpt>
      <trkpt lat="44.093902" lon="1.023115">
        <ele>81.1</ele>
        <time>2014-02-14T16:06:26Z</time>
      </trkpt>
      <trkpt lat="44.093914" lon="1.023244">
        <ele>81.1</ele>
        <time>2014-02-14T16:06:34Z</time>
      </trkpt>
      <trkpt lat="44.093939" lon="1.023387">
        <ele>81.2</ele>
        <time>2014-02-14T16:06:41Z</time>
      </trkpt>
      <trkpt lat="44.093940" lon="1.023526">
        <ele>81.2</ele>
        <time>2014-02-14T16:06:49Z</time>
      </trkpt>
      <trkpt lat="44.093953" lon="1.023669">
        <ele>81.1</ele>
        <time>2014-02-14T16:06:57Z</time>
      </trkpt>
      <trkpt lat="44.093965" lon="1.023803">
        <ele>81.0</ele>
        <time>2014-02-14T16:07:05Z</time>
      </trkpt>
      <trkpt lat="44.093964" lon="1.023945">
        <ele>81.1</ele>
        <time>2014-02-14T16:07:13Z</time>
      </trkpt>
      <trkpt lat="44.093954" lon="1.024085">
        <ele>81.2</ele>
        <time>2014-02-14T16:07:21Z</time>
      </trkpt>
      <trkpt lat="44.093954" lon="1.024229">
        <ele>81.1</ele>
        <time>2014-02-14T16:07:29Z</time>
      </trkpt>
      <trkpt lat="44.093942" lon="1.024357">
        <ele>80.9</ele>
        <time>2014-02-14T16:07:36Z</time>
      </trkpt>
      <trkpt lat="44.093957" lon="1.024489">
        <ele>80.9</ele>
        <time>2014-02-14T16:07:44Z</time>
      </trkpt>
      <trkpt lat="44.093949" lon="1.024621">
        <ele>81.0</ele>
        <time>2014-02-14T16:07:51Z</time>
      </trkpt>
      <trkpt lat="44.093947" lon="1.024760">
        <ele>81.1</ele>
        <time>2014-02-14T16:07:58Z</time>
      </trkpt>
      <trkpt lat="44.093935" lon="1.024895">
        <ele>81.1</ele>
        <time>2014-02-14T16:08:06Z</time>
      </trkpt>
      <trkpt lat="44.093925" lon="1.025028">
        <ele>80.8</ele>
        <time>2014-02-14T16:08:13Z</time>
      </trkpt>
      <trkpt lat="44.093907" lon="1.025171">
        <ele>80.7</ele>
        <time>2014-02-14T16:08:21Z</time>
      </trkpt>
      <trkpt lat="44.093894" lon="1.025316">
        <ele>80.9</ele>
        <time>2014-02-14T16:08:29Z</time>
      </trkpt>
      <trkpt lat="44.093886" lon="1.025440">
        <ele>80.8</ele>
        <time>2014-02-14T16:08:36Z</time>
      </trkpt>
      <trkpt lat="44.093883" lon="1.025583">
        <ele>80.6</ele>
        <time>2014-02-14T16:08:44Z</time>
      </trkpt>
      <trkpt lat="44.093858" lon="1.025716">
        <ele>80.7</ele>
        <time>2014-02-14T16:08:51Z</time>
      </trkpt>
      <trkpt lat="44.093844" lon="1.025850">
        <ele>80.6</ele>
        <time>2014-02-14T16:08:59Z</time>
      </trkpt>
      <trkpt lat="44.093825" lon="1.025985">
        <ele>80.7</ele>
        <time>2014-02-14T16:09:06Z</time>
      </trkpt>
      <trkpt lat="44.093801" lon="1.026126">
        <ele>80.8</ele>
        <time>2014-02-14T16:09:13Z</time>
      </trkpt>
      <trkpt lat="44.093763" lon="1.026268">
        <ele>80.8</ele>
        <time>2014-02-14T16:09:21Z</time>
      </trkpt>
      <trkpt lat="44.093729" lon="1.026411">
        <ele>81.1</ele>
        <time>2014-02-14T16:09:29Z</time>
      </trkpt>
      <trkpt lat="44.093704" lon="1.026538">
        <ele>81.1</ele>
        <time>2014-02-14T16:09:36Z</time>
      </trkpt>
      <trkpt lat="44.093670" lon="1.026689">
        <ele>81.1</ele>
        <time>2014-02-14T16:09:45Z</time>
      </trkpt>
      <trkpt lat="44.093638" lon="1.026828">
        <ele>81.3</ele>
        <time>2014-02-14T16:09:53Z</time>
      </trkpt>
      <trkpt lat="44.093618" lon="1.026948">
        <ele>81.4</ele>
        <time>2014-02-14T16:10:00Z</time>
      </trkpt>
      <trkpt lat="44.093585" lon="1.027074">
        <ele>81.5</ele>
        <time>2014-02-14T16:10:07Z</time>
      </trkpt>
      <trkpt lat="44.093548" lon="1.027203">
        <ele>81.3</ele>
        <time>2014-02-14T16:10:14Z</time>
      </trkpt>
      <trkpt lat="44.093515" lon="1.027326">
        <ele>81.2</ele>
        <time>2014-02-14T16:10:21Z</time>
      </trkpt>
      <trkpt lat="44.093487" lon="1.027456">
        <ele>81.1</ele>
        <time>2014-02-14T16:10:28Z</time>
      </trkpt>
      <trkpt lat="44.093452" lon="1.027579">
        <ele>81.1</ele>
        <time>2014-02-14T16:10:36Z</time>
      </trkpt>
      <trkpt lat="44.093414" lon="1.027712">
        <ele>81.2</ele>
        <time>2014-02-14T16:10:44Z</time>
      </trkpt>
      <trkpt lat="44.093385" lon="1.027840">
        <ele>81.1</ele>
        <time>2014-02-14T16:10:52Z</time>
      </trkpt>
      <trkpt lat="44.093338" lon="1.027985">
        <ele>81.2</ele>
        <time>2014-02-14T16:11:01Z</time>
      </trkpt>
      <trkpt lat="44.093300" lon="1.028121">
        <ele>81.1</ele>
        <time>2014-02-14T16:11:09Z</time>
      </trkpt>
      <trkpt lat="44.093274" lon="1.028238">
        <ele>81.0</ele>
        <time>2014-02-14T16:11:17Z</time>
      </trkpt>
      <trkpt lat="44.093222" lon="1.028387">
        <ele>81.1</ele>
        <time>2014-02-14T16:11:26Z</time>
      </trkpt>
      <trkpt lat="44.093173" lon="1.028488">
        <ele>80.7</ele>
        <time>2014-02-14T16:11:52Z</time>
      </trkpt>
      <trkpt lat="44.093145" lon="1.028608">
        <ele>80.9</ele>
        <time>2014-02-14T16:12:01Z</time>
      </trkpt>
      <trkpt lat="44.093098" lon="1.028734">
        <ele>81.2</ele>
        <time>2014-02-14T16:12:10Z</time>
      </trkpt>
      <trkpt lat="44.093052" lon="1.028861">
        <ele>81.1</ele>
        <time>2014-02-14T16:12:18Z</time>
      </trkpt>
      <trkpt lat="44.093015" lon="1.028979">
        <ele>81.1</ele>
        <time>2014-02-14T16:12:26Z</time>
      </trkpt>
      <trkpt lat="44.093002" lon="1.029112">
        <ele>80.9</ele>
        <time>2014-02-14T16:12:47Z</time>
      </trkpt>
      <trkpt lat="44.092936" lon="1.029229">
        <ele>81.0</ele>
        <time>2014-02-14T16:13:14Z</time>
      </trkpt>
      <trkpt lat="44.092833" lon="1.029339">
        <ele>81.5</ele>
        <time>2014-02-14T16:14:58Z</time>
        <name>Pont de Coudol</name>
      </trkpt>
      <trkpt lat="44.092846" lon="1.029522">
        <ele>81.5</ele>
        <time>2014-02-14T16:15:08Z</time>
      </trkpt>
      <trkpt lat="44.092791" lon="1.029683">
        <ele>81.6</ele>
        <time>2014-02-14T16:15:17Z</time>
      </trkpt>
      <trkpt lat="44.092746" lon="1.029824">
        <ele>81.4</ele>
        <time>2014-02-14T16:15:26Z</time>
      </trkpt>
      <trkpt lat="44.092730" lon="1.029934">
        <ele>81.4</ele>
        <time>2014-02-14T16:15:35Z</time>
      </trkpt>
      <trkpt lat="44.092708" lon="1.030081">
        <ele>81.2</ele>
        <time>2014-02-14T16:15:42Z</time>
      </trkpt>
      <trkpt lat="44.092662" lon="1.030220">
        <ele>81.1</ele>
        <time>2014-02-14T16:15:50Z</time>
      </trkpt>
      <trkpt lat="44.092632" lon="1.030354">
        <ele>81.2</ele>
        <time>2014-02-14T16:15:57Z</time>
      </trkpt>
      <trkpt lat="44.092605" lon="1.030497">
        <ele>81.0</ele>
        <time>2014-02-14T16:16:04Z</time>
      </trkpt>
      <trkpt lat="44.092565" lon="1.030639">
        <ele>81.1</ele>
        <time>2014-02-14T16:16:11Z</time>
      </trkpt>
      <trkpt lat="44.092545" lon="1.030775">
        <ele>81.3</ele>
        <time>2014-02-14T16:16:18Z</time>
      </trkpt>
      <trkpt lat="44.092507" lon="1.030895">
        <ele>81.3</ele>
        <time>2014-02-14T16:16:26Z</time>
      </trkpt>
      <trkpt lat="44.092479" lon="1.031039">
        <ele>81.1</ele>
        <time>2014-02-14T16:16:33Z</time>
      </trkpt>
      <trkpt lat="44.092487" lon="1.031181">
        <ele>81.2</ele>
        <time>2014-02-14T16:16:40Z</time>
      </trkpt>
      <trkpt lat="44.092470" lon="1.031324">
        <ele>81.3</ele>
        <time>2014-02-14T16:16:47Z</time>
      </trkpt>
      <trkpt lat="44.092447" lon="1.031457">
        <ele>81.4</ele>
        <time>2014-02-14T16:16:54Z</time>
      </trkpt>
      <trkpt lat="44.092430" lon="1.031602">
        <ele>81.3</ele>
        <time>2014-02-14T16:17:01Z</time>
      </trkpt>
      <trkpt lat="44.092421" lon="1.031729">
        <ele>81.1</ele>
        <time>2014-02-14T16:17:08Z</time>
      </trkpt>
      <trkpt lat="44.092409" lon="1.031877">
        <ele>81.1</ele>
        <time>2014-02-14T16:17:15Z</time>
      </trkpt>
      <trkpt lat="44.092386" lon="1.031988">
        <ele>81.1</ele>
        <time>2014-02-14T16:17:21Z</time>
      </trkpt>
      <trkpt lat="44.092373" lon="1.032119">
        <ele>81.2</ele>
        <time>2014-02-14T16:17:29Z</time>
      </trkpt>
      <trkpt lat="44.092361" lon="1.032266">
        <ele>81.5</ele>
        <time>2014-02-14T16:17:37Z</time>
      </trkpt>
      <trkpt lat="44.092360" lon="1.032401">
        <ele>81.3</ele>
        <time>2014-02-14T16:17:44Z</time>
      </trkpt>
      <trkpt lat="44.092325" lon="1.032546">
        <ele>81.3</ele>
        <time>2014-02-14T16:17:52Z</time>
      </trkpt>
      <trkpt lat="44.092305" lon="1.032685">
        <ele>81.1</ele>
        <time>2014-02-14T16:17:59Z</time>
      </trkpt>
      <trkpt lat="44.092294" lon="1.032809">
        <ele>81.2</ele>
        <time>2014-02-14T16:18:06Z</time>
      </trkpt>
      <trkpt lat="44.092303" lon="1.032953">
        <ele>81.0</ele>
        <time>2014-02-14T16:18:14Z</time>
      </trkpt>
      <trkpt lat="44.092295" lon="1.033074">
        <ele>81.0</ele>
        <time>2014-02-14T16:18:21Z</time>
      </trkpt>
      <trkpt lat="44.092277" lon="1.033232">
        <ele>81.1</ele>
        <time>2014-02-14T16:18:28Z</time>
      </trkpt>
      <trkpt lat="44.092253" lon="1.033371">
        <ele>81.1</ele>
        <time>2014-02-14T16:18:35Z</time>
      </trkpt>
      <trkpt lat="44.092251" lon="1.033496">
        <ele>81.2</ele>
        <time>2014-02-14T16:18:42Z</time>
      </trkpt>
      <trkpt lat="44.092215" lon="1.033634">
        <ele>80.9</ele>
        <time>2014-02-14T16:18:50Z</time>
      </trkpt>
      <trkpt lat="44.092210" lon="1.033767">
        <ele>80.8</ele>
        <time>2014-02-14T16:18:59Z</time>
      </trkpt>
      <trkpt lat="44.092196" lon="1.033904">
        <ele>80.9</ele>
        <time>2014-02-14T16:19:07Z</time>
      </trkpt>
      <trkpt lat="44.092174" lon="1.034041">
        <ele>80.8</ele>
        <time>2014-02-14T16:19:15Z</time>
      </trkpt>
      <trkpt lat="44.092146" lon="1.034172">
        <ele>80.8</ele>
        <time>2014-02-14T16:19:23Z</time>
      </trkpt>
      <trkpt lat="44.092123" lon="1.034315">
        <ele>80.8</ele>
        <time>2014-02-14T16:19:31Z</time>
      </trkpt>
      <trkpt lat="44.092106" lon="1.034445">
        <ele>80.9</ele>
        <time>2014-02-14T16:19:39Z</time>
      </trkpt>
      <trkpt lat="44.092089" lon="1.034579">
        <ele>80.8</ele>
        <time>2014-02-14T16:19:47Z</time>
      </trkpt>
      <trkpt lat="44.092083" lon="1.034700">
        <ele>80.7</ele>
        <time>2014-02-14T16:19:55Z</time>
      </trkpt>
      <trkpt lat="44.092051" lon="1.034841">
        <ele>80.5</ele>
        <time>2014-02-14T16:20:03Z</time>
      </trkpt>
      <trkpt lat="44.092020" lon="1.034964">
        <ele>80.5</ele>
        <time>2014-02-14T16:20:10Z</time>
      </trkpt>
      <trkpt lat="44.091985" lon="1.035091">
        <ele>80.2</ele>
        <time>2014-02-14T16:20:18Z</time>
      </trkpt>
      <trkpt lat="44.091949" lon="1.035207">
        <ele>80.2</ele>
        <time>2014-02-14T16:20:25Z</time>
      </trkpt>
      <trkpt lat="44.091913" lon="1.035325">
        <ele>80.6</ele>
        <time>2014-02-14T16:20:32Z</time>
      </trkpt>
      <trkpt lat="44.091878" lon="1.035464">
        <ele>80.5</ele>
        <time>2014-02-14T16:20:40Z</time>
      </trkpt>
      <trkpt lat="44.091837" lon="1.035587">
        <ele>80.6</ele>
        <time>2014-02-14T16:20:48Z</time>
      </trkpt>
      <trkpt lat="44.091794" lon="1.035710">
        <ele>80.7</ele>
        <time>2014-02-14T16:20:55Z</time>
      </trkpt>
      <trkpt lat="44.091767" lon="1.035843">
        <ele>80.6</ele>
        <time>2014-02-14T16:21:02Z</time>
      </trkpt>
      <trkpt lat="44.091725" lon="1.035963">
        <ele>80.6</ele>
        <time>2014-02-14T16:21:09Z</time>
      </trkpt>
      <trkpt lat="44.091682" lon="1.036087">
        <ele>80.6</ele>
        <time>2014-02-14T16:21:16Z</time>
      </trkpt>
      <trkpt lat="44.091647" lon="1.036220">
        <ele>80.5</ele>
        <time>2014-02-14T16:21:23Z</time>
      </trkpt>
      <trkpt lat="44.091622" lon="1.036349">
        <ele>80.5</ele>
        <time>2014-02-14T16:21:31Z</time>
      </trkpt>
      <trkpt lat="44.091575" lon="1.036470">
        <ele>80.5</ele>
        <time>2014-02-14T16:21:38Z</time>
      </trkpt>
      <trkpt lat="44.091530" lon="1.036614">
        <ele>80.6</ele>
        <time>2014-02-14T16:21:46Z</time>
      </trkpt>
      <trkpt lat="44.091491" lon="1.036744">
        <ele>80.7</ele>
        <time>2014-02-14T16:21:53Z</time>
      </trkpt>
      <trkpt lat="44.091448" lon="1.036888">
        <ele>81.0</ele>
        <time>2014-02-14T16:22:00Z</time>
      </trkpt>
      <trkpt lat="44.091408" lon="1.037012">
        <ele>81.3</ele>
        <time>2014-02-14T16:22:08Z</time>
      </trkpt>
      <trkpt lat="44.091364" lon="1.037163">
        <ele>80.9</ele>
        <time>2014-02-14T16:22:16Z</time>
      </trkpt>
      <trkpt lat="44.091301" lon="1.037302">
        <ele>80.7</ele>
        <time>2014-02-14T16:22:24Z</time>
      </trkpt>
      <trkpt lat="44.091267" lon="1.037435">
        <ele>80.9</ele>
        <time>2014-02-14T16:22:32Z</time>
      </trkpt>
      <trkpt lat="44.091222" lon="1.037584">
        <ele>80.8</ele>
        <time>2014-02-14T16:22:40Z</time>
      </trkpt>
      <trkpt lat="44.091170" lon="1.037736">
        <ele>80.8</ele>
        <time>2014-02-14T16:22:49Z</time>
      </trkpt>
      <trkpt lat="44.091099" lon="1.037887">
        <ele>80.9</ele>
        <time>2014-02-14T16:22:57Z</time>
      </trkpt>
      <trkpt lat="44.091053" lon="1.038012">
        <ele>80.7</ele>
        <time>2014-02-14T16:23:05Z</time>
      </trkpt>
      <trkpt lat="44.091010" lon="1.038125">
        <ele>80.6</ele>
        <time>2014-02-14T16:23:13Z</time>
      </trkpt>
      <trkpt lat="44.090951" lon="1.038271">
        <ele>80.7</ele>
        <time>2014-02-14T16:23:23Z</time>
      </trkpt>
      <trkpt lat="44.090896" lon="1.038405">
        <ele>80.6</ele>
        <time>2014-02-14T16:23:31Z</time>
      </trkpt>
      <trkpt lat="44.090838" lon="1.038545">
        <ele>80.7</ele>
        <time>2014-02-14T16:23:39Z</time>
      </trkpt>
      <trkpt lat="44.090785" lon="1.038687">
        <ele>80.6</ele>
        <time>2014-02-14T16:23:47Z</time>
      </trkpt>
      <trkpt lat="44.090744" lon="1.038811">
        <ele>80.5</ele>
        <time>2014-02-14T16:23:55Z</time>
      </trkpt>
      <trkpt lat="44.090687" lon="1.038947">
        <ele>80.3</ele>
        <time>2014-02-14T16:24:03Z</time>
      </trkpt>
      <trkpt lat="44.090629" lon="1.039066">
        <ele>80.5</ele>
        <time>2014-02-14T16:24:10Z</time>
      </trkpt>
      <trkpt lat="44.090572" lon="1.039202">
        <ele>80.6</ele>
        <time>2014-02-14T16:24:17Z</time>
      </trkpt>
      <trkpt lat="44.090507" lon="1.039337">
        <ele>80.4</ele>
        <time>2014-02-14T16:24:27Z</time>
      </trkpt>
      <trkpt lat="44.090460" lon="1.039478">
        <ele>80.2</ele>
        <time>2014-02-14T16:24:34Z</time>
      </trkpt>
      <trkpt lat="44.090423" lon="1.039580">
        <ele>80.3</ele>
        <time>2014-02-14T16:24:41Z</time>
      </trkpt>
      <trkpt lat="44.090365" lon="1.039718">
        <ele>80.3</ele>
        <time>2014-02-14T16:24:49Z</time>
      </trkpt>
      <trkpt lat="44.090312" lon="1.039844">
        <ele>80.3</ele>
        <time>2014-02-14T16:24:56Z</time>
      </trkpt>
      <trkpt lat="44.090253" lon="1.039986">
        <ele>80.1</ele>
        <time>2014-02-14T16:25:04Z</time>
      </trkpt>
      <trkpt lat="44.090182" lon="1.040120">
        <ele>80.1</ele>
        <time>2014-02-14T16:25:14Z</time>
      </trkpt>
      <trkpt lat="44.090128" lon="1.040268">
        <ele>80.0</ele>
        <time>2014-02-14T16:25:22Z</time>
      </trkpt>
      <trkpt lat="44.090072" lon="1.040405">
        <ele>80.0</ele>
        <time>2014-02-14T16:25:31Z</time>
      </trkpt>
      <trkpt lat="44.090035" lon="1.040519">
        <ele>80.1</ele>
        <time>2014-02-14T16:25:38Z</time>
      </trkpt>
      <trkpt lat="44.090000" lon="1.040642">
        <ele>80.2</ele>
        <time>2014-02-14T16:25:46Z</time>
      </trkpt>
      <trkpt lat="44.089982" lon="1.040770">
        <ele>80.2</ele>
        <time>2014-02-14T16:25:53Z</time>
      </trkpt>
      <trkpt lat="44.089960" lon="1.040913">
        <ele>80.2</ele>
        <time>2014-02-14T16:26:01Z</time>
      </trkpt>
      <trkpt lat="44.089956" lon="1.041063">
        <ele>80.1</ele>
        <time>2014-02-14T16:26:09Z</time>
      </trkpt>
      <trkpt lat="44.089942" lon="1.041188">
        <ele>79.8</ele>
        <time>2014-02-14T16:26:16Z</time>
      </trkpt>
      <trkpt lat="44.089933" lon="1.041321">
        <ele>79.9</ele>
        <time>2014-02-14T16:26:23Z</time>
      </trkpt>
      <trkpt lat="44.089950" lon="1.041455">
        <ele>80.1</ele>
        <time>2014-02-14T16:26:31Z</time>
      </trkpt>
      <trkpt lat="44.089962" lon="1.041578">
        <ele>80.0</ele>
        <time>2014-02-14T16:26:38Z</time>
      </trkpt>
      <trkpt lat="44.089951" lon="1.041702">
        <ele>80.1</ele>
        <time>2014-02-14T16:26:44Z</time>
      </trkpt>
      <trkpt lat="44.089963" lon="1.041835">
        <ele>80.2</ele>
        <time>2014-02-14T16:26:52Z</time>
      </trkpt>
      <trkpt lat="44.089978" lon="1.041974">
        <ele>80.6</ele>
        <time>2014-02-14T16:26:59Z</time>
      </trkpt>
      <trkpt lat="44.089997" lon="1.042117">
        <ele>80.8</ele>
        <time>2014-02-14T16:27:06Z</time>
      </trkpt>
      <trkpt lat="44.090026" lon="1.042256">
        <ele>80.8</ele>
        <time>2014-02-14T16:27:14Z</time>
      </trkpt>
      <trkpt lat="44.090036" lon="1.042369">
        <ele>81.0</ele>
        <time>2014-02-14T16:27:21Z</time>
      </trkpt>
      <trkpt lat="44.090068" lon="1.042504">
        <ele>80.9</ele>
        <time>2014-02-14T16:27:28Z</time>
      </trkpt>
      <trkpt lat="44.090076" lon="1.042648">
        <ele>81.1</ele>
        <time>2014-02-14T16:27:36Z</time>
      </trkpt>
      <trkpt lat="44.090090" lon="1.042804">
        <ele>81.1</ele>
        <time>2014-02-14T16:27:44Z</time>
      </trkpt>
      <trkpt lat="44.090112" lon="1.042936">
        <ele>81.0</ele>
        <time>2014-02-14T16:27:51Z</time>
      </trkpt>
      <trkpt lat="44.090136" lon="1.043078">
        <ele>81.0</ele>
        <time>2014-02-14T16:27:59Z</time>
      </trkpt>
      <trkpt lat="44.090158" lon="1.043212">
        <ele>81.1</ele>
        <time>2014-02-14T16:28:07Z</time>
      </trkpt>
      <trkpt lat="44.090167" lon="1.043357">
        <ele>81.0</ele>
        <time>2014-02-14T16:28:14Z</time>
      </trkpt>
      <trkpt lat="44.090200" lon="1.043505">
        <ele>80.8</ele>
        <time>2014-02-14T16:28:22Z</time>
      </trkpt>
      <trkpt lat="44.090220" lon="1.043634">
        <ele>80.6</ele>
        <time>2014-02-14T16:28:29Z</time>
      </trkpt>
      <trkpt lat="44.090234" lon="1.043771">
        <ele>80.9</ele>
        <time>2014-02-14T16:28:36Z</time>
      </trkpt>
      <trkpt lat="44.090271" lon="1.043919">
        <ele>80.7</ele>
        <time>2014-02-14T16:28:44Z</time>
      </trkpt>
      <trkpt lat="44.090302" lon="1.044047">
        <ele>80.7</ele>
        <time>2014-02-14T16:28:51Z</time>
      </trkpt>
      <trkpt lat="44.090322" lon="1.044175">
        <ele>80.7</ele>
        <time>2014-02-14T16:28:58Z</time>
      </trkpt>
      <trkpt lat="44.090349" lon="1.044300">
        <ele>80.5</ele>
        <time>2014-02-14T16:29:05Z</time>
      </trkpt>
      <trkpt lat="44.090347" lon="1.044454">
        <ele>80.5</ele>
        <time>2014-02-14T16:29:13Z</time>
      </trkpt>
      <trkpt lat="44.090358" lon="1.044589">
        <ele>80.7</ele>
        <time>2014-02-14T16:29:20Z</time>
      </trkpt>
      <trkpt lat="44.090386" lon="1.044731">
        <ele>80.7</ele>
        <time>2014-02-14T16:29:28Z</time>
      </trkpt>
      <trkpt lat="44.090411" lon="1.044852">
        <ele>80.7</ele>
        <time>2014-02-14T16:29:35Z</time>
      </trkpt>
      <trkpt lat="44.090434" lon="1.044998">
        <ele>80.6</ele>
        <time>2014-02-14T16:29:43Z</time>
      </trkpt>
      <trkpt lat="44.090461" lon="1.045126">
        <ele>80.6</ele>
        <time>2014-02-14T16:29:50Z</time>
      </trkpt>
      <trkpt lat="44.090482" lon="1.045266">
        <ele>80.3</ele>
        <time>2014-02-14T16:29:58Z</time>
      </trkpt>
      <trkpt lat="44.090511" lon="1.045388">
        <ele>80.5</ele>
        <time>2014-02-14T16:30:05Z</time>
      </trkpt>
      <trkpt lat="44.090532" lon="1.045526">
        <ele>80.6</ele>
        <time>2014-02-14T16:30:12Z</time>
      </trkpt>
      <trkpt lat="44.090557" lon="1.045651">
        <ele>80.6</ele>
        <time>2014-02-14T16:30:19Z</time>
      </trkpt>
      <trkpt lat="44.090583" lon="1.045793">
        <ele>80.7</ele>
        <time>2014-02-14T16:30:27Z</time>
      </trkpt>
      <trkpt lat="44.090615" lon="1.045937">
        <ele>80.6</ele>
        <time>2014-02-14T16:30:36Z</time>
      </trkpt>
      <trkpt lat="44.090640" lon="1.046063">
        <ele>80.6</ele>
        <time>2014-02-14T16:30:44Z</time>
      </trkpt>
      <trkpt lat="44.090685" lon="1.046172">
        <ele>80.9</ele>
        <time>2014-02-14T16:30:51Z</time>
      </trkpt>
      <trkpt lat="44.090710" lon="1.046307">
        <ele>80.9</ele>
        <time>2014-02-14T16:30:59Z</time>
      </trkpt>
      <trkpt lat="44.090756" lon="1.046433">
        <ele>81.2</ele>
        <time>2014-02-14T16:31:06Z</time>
      </trkpt>
      <trkpt lat="44.090783" lon="1.046562">
        <ele>81.0</ele>
        <time>2014-02-14T16:31:13Z</time>
      </trkpt>
      <trkpt lat="44.090832" lon="1.046695">
        <ele>80.8</ele>
        <time>2014-02-14T16:31:21Z</time>
      </trkpt>
      <trkpt lat="44.090864" lon="1.046812">
        <ele>80.6</ele>
        <time>2014-02-14T16:31:28Z</time>
      </trkpt>
      <trkpt lat="44.090914" lon="1.046919">
        <ele>80.6</ele>
        <time>2014-02-14T16:31:36Z</time>
      </trkpt>
      <trkpt lat="44.090969" lon="1.047026">
        <ele>80.7</ele>
        <time>2014-02-14T16:31:43Z</time>
      </trkpt>
      <trkpt lat="44.091017" lon="1.047155">
        <ele>80.5</ele>
        <time>2014-02-14T16:31:51Z</time>
      </trkpt>
      <trkpt lat="44.091083" lon="1.047262">
        <ele>80.5</ele>
        <time>2014-02-14T16:31:59Z</time>
      </trkpt>
      <trkpt lat="44.091141" lon="1.047371">
        <ele>80.6</ele>
        <time>2014-02-14T16:32:06Z</time>
      </trkpt>
      <trkpt lat="44.091190" lon="1.047491">
        <ele>80.5</ele>
        <time>2014-02-14T16:32:13Z</time>
      </trkpt>
      <trkpt lat="44.091266" lon="1.047595">
        <ele>80.5</ele>
        <time>2014-02-14T16:32:21Z</time>
      </trkpt>
      <trkpt lat="44.091314" lon="1.047694">
        <ele>80.5</ele>
        <time>2014-02-14T16:32:28Z</time>
      </trkpt>
      <trkpt lat="44.091386" lon="1.047733">
        <ele>79.8</ele>
        <time>2014-02-14T16:32:49Z</time>
      </trkpt>
      <trkpt lat="44.091407" lon="1.047715">
        <ele>79.1</ele>
        <time>2014-02-14T16:33:30Z</time>
      </trkpt>
      <trkpt lat="44.091358" lon="1.047790">
        <ele>79.5</ele>
        <time>2014-02-14T16:33:56Z</time>
      </trkpt>
      <trkpt lat="44.091431" lon="1.047883">
        <ele>80.0</ele>
        <time>2014-02-14T16:34:03Z</time>
      </trkpt>
      <trkpt lat="44.091486" lon="1.047981">
        <ele>80.0</ele>
        <time>2014-02-14T16:34:10Z</time>
      </trkpt>
      <trkpt lat="44.091543" lon="1.048087">
        <ele>79.9</ele>
        <time>2014-02-14T16:34:17Z</time>
      </trkpt>
      <trkpt lat="44.091598" lon="1.048185">
        <ele>80.0</ele>
        <time>2014-02-14T16:34:24Z</time>
      </trkpt>
      <trkpt lat="44.091645" lon="1.048300">
        <ele>80.1</ele>
        <time>2014-02-14T16:34:32Z</time>
      </trkpt>
      <trkpt lat="44.091709" lon="1.048407">
        <ele>80.2</ele>
        <time>2014-02-14T16:34:40Z</time>
      </trkpt>
      <trkpt lat="44.091757" lon="1.048528">
        <ele>80.1</ele>
        <time>2014-02-14T16:34:48Z</time>
      </trkpt>
      <trkpt lat="44.091820" lon="1.048642">
        <ele>79.9</ele>
        <time>2014-02-14T16:34:56Z</time>
      </trkpt>
      <trkpt lat="44.091883" lon="1.048751">
        <ele>79.7</ele>
        <time>2014-02-14T16:35:04Z</time>
      </trkpt>
      <trkpt lat="44.091961" lon="1.048878">
        <ele>79.6</ele>
        <time>2014-02-14T16:35:13Z</time>
      </trkpt>
      <trkpt lat="44.092033" lon="1.048983">
        <ele>79.8</ele>
        <time>2014-02-14T16:35:21Z</time>
      </trkpt>
      <trkpt lat="44.092081" lon="1.049103">
        <ele>79.9</ele>
        <time>2014-02-14T16:35:29Z</time>
      </trkpt>
      <trkpt lat="44.092153" lon="1.049220">
        <ele>79.7</ele>
        <time>2014-02-14T16:35:37Z</time>
      </trkpt>
      <trkpt lat="44.092217" lon="1.049316">
        <ele>79.6</ele>
        <time>2014-02-14T16:35:44Z</time>
      </trkpt>
      <trkpt lat="44.092271" lon="1.049427">
        <ele>79.8</ele>
        <time>2014-02-14T16:35:52Z</time>
      </trkpt>
      <trkpt lat="44.092308" lon="1.049543">
        <ele>79.7</ele>
        <time>2014-02-14T16:35:59Z</time>
      </trkpt>
      <trkpt lat="44.092363" lon="1.049672">
        <ele>79.8</ele>
        <time>2014-02-14T16:36:07Z</time>
      </trkpt>
      <trkpt lat="44.092426" lon="1.049798">
        <ele>79.7</ele>
        <time>2014-02-14T16:36:15Z</time>
      </trkpt>
      <trkpt lat="44.092476" lon="1.049899">
        <ele>79.8</ele>
        <time>2014-02-14T16:36:22Z</time>
      </trkpt>
      <trkpt lat="44.092541" lon="1.050009">
        <ele>80.0</ele>
        <time>2014-02-14T16:36:30Z</time>
      </trkpt>
      <trkpt lat="44.092605" lon="1.050134">
        <ele>79.9</ele>
        <time>2014-02-14T16:36:38Z</time>
      </trkpt>
      <trkpt lat="44.092678" lon="1.050257">
        <ele>79.8</ele>
        <time>2014-02-14T16:36:47Z</time>
      </trkpt>
      <trkpt lat="44.092743" lon="1.050372">
        <ele>79.8</ele>
        <time>2014-02-14T16:36:55Z</time>
      </trkpt>
      <trkpt lat="44.092833" lon="1.050481">
        <ele>79.8</ele>
        <time>2014-02-14T16:37:04Z</time>
      </trkpt>
      <trkpt lat="44.092925" lon="1.050611">
        <ele>79.9</ele>
        <time>2014-02-14T16:37:12Z</time>
      </trkpt>
      <trkpt lat="44.092966" lon="1.050731">
        <ele>80.1</ele>
        <time>2014-02-14T16:37:20Z</time>
      </trkpt>
      <trkpt lat="44.093025" lon="1.050856">
        <ele>80.3</ele>
        <time>2014-02-14T16:37:28Z</time>
      </trkpt>
      <trkpt lat="44.093070" lon="1.050986">
        <ele>80.8</ele>
        <time>2014-02-14T16:37:35Z</time>
      </trkpt>
      <trkpt lat="44.093115" lon="1.051094">
        <ele>82.2</ele>
        <time>2014-02-14T16:39:11Z</time>
      </trkpt>
      <trkpt lat="44.093139" lon="1.051227">
        <ele>81.7</ele>
        <time>2014-02-14T16:39:19Z</time>
      </trkpt>
      <trkpt lat="44.093206" lon="1.051317">
        <ele>81.1</ele>
        <time>2014-02-14T16:39:26Z</time>
      </trkpt>
      <trkpt lat="44.093298" lon="1.051395">
        <ele>80.5</ele>
        <time>2014-02-14T16:39:34Z</time>
      </trkpt>
      <trkpt lat="44.093367" lon="1.051513">
        <ele>80.3</ele>
        <time>2014-02-14T16:39:42Z</time>
      </trkpt>
      <trkpt lat="44.093410" lon="1.051640">
        <ele>80.3</ele>
        <time>2014-02-14T16:39:50Z</time>
      </trkpt>
      <trkpt lat="44.093458" lon="1.051761">
        <ele>80.5</ele>
        <time>2014-02-14T16:39:59Z</time>
      </trkpt>
      <trkpt lat="44.093518" lon="1.051885">
        <ele>80.5</ele>
        <time>2014-02-14T16:40:08Z</time>
      </trkpt>
      <trkpt lat="44.093577" lon="1.052001">
        <ele>80.4</ele>
        <time>2014-02-14T16:40:17Z</time>
      </trkpt>
      <trkpt lat="44.093634" lon="1.052125">
        <ele>80.7</ele>
        <time>2014-02-14T16:40:27Z</time>
      </trkpt>
      <trkpt lat="44.093703" lon="1.052258">
        <ele>80.6</ele>
        <time>2014-02-14T16:40:37Z</time>
      </trkpt>
      <trkpt lat="44.093761" lon="1.052396">
        <ele>80.2</ele>
        <time>2014-02-14T16:40:47Z</time>
      </trkpt>
      <trkpt lat="44.093861" lon="1.052587">
        <ele>80.1</ele>
        <time>2014-02-14T16:40:57Z</time>
      </trkpt>
      <trkpt lat="44.093922" lon="1.052716">
        <ele>80.1</ele>
        <time>2014-02-14T16:41:05Z</time>
      </trkpt>
      <trkpt lat="44.094012" lon="1.052848">
        <ele>80.0</ele>
        <time>2014-02-14T16:41:14Z</time>
      </trkpt>
      <trkpt lat="44.094085" lon="1.052978">
        <ele>80.2</ele>
        <time>2014-02-14T16:41:22Z</time>
      </trkpt>
      <trkpt lat="44.094150" lon="1.053097">
        <ele>80.1</ele>
        <time>2014-02-14T16:41:30Z</time>
      </trkpt>
      <trkpt lat="44.094201" lon="1.053205">
        <ele>80.4</ele>
        <time>2014-02-14T16:41:37Z</time>
      </trkpt>
      <trkpt lat="44.094234" lon="1.053323">
        <ele>80.3</ele>
        <time>2014-02-14T16:41:45Z</time>
      </trkpt>
      <trkpt lat="44.094270" lon="1.053475">
        <ele>80.2</ele>
        <time>2014-02-14T16:41:53Z</time>
      </trkpt>
      <trkpt lat="44.094319" lon="1.053606">
        <ele>80.2</ele>
        <time>2014-02-14T16:42:01Z</time>
      </trkpt>
      <trkpt lat="44.094375" lon="1.053732">
        <ele>80.1</ele>
        <time>2014-02-14T16:42:09Z</time>
      </trkpt>
      <trkpt lat="44.094414" lon="1.053859">
        <ele>80.0</ele>
        <time>2014-02-14T16:42:17Z</time>
      </trkpt>
      <trkpt lat="44.094448" lon="1.053978">
        <ele>79.9</ele>
        <time>2014-02-14T16:42:25Z</time>
      </trkpt>
      <trkpt lat="44.094499" lon="1.054110">
        <ele>80.1</ele>
        <time>2014-02-14T16:42:33Z</time>
      </trkpt>
      <trkpt lat="44.094544" lon="1.054237">
        <ele>80.1</ele>
        <time>2014-02-14T16:42:40Z</time>
      </trkpt>
      <trkpt lat="44.094578" lon="1.054375">
        <ele>80.1</ele>
        <time>2014-02-14T16:42:48Z</time>
      </trkpt>
      <trkpt lat="44.094630" lon="1.054496">
        <ele>80.2</ele>
        <time>2014-02-14T16:42:56Z</time>
      </trkpt>
      <trkpt lat="44.094668" lon="1.054631">
        <ele>80.2</ele>
        <time>2014-02-14T16:43:04Z</time>
      </trkpt>
      <trkpt lat="44.094703" lon="1.054768">
        <ele>80.3</ele>
        <time>2014-02-14T16:43:12Z</time>
      </trkpt>
      <trkpt lat="44.094731" lon="1.054903">
        <ele>80.3</ele>
        <time>2014-02-14T16:43:19Z</time>
      </trkpt>
      <trkpt lat="44.094787" lon="1.055045">
        <ele>80.3</ele>
        <time>2014-02-14T16:43:26Z</time>
      </trkpt>
      <trkpt lat="44.094818" lon="1.055170">
        <ele>80.8</ele>
        <time>2014-02-14T16:43:33Z</time>
      </trkpt>
      <trkpt lat="44.094864" lon="1.055308">
        <ele>80.7</ele>
        <time>2014-02-14T16:43:42Z</time>
      </trkpt>
      <trkpt lat="44.094881" lon="1.055442">
        <ele>80.6</ele>
        <time>2014-02-14T16:43:49Z</time>
      </trkpt>
      <trkpt lat="44.094912" lon="1.055598">
        <ele>80.6</ele>
        <time>2014-02-14T16:43:57Z</time>
      </trkpt>
      <trkpt lat="44.094940" lon="1.055738">
        <ele>80.5</ele>
        <time>2014-02-14T16:44:05Z</time>
      </trkpt>
      <trkpt lat="44.094984" lon="1.055869">
        <ele>80.6</ele>
        <time>2014-02-14T16:44:13Z</time>
      </trkpt>
      <trkpt lat="44.095007" lon="1.056020">
        <ele>80.8</ele>
        <time>2014-02-14T16:44:21Z</time>
      </trkpt>
      <trkpt lat="44.095055" lon="1.056177">
        <ele>80.7</ele>
        <time>2014-02-14T16:44:30Z</time>
      </trkpt>
      <trkpt lat="44.095077" lon="1.056325">
        <ele>80.6</ele>
        <time>2014-02-14T16:44:38Z</time>
      </trkpt>
      <trkpt lat="44.095103" lon="1.056458">
        <ele>80.5</ele>
        <time>2014-02-14T16:44:46Z</time>
      </trkpt>
      <trkpt lat="44.095118" lon="1.056615">
        <ele>80.4</ele>
        <time>2014-02-14T16:44:54Z</time>
      </trkpt>
      <trkpt lat="44.095150" lon="1.056808">
        <ele>80.4</ele>
        <time>2014-02-14T16:45:03Z</time>
      </trkpt>
      <trkpt lat="44.095167" lon="1.056954">
        <ele>80.4</ele>
        <time>2014-02-14T16:45:11Z</time>
      </trkpt>
      <trkpt lat="44.095187" lon="1.057096">
        <ele>80.4</ele>
        <time>2014-02-14T16:45:19Z</time>
      </trkpt>
      <trkpt lat="44.095192" lon="1.057230">
        <ele>80.7</ele>
        <time>2014-02-14T16:45:27Z</time>
      </trkpt>
      <trkpt lat="44.095184" lon="1.057379">
        <ele>80.5</ele>
        <time>2014-02-14T16:45:35Z</time>
      </trkpt>
      <trkpt lat="44.095191" lon="1.057524">
        <ele>80.5</ele>
        <time>2014-02-14T16:45:43Z</time>
      </trkpt>
      <trkpt lat="44.095213" lon="1.057678">
        <ele>80.6</ele>
        <time>2014-02-14T16:45:51Z</time>
      </trkpt>
      <trkpt lat="44.095230" lon="1.057812">
        <ele>80.7</ele>
        <time>2014-02-14T16:45:58Z</time>
      </trkpt>
      <trkpt lat="44.095246" lon="1.057953">
        <ele>80.8</ele>
        <time>2014-02-14T16:46:05Z</time>
      </trkpt>
      <trkpt lat="44.095255" lon="1.058099">
        <ele>80.7</ele>
        <time>2014-02-14T16:46:13Z</time>
      </trkpt>
      <trkpt lat="44.095272" lon="1.058229">
        <ele>80.6</ele>
        <time>2014-02-14T16:46:21Z</time>
      </trkpt>
      <trkpt lat="44.095295" lon="1.058389">
        <ele>80.6</ele>
        <time>2014-02-14T16:46:30Z</time>
      </trkpt>
      <trkpt lat="44.095283" lon="1.058561">
        <ele>80.3</ele>
        <time>2014-02-14T16:46:38Z</time>
      </trkpt>
      <trkpt lat="44.095294" lon="1.058706">
        <ele>80.7</ele>
        <time>2014-02-14T16:46:46Z</time>
      </trkpt>
      <trkpt lat="44.095311" lon="1.058838">
        <ele>80.8</ele>
        <time>2014-02-14T16:46:53Z</time>
      </trkpt>
      <trkpt lat="44.095325" lon="1.058961">
        <ele>80.9</ele>
        <time>2014-02-14T16:47:01Z</time>
      </trkpt>
      <trkpt lat="44.095342" lon="1.059106">
        <ele>81.0</ele>
        <time>2014-02-14T16:47:09Z</time>
      </trkpt>
      <trkpt lat="44.095346" lon="1.059244">
        <ele>81.2</ele>
        <time>2014-02-14T16:47:16Z</time>
      </trkpt>
      <trkpt lat="44.095363" lon="1.059385">
        <ele>81.0</ele>
        <time>2014-02-14T16:47:24Z</time>
      </trkpt>
      <trkpt lat="44.095369" lon="1.059537">
        <ele>80.8</ele>
        <time>2014-02-14T16:47:32Z</time>
      </trkpt>
      <trkpt lat="44.095380" lon="1.059691">
        <ele>80.9</ele>
        <time>2014-02-14T16:47:40Z</time>
      </trkpt>
      <trkpt lat="44.095395" lon="1.059847">
        <ele>80.8</ele>
        <time>2014-02-14T16:47:49Z</time>
      </trkpt>
      <trkpt lat="44.095407" lon="1.059989">
        <ele>80.8</ele>
        <time>2014-02-14T16:47:57Z</time>
      </trkpt>
      <trkpt lat="44.095414" lon="1.060106">
        <ele>80.8</ele>
        <time>2014-02-14T16:48:05Z</time>
      </trkpt>
      <trkpt lat="44.095425" lon="1.060265">
        <ele>80.5</ele>
        <time>2014-02-14T16:48:14Z</time>
      </trkpt>
      <trkpt lat="44.095445" lon="1.060409">
        <ele>80.4</ele>
        <time>2014-02-14T16:48:22Z</time>
      </trkpt>
      <trkpt lat="44.095446" lon="1.060565">
        <ele>80.2</ele>
        <time>2014-02-14T16:48:31Z</time>
      </trkpt>
      <trkpt lat="44.095458" lon="1.060721">
        <ele>80.1</ele>
        <time>2014-02-14T16:48:40Z</time>
      </trkpt>
      <trkpt lat="44.095481" lon="1.060850">
        <ele>80.0</ele>
        <time>2014-02-14T16:48:48Z</time>
      </trkpt>
      <trkpt lat="44.095490" lon="1.060994">
        <ele>80.0</ele>
        <time>2014-02-14T16:48:56Z</time>
      </trkpt>
      <trkpt lat="44.095503" lon="1.061140">
        <ele>79.8</ele>
        <time>2014-02-14T16:49:04Z</time>
      </trkpt>
      <trkpt lat="44.095514" lon="1.061270">
        <ele>79.7</ele>
        <time>2014-02-14T16:49:12Z</time>
      </trkpt>
      <trkpt lat="44.095536" lon="1.061402">
        <ele>79.6</ele>
        <time>2014-02-14T16:49:20Z</time>
      </trkpt>
      <trkpt lat="44.095563" lon="1.061527">
        <ele>79.6</ele>
        <time>2014-02-14T16:49:28Z</time>
      </trkpt>
      <trkpt lat="44.095593" lon="1.061662">
        <ele>79.6</ele>
        <time>2014-02-14T16:49:36Z</time>
      </trkpt>
      <trkpt lat="44.095623" lon="1.061810">
        <ele>79.4</ele>
        <time>2014-02-14T16:49:44Z</time>
      </trkpt>
      <trkpt lat="44.095652" lon="1.061944">
        <ele>79.4</ele>
        <time>2014-02-14T16:49:52Z</time>
      </trkpt>
      <trkpt lat="44.095682" lon="1.062065">
        <ele>79.4</ele>
        <time>2014-02-14T16:49:59Z</time>
      </trkpt>
      <trkpt lat="44.095724" lon="1.062211">
        <ele>79.4</ele>
        <time>2014-02-14T16:50:07Z</time>
      </trkpt>
      <trkpt lat="44.095758" lon="1.062347">
        <ele>79.3</ele>
        <time>2014-02-14T16:50:15Z</time>
      </trkpt>
      <trkpt lat="44.095799" lon="1.062470">
        <ele>79.1</ele>
        <time>2014-02-14T16:50:23Z</time>
      </trkpt>
      <trkpt lat="44.095843" lon="1.062588">
        <ele>78.8</ele>
        <time>2014-02-14T16:50:31Z</time>
      </trkpt>
      <trkpt lat="44.095883" lon="1.062707">
        <ele>78.6</ele>
        <time>2014-02-14T16:50:39Z</time>
      </trkpt>
      <trkpt lat="44.095918" lon="1.062832">
        <ele>78.6</ele>
        <time>2014-02-14T16:50:47Z</time>
      </trkpt>
      <trkpt lat="44.095972" lon="1.062955">
        <ele>78.6</ele>
        <time>2014-02-14T16:50:55Z</time>
      </trkpt>
      <trkpt lat="44.096021" lon="1.063076">
        <ele>78.6</ele>
        <time>2014-02-14T16:51:03Z</time>
      </trkpt>
      <trkpt lat="44.096086" lon="1.063210">
        <ele>78.9</ele>
        <time>2014-02-14T16:51:11Z</time>
      </trkpt>
      <trkpt lat="44.096138" lon="1.063325">
        <ele>79.2</ele>
        <time>2014-02-14T16:51:19Z</time>
      </trkpt>
      <trkpt lat="44.096186" lon="1.063427">
        <ele>79.2</ele>
        <time>2014-02-14T16:51:26Z</time>
      </trkpt>
      <trkpt lat="44.096244" lon="1.063531">
        <ele>79.1</ele>
        <time>2014-02-14T16:51:34Z</time>
      </trkpt>
      <trkpt lat="44.096308" lon="1.063648">
        <ele>79.1</ele>
        <time>2014-02-14T16:51:42Z</time>
      </trkpt>
      <trkpt lat="44.096376" lon="1.063761">
        <ele>79.2</ele>
        <time>2014-02-14T16:51:50Z</time>
      </trkpt>
      <trkpt lat="44.096440" lon="1.063865">
        <ele>79.2</ele>
        <time>2014-02-14T16:51:58Z</time>
      </trkpt>
      <trkpt lat="44.096505" lon="1.063973">
        <ele>79.1</ele>
        <time>2014-02-14T16:52:06Z</time>
      </trkpt>
      <trkpt lat="44.096589" lon="1.064081">
        <ele>79.0</ele>
        <time>2014-02-14T16:52:15Z</time>
      </trkpt>
      <trkpt lat="44.096653" lon="1.064182">
        <ele>79.0</ele>
        <time>2014-02-14T16:52:23Z</time>
      </trkpt>
      <trkpt lat="44.096726" lon="1.064283">
        <ele>79.1</ele>
        <time>2014-02-14T16:52:31Z</time>
      </trkpt>
      <trkpt lat="44.096793" lon="1.064388">
        <ele>78.9</ele>
        <time>2014-02-14T16:52:39Z</time>
      </trkpt>
      <trkpt lat="44.096852" lon="1.064494">
        <ele>78.9</ele>
        <time>2014-02-14T16:52:47Z</time>
      </trkpt>
      <trkpt lat="44.096931" lon="1.064584">
        <ele>78.9</ele>
        <time>2014-02-14T16:52:56Z</time>
      </trkpt>
      <trkpt lat="44.097000" lon="1.064682">
        <ele>78.9</ele>
        <time>2014-02-14T16:53:05Z</time>
      </trkpt>
      <trkpt lat="44.097079" lon="1.064781">
        <ele>79.1</ele>
        <time>2014-02-14T16:53:14Z</time>
      </trkpt>
      <trkpt lat="44.097137" lon="1.064875">
        <ele>79.1</ele>
        <time>2014-02-14T16:53:22Z</time>
      </trkpt>
      <trkpt lat="44.097199" lon="1.064985">
        <ele>79.1</ele>
        <time>2014-02-14T16:53:31Z</time>
      </trkpt>
      <trkpt lat="44.097264" lon="1.065091">
        <ele>79.0</ele>
        <time>2014-02-14T16:53:40Z</time>
      </trkpt>
      <trkpt lat="44.097328" lon="1.065205">
        <ele>79.1</ele>
        <time>2014-02-14T16:53:49Z</time>
      </trkpt>
      <trkpt lat="44.097407" lon="1.065302">
        <ele>79.2</ele>
        <time>2014-02-14T16:53:58Z</time>
      </trkpt>
      <trkpt lat="44.097476" lon="1.065403">
        <ele>79.2</ele>
        <time>2014-02-14T16:54:06Z</time>
      </trkpt>
      <trkpt lat="44.097516" lon="1.065501">
        <ele>79.1</ele>
        <time>2014-02-14T16:54:22Z</time>
      </trkpt>
      <trkpt lat="44.097589" lon="1.065594">
        <ele>78.9</ele>
        <time>2014-02-14T16:54:31Z</time>
      </trkpt>
      <trkpt lat="44.097665" lon="1.065690">
        <ele>79.0</ele>
        <time>2014-02-14T16:54:40Z</time>
      </trkpt>
      <trkpt lat="44.097736" lon="1.065800">
        <ele>79.2</ele>
        <time>2014-02-14T16:54:49Z</time>
      </trkpt>
      <trkpt lat="44.097780" lon="1.065884">
        <ele>79.3</ele>
        <time>2014-02-14T16:54:57Z</time>
      </trkpt>
      <trkpt lat="44.097838" lon="1.065980">
        <ele>79.2</ele>
        <time>2014-02-14T16:55:06Z</time>
      </trkpt>
      <trkpt lat="44.097903" lon="1.066080">
        <ele>79.0</ele>
        <time>2014-02-14T16:55:15Z</time>
      </trkpt>
      <trkpt lat="44.097982" lon="1.066197">
        <ele>78.9</ele>
        <time>2014-02-14T16:55:24Z</time>
      </trkpt>
      <trkpt lat="44.097981" lon="1.066271">
        <ele>78.8</ele>
        <time>2014-02-14T16:55:59Z</time>
      </trkpt>
      <trkpt lat="44.098082" lon="1.066358">
        <ele>79.2</ele>
        <time>2014-02-14T16:56:10Z</time>
      </trkpt>
      <trkpt lat="44.098149" lon="1.066452">
        <ele>79.0</ele>
        <time>2014-02-14T16:56:19Z</time>
      </trkpt>
      <trkpt lat="44.098230" lon="1.066559">
        <ele>79.0</ele>
        <time>2014-02-14T16:56:28Z</time>
      </trkpt>
      <trkpt lat="44.098323" lon="1.066678">
        <ele>79.0</ele>
        <time>2014-02-14T16:56:36Z</time>
      </trkpt>
      <trkpt lat="44.098402" lon="1.066782">
        <ele>78.8</ele>
        <time>2014-02-14T16:56:43Z</time>
      </trkpt>
      <trkpt lat="44.098463" lon="1.066889">
        <ele>78.9</ele>
        <time>2014-02-14T16:56:51Z</time>
      </trkpt>
      <trkpt lat="44.098525" lon="1.066996">
        <ele>79.0</ele>
        <time>2014-02-14T16:57:00Z</time>
      </trkpt>
      <trkpt lat="44.098594" lon="1.067109">
        <ele>79.1</ele>
        <time>2014-02-14T16:57:08Z</time>
      </trkpt>
      <trkpt lat="44.098662" lon="1.067222">
        <ele>79.2</ele>
        <time>2014-02-14T16:57:16Z</time>
      </trkpt>
      <trkpt lat="44.098717" lon="1.067323">
        <ele>79.3</ele>
        <time>2014-02-14T16:57:23Z</time>
      </trkpt>
      <trkpt lat="44.098770" lon="1.067430">
        <ele>79.5</ele>
        <time>2014-02-14T16:57:30Z</time>
      </trkpt>
      <trkpt lat="44.098832" lon="1.067538">
        <ele>79.4</ele>
        <time>2014-02-14T16:57:38Z</time>
      </trkpt>
      <trkpt lat="44.098902" lon="1.067636">
        <ele>79.2</ele>
        <time>2014-02-14T16:57:46Z</time>
      </trkpt>
      <trkpt lat="44.098969" lon="1.067766">
        <ele>79.1</ele>
        <time>2014-02-14T16:57:54Z</time>
      </trkpt>
      <trkpt lat="44.099023" lon="1.067889">
        <ele>79.1</ele>
        <time>2014-02-14T16:58:02Z</time>
      </trkpt>
      <trkpt lat="44.099072" lon="1.067996">
        <ele>79.1</ele>
        <time>2014-02-14T16:58:10Z</time>
      </trkpt>
      <trkpt lat="44.099119" lon="1.068090">
        <ele>79.1</ele>
        <time>2014-02-14T16:58:17Z</time>
      </trkpt>
      <trkpt lat="44.099176" lon="1.068205">
        <ele>79.1</ele>
        <time>2014-02-14T16:58:26Z</time>
      </trkpt>
      <trkpt lat="44.099242" lon="1.068327">
        <ele>79.6</ele>
        <time>2014-02-14T16:58:35Z</time>
      </trkpt>
      <trkpt lat="44.099299" lon="1.068470">
        <ele>79.6</ele>
        <time>2014-02-14T16:58:44Z</time>
      </trkpt>
      <trkpt lat="44.099370" lon="1.068606">
        <ele>79.7</ele>
        <time>2014-02-14T16:58:52Z</time>
      </trkpt>
      <trkpt lat="44.099415" lon="1.068719">
        <ele>79.8</ele>
        <time>2014-02-14T16:58:59Z</time>
      </trkpt>
      <trkpt lat="44.099467" lon="1.068854">
        <ele>80.1</ele>
        <time>2014-02-14T16:59:07Z</time>
      </trkpt>
      <trkpt lat="44.099504" lon="1.068987">
        <ele>80.3</ele>
        <time>2014-02-14T16:59:15Z</time>
      </trkpt>
      <trkpt lat="44.099560" lon="1.069111">
        <ele>80.3</ele>
        <time>2014-02-14T16:59:22Z</time>
      </trkpt>
      <trkpt lat="44.099604" lon="1.069237">
        <ele>80.2</ele>
        <time>2014-02-14T16:59:30Z</time>
      </trkpt>
      <trkpt lat="44.099644" lon="1.069352">
        <ele>80.2</ele>
        <time>2014-02-14T16:59:38Z</time>
      </trkpt>
      <trkpt lat="44.099707" lon="1.069475">
        <ele>80.2</ele>
        <time>2014-02-14T16:59:47Z</time>
      </trkpt>
      <trkpt lat="44.099753" lon="1.069616">
        <ele>80.3</ele>
        <time>2014-02-14T16:59:55Z</time>
      </trkpt>
      <trkpt lat="44.099808" lon="1.069750">
        <ele>80.3</ele>
        <time>2014-02-14T17:00:03Z</time>
      </trkpt>
      <trkpt lat="44.099877" lon="1.069883">
        <ele>80.1</ele>
        <time>2014-02-14T17:00:11Z</time>
      </trkpt>
      <trkpt lat="44.099932" lon="1.069999">
        <ele>80.2</ele>
        <time>2014-02-14T17:00:18Z</time>
      </trkpt>
      <trkpt lat="44.099978" lon="1.070127">
        <ele>80.1</ele>
        <time>2014-02-14T17:00:26Z</time>
      </trkpt>
      <trkpt lat="44.100037" lon="1.070268">
        <ele>80.0</ele>
        <time>2014-02-14T17:00:34Z</time>
      </trkpt>
      <trkpt lat="44.100070" lon="1.070391">
        <ele>79.9</ele>
        <time>2014-02-14T17:00:41Z</time>
      </trkpt>
      <trkpt lat="44.100106" lon="1.070509">
        <ele>79.9</ele>
        <time>2014-02-14T17:00:48Z</time>
      </trkpt>
      <trkpt lat="44.100134" lon="1.070619">
        <ele>79.8</ele>
        <time>2014-02-14T17:00:55Z</time>
      </trkpt>
      <trkpt lat="44.100152" lon="1.070730">
        <ele>79.7</ele>
        <time>2014-02-14T17:01:03Z</time>
      </trkpt>
      <trkpt lat="44.100200" lon="1.070860">
        <ele>79.9</ele>
        <time>2014-02-14T17:01:11Z</time>
      </trkpt>
      <trkpt lat="44.100244" lon="1.070972">
        <ele>79.9</ele>
        <time>2014-02-14T17:01:18Z</time>
      </trkpt>
      <trkpt lat="44.100293" lon="1.071081">
        <ele>79.8</ele>
        <time>2014-02-14T17:01:25Z</time>
      </trkpt>
      <trkpt lat="44.100351" lon="1.071182">
        <ele>79.6</ele>
        <time>2014-02-14T17:01:32Z</time>
      </trkpt>
      <trkpt lat="44.100399" lon="1.071309">
        <ele>79.5</ele>
        <time>2014-02-14T17:01:40Z</time>
      </trkpt>
      <trkpt lat="44.100431" lon="1.071433">
        <ele>79.5</ele>
        <time>2014-02-14T17:01:47Z</time>
      </trkpt>
      <trkpt lat="44.100480" lon="1.071563">
        <ele>79.6</ele>
        <time>2014-02-14T17:01:55Z</time>
      </trkpt>
      <trkpt lat="44.100525" lon="1.071697">
        <ele>79.7</ele>
        <time>2014-02-14T17:02:02Z</time>
      </trkpt>
      <trkpt lat="44.100556" lon="1.071826">
        <ele>79.8</ele>
        <time>2014-02-14T17:02:10Z</time>
      </trkpt>
      <trkpt lat="44.100593" lon="1.071969">
        <ele>79.7</ele>
        <time>2014-02-14T17:02:18Z</time>
      </trkpt>
      <trkpt lat="44.100635" lon="1.072085">
        <ele>79.8</ele>
        <time>2014-02-14T17:02:25Z</time>
      </trkpt>
      <trkpt lat="44.100645" lon="1.072229">
        <ele>79.8</ele>
        <time>2014-02-14T17:02:32Z</time>
      </trkpt>
      <trkpt lat="44.100656" lon="1.072375">
        <ele>79.7</ele>
        <time>2014-02-14T17:02:40Z</time>
      </trkpt>
      <trkpt lat="44.100687" lon="1.072498">
        <ele>79.7</ele>
        <time>2014-02-14T17:02:47Z</time>
      </trkpt>
      <trkpt lat="44.100710" lon="1.072620">
        <ele>79.7</ele>
        <time>2014-02-14T17:02:54Z</time>
      </trkpt>
      <trkpt lat="44.100752" lon="1.072730">
        <ele>79.7</ele>
        <time>2014-02-14T17:03:01Z</time>
      </trkpt>
      <trkpt lat="44.100781" lon="1.072862">
        <ele>79.8</ele>
        <time>2014-02-14T17:03:09Z</time>
      </trkpt>
      <trkpt lat="44.100803" lon="1.072995">
        <ele>79.7</ele>
        <time>2014-02-14T17:03:17Z</time>
      </trkpt>
      <trkpt lat="44.100809" lon="1.073124">
        <ele>79.7</ele>
        <time>2014-02-14T17:03:24Z</time>
      </trkpt>
      <trkpt lat="44.100820" lon="1.073251">
        <ele>79.7</ele>
        <time>2014-02-14T17:03:31Z</time>
      </trkpt>
      <trkpt lat="44.100829" lon="1.073382">
        <ele>79.7</ele>
        <time>2014-02-14T17:03:38Z</time>
      </trkpt>
      <trkpt lat="44.100844" lon="1.073517">
        <ele>79.7</ele>
        <time>2014-02-14T17:03:45Z</time>
      </trkpt>
      <trkpt lat="44.100856" lon="1.073655">
        <ele>79.8</ele>
        <time>2014-02-14T17:03:52Z</time>
      </trkpt>
      <trkpt lat="44.100862" lon="1.073785">
        <ele>79.8</ele>
        <time>2014-02-14T17:03:59Z</time>
      </trkpt>
      <trkpt lat="44.100856" lon="1.073927">
        <ele>79.6</ele>
        <time>2014-02-14T17:04:06Z</time>
      </trkpt>
      <trkpt lat="44.100863" lon="1.074060">
        <ele>79.6</ele>
        <time>2014-02-14T17:04:13Z</time>
      </trkpt>
      <trkpt lat="44.100861" lon="1.074193">
        <ele>79.6</ele>
        <time>2014-02-14T17:04:20Z</time>
      </trkpt>
      <trkpt lat="44.100854" lon="1.074324">
        <ele>79.6</ele>
        <time>2014-02-14T17:04:27Z</time>
      </trkpt>
      <trkpt lat="44.100851" lon="1.074456">
        <ele>79.5</ele>
        <time>2014-02-14T17:04:34Z</time>
      </trkpt>
      <trkpt lat="44.100851" lon="1.074584">
        <ele>79.3</ele>
        <time>2014-02-14T17:04:41Z</time>
      </trkpt>
      <trkpt lat="44.100858" lon="1.074715">
        <ele>79.2</ele>
        <time>2014-02-14T17:04:48Z</time>
      </trkpt>
      <trkpt lat="44.100858" lon="1.074866">
        <ele>79.2</ele>
        <time>2014-02-14T17:04:56Z</time>
      </trkpt>
      <trkpt lat="44.100858" lon="1.074994">
        <ele>79.1</ele>
        <time>2014-02-14T17:05:03Z</time>
      </trkpt>
      <trkpt lat="44.100857" lon="1.075127">
        <ele>79.2</ele>
        <time>2014-02-14T17:05:10Z</time>
      </trkpt>
      <trkpt lat="44.100858" lon="1.075274">
        <ele>79.2</ele>
        <time>2014-02-14T17:05:17Z</time>
      </trkpt>
      <trkpt lat="44.100860" lon="1.075404">
        <ele>79.3</ele>
        <time>2014-02-14T17:05:24Z</time>
      </trkpt>
      <trkpt lat="44.100857" lon="1.075530">
        <ele>79.3</ele>
        <time>2014-02-14T17:05:31Z</time>
      </trkpt>
      <trkpt lat="44.100860" lon="1.075663">
        <ele>79.4</ele>
        <time>2014-02-14T17:05:38Z</time>
      </trkpt>
      <trkpt lat="44.100860" lon="1.075791">
        <ele>79.3</ele>
        <time>2014-02-14T17:05:45Z</time>
      </trkpt>
      <trkpt lat="44.100854" lon="1.075923">
        <ele>79.3</ele>
        <time>2014-02-14T17:05:52Z</time>
      </trkpt>
      <trkpt lat="44.100847" lon="1.076053">
        <ele>79.4</ele>
        <time>2014-02-14T17:05:59Z</time>
      </trkpt>
      <trkpt lat="44.100843" lon="1.076195">
        <ele>79.5</ele>
        <time>2014-02-14T17:06:06Z</time>
      </trkpt>
      <trkpt lat="44.100842" lon="1.076332">
        <ele>79.5</ele>
        <time>2014-02-14T17:06:13Z</time>
      </trkpt>
      <trkpt lat="44.100841" lon="1.076458">
        <ele>79.6</ele>
        <time>2014-02-14T17:06:20Z</time>
      </trkpt>
      <trkpt lat="44.100839" lon="1.076593">
        <ele>79.5</ele>
        <time>2014-02-14T17:06:27Z</time>
      </trkpt>
      <trkpt lat="44.100835" lon="1.076724">
        <ele>79.4</ele>
        <time>2014-02-14T17:06:34Z</time>
      </trkpt>
      <trkpt lat="44.100848" lon="1.076862">
        <ele>79.3</ele>
        <time>2014-02-14T17:06:42Z</time>
      </trkpt>
      <trkpt lat="44.100841" lon="1.076987">
        <ele>79.3</ele>
        <time>2014-02-14T17:06:49Z</time>
      </trkpt>
      <trkpt lat="44.100834" lon="1.077118">
        <ele>79.2</ele>
        <time>2014-02-14T17:06:56Z</time>
      </trkpt>
      <trkpt lat="44.100832" lon="1.077247">
        <ele>79.2</ele>
        <time>2014-02-14T17:07:03Z</time>
      </trkpt>
      <trkpt lat="44.100815" lon="1.077381">
        <ele>79.4</ele>
        <time>2014-02-14T17:07:11Z</time>
      </trkpt>
      <trkpt lat="44.100812" lon="1.077513">
        <ele>79.7</ele>
        <time>2014-02-14T17:07:19Z</time>
      </trkpt>
      <trkpt lat="44.100798" lon="1.077647">
        <ele>79.8</ele>
        <time>2014-02-14T17:07:27Z</time>
      </trkpt>
      <trkpt lat="44.100785" lon="1.077780">
        <ele>79.8</ele>
        <time>2014-02-14T17:07:35Z</time>
      </trkpt>
      <trkpt lat="44.100782" lon="1.077929">
        <ele>79.3</ele>
        <time>2014-02-14T17:07:45Z</time>
      </trkpt>
      <trkpt lat="44.100756" lon="1.078052">
        <ele>79.0</ele>
        <time>2014-02-14T17:07:55Z</time>
      </trkpt>
      <trkpt lat="44.100693" lon="1.078167">
        <ele>78.3</ele>
        <time>2014-02-14T17:08:04Z</time>
      </trkpt>
      <trkpt lat="44.100593" lon="1.078183">
        <ele>77.9</ele>
        <time>2014-02-14T17:08:14Z</time>
      </trkpt>
      <trkpt lat="44.100506" lon="1.078152">
        <ele>78.0</ele>
        <time>2014-02-14T17:08:20Z</time>
      </trkpt>
      <trkpt lat="44.100405" lon="1.078080">
        <ele>78.0</ele>
        <time>2014-02-14T17:08:31Z</time>
      </trkpt>
      <trkpt lat="44.100303" lon="1.078054">
        <ele>77.7</ele>
        <time>2014-02-14T17:08:36Z</time>
      </trkpt>
      <trkpt lat="44.100210" lon="1.078014">
        <ele>77.4</ele>
        <time>2014-02-14T17:08:41Z</time>
      </trkpt>
      <trkpt lat="44.100107" lon="1.077972">
        <ele>77.2</ele>
        <time>2014-02-14T17:08:53Z</time>
      </trkpt>
      <trkpt lat="44.100009" lon="1.077988">
        <ele>77.1</ele>
        <time>2014-02-14T17:08:58Z</time>
      </trkpt>
      <trkpt lat="44.099970" lon="1.078111">
        <ele>76.8</ele>
        <time>2014-02-14T17:09:07Z</time>
      </trkpt>
      <trkpt lat="44.099942" lon="1.078257">
        <ele>76.8</ele>
        <time>2014-02-14T17:09:21Z</time>
      </trkpt>
      <trkpt lat="44.099883" lon="1.078338">
        <ele>75.8</ele>
        <time>2014-02-14T17:09:37Z</time>
      </trkpt>
      <trkpt lat="44.099866" lon="1.078458">
        <ele>74.4</ele>
        <time>2014-02-14T17:09:47Z</time>
      </trkpt>
      <trkpt lat="44.099859" lon="1.078504">
        <ele>74.3</ele>
        <time>2014-02-14T17:11:15Z</time>
      </trkpt>
      <trkpt lat="44.099883" lon="1.078641">
        <ele>74.3</ele>
        <time>2014-02-14T17:11:25Z</time>
      </trkpt>
      <trkpt lat="44.099874" lon="1.078793">
        <ele>74.3</ele>
        <time>2014-02-14T17:11:36Z</time>
      </trkpt>
      <trkpt lat="44.099868" lon="1.078948">
        <ele>74.4</ele>
        <time>2014-02-14T17:11:50Z</time>
      </trkpt>
      <trkpt lat="44.099859" lon="1.079108">
        <ele>74.5</ele>
        <time>2014-02-14T17:11:59Z</time>
      </trkpt>
      <trkpt lat="44.099847" lon="1.079267">
        <ele>74.7</ele>
        <time>2014-02-14T17:12:09Z</time>
      </trkpt>
      <trkpt lat="44.099829" lon="1.079425">
        <ele>74.8</ele>
        <time>2014-02-14T17:12:20Z</time>
      </trkpt>
      <trkpt lat="44.099835" lon="1.079589">
        <ele>74.7</ele>
        <time>2014-02-14T17:12:31Z</time>
      </trkpt>
      <trkpt lat="44.099819" lon="1.079767">
        <ele>74.9</ele>
        <time>2014-02-14T17:12:42Z</time>
      </trkpt>
      <trkpt lat="44.099811" lon="1.079935">
        <ele>74.9</ele>
        <time>2014-02-14T17:12:52Z</time>
      </trkpt>
      <trkpt lat="44.099813" lon="1.080080">
        <ele>74.8</ele>
        <time>2014-02-14T17:13:03Z</time>
      </trkpt>
      <trkpt lat="44.099795" lon="1.080266">
        <ele>74.6</ele>
        <time>2014-02-14T17:13:15Z</time>
      </trkpt>
      <trkpt lat="44.099778" lon="1.080435">
        <ele>74.7</ele>
        <time>2014-02-14T17:13:26Z</time>
      </trkpt>
      <trkpt lat="44.099775" lon="1.080605">
        <ele>74.8</ele>
        <time>2014-02-14T17:13:37Z</time>
      </trkpt>
      <trkpt lat="44.099744" lon="1.080754">
        <ele>74.9</ele>
        <time>2014-02-14T17:14:29Z</time>
      </trkpt>
      <trkpt lat="44.099751" lon="1.080883">
        <ele>74.8</ele>
        <time>2014-02-14T17:14:39Z</time>
      </trkpt>
      <trkpt lat="44.099748" lon="1.081027">
        <ele>74.5</ele>
        <time>2014-02-14T17:14:51Z</time>
      </trkpt>
      <trkpt lat="44.099751" lon="1.081223">
        <ele>74.3</ele>
        <time>2014-02-14T17:15:03Z</time>
      </trkpt>
      <trkpt lat="44.099725" lon="1.081406">
        <ele>74.3</ele>
        <time>2014-02-14T17:15:15Z</time>
      </trkpt>
      <trkpt lat="44.099709" lon="1.081545">
        <ele>74.2</ele>
        <time>2014-02-14T17:15:24Z</time>
      </trkpt>
      <trkpt lat="44.099685" lon="1.081680">
        <ele>73.5</ele>
        <time>2014-02-14T17:15:47Z</time>
      </trkpt>
      <trkpt lat="44.099673" lon="1.081822">
        <ele>73.5</ele>
        <time>2014-02-14T17:15:56Z</time>
      </trkpt>
      <trkpt lat="44.099674" lon="1.081965">
        <ele>73.4</ele>
        <time>2014-02-14T17:16:07Z</time>
      </trkpt>
      <trkpt lat="44.099657" lon="1.082101">
        <ele>72.9</ele>
        <time>2014-02-14T17:16:22Z</time>
      </trkpt>
      <trkpt lat="44.099647" lon="1.082241">
        <ele>73.1</ele>
        <time>2014-02-14T17:16:32Z</time>
      </trkpt>
      <trkpt lat="44.099632" lon="1.082354">
        <ele>73.3</ele>
        <time>2014-02-14T17:17:10Z</time>
      </trkpt>
      <trkpt lat="44.099615" lon="1.082506">
        <ele>73.5</ele>
        <time>2014-02-14T17:17:32Z</time>
      </trkpt>
      <trkpt lat="44.099648" lon="1.082656">
        <ele>73.3</ele>
        <time>2014-02-14T17:18:07Z</time>
      </trkpt>
      <trkpt lat="44.099639" lon="1.082786">
        <ele>73.2</ele>
        <time>2014-02-14T17:18:17Z</time>
      </trkpt>
      <trkpt lat="44.099617" lon="1.082914">
        <ele>73.4</ele>
        <time>2014-02-14T17:18:42Z</time>
      </trkpt>
      <trkpt lat="44.099620" lon="1.083035">
        <ele>73.9</ele>
        <time>2014-02-14T17:18:59Z</time>
      </trkpt>
      <trkpt lat="44.099635" lon="1.083201">
        <ele>73.9</ele>
        <time>2014-02-14T17:19:11Z</time>
      </trkpt>
      <trkpt lat="44.099632" lon="1.083371">
        <ele>74.2</ele>
        <time>2014-02-14T17:19:22Z</time>
      </trkpt>
      <trkpt lat="44.099638" lon="1.083538">
        <ele>74.2</ele>
        <time>2014-02-14T17:19:33Z</time>
      </trkpt>
      <trkpt lat="44.099636" lon="1.083701">
        <ele>74.1</ele>
        <time>2014-02-14T17:19:42Z</time>
      </trkpt>
      <trkpt lat="44.099648" lon="1.083868">
        <ele>74.5</ele>
        <time>2014-02-14T17:19:54Z</time>
      </trkpt>
      <trkpt lat="44.099664" lon="1.084014">
        <ele>74.7</ele>
        <time>2014-02-14T17:20:04Z</time>
      </trkpt>
      <trkpt lat="44.099690" lon="1.084169">
        <ele>74.9</ele>
        <time>2014-02-14T17:20:17Z</time>
      </trkpt>
      <trkpt lat="44.099741" lon="1.084344">
        <ele>75.4</ele>
        <time>2014-02-14T17:20:29Z</time>
      </trkpt>
      <trkpt lat="44.099749" lon="1.084498">
        <ele>75.6</ele>
        <time>2014-02-14T17:20:39Z</time>
      </trkpt>
      <trkpt lat="44.099727" lon="1.084661">
        <ele>75.0</ele>
        <time>2014-02-14T17:20:50Z</time>
      </trkpt>
      <trkpt lat="44.099730" lon="1.084802">
        <ele>74.7</ele>
        <time>2014-02-14T17:20:59Z</time>
      </trkpt>
      <trkpt lat="44.099748" lon="1.084938">
        <ele>74.7</ele>
        <time>2014-02-14T17:21:08Z</time>
      </trkpt>
      <trkpt lat="44.099773" lon="1.085079">
        <ele>74.6</ele>
        <time>2014-02-14T17:21:17Z</time>
      </trkpt>
      <trkpt lat="44.099781" lon="1.085217">
        <ele>74.7</ele>
        <time>2014-02-14T17:21:26Z</time>
      </trkpt>
      <trkpt lat="44.099679" lon="1.085372">
        <ele>74.7</ele>
        <time>2014-02-14T17:21:38Z</time>
      </trkpt>
      <trkpt lat="44.099629" lon="1.085409">
        <ele>74.7</ele>
        <time>2014-02-14T17:22:10Z</time>
      </trkpt>
      <trkpt lat="44.099530" lon="1.085580">
        <ele>74.1</ele>
        <time>2014-02-14T17:22:25Z</time>
      </trkpt>
      <trkpt lat="44.099487" lon="1.085610">
        <ele>74.3</ele>
        <time>2014-02-14T17:23:14Z</time>
      </trkpt>
      <trkpt lat="44.099521" lon="1.085766">
        <ele>74.3</ele>
        <time>2014-02-14T17:23:26Z</time>
      </trkpt>
      <trkpt lat="44.099544" lon="1.085918">
        <ele>73.8</ele>
        <time>2014-02-14T17:23:37Z</time>
      </trkpt>
      <trkpt lat="44.099602" lon="1.086030">
        <ele>73.9</ele>
        <time>2014-02-14T17:23:51Z</time>
      </trkpt>
      <trkpt lat="44.099711" lon="1.086113">
        <ele>73.6</ele>
        <time>2014-02-14T17:24:04Z</time>
      </trkpt>
      <trkpt lat="44.099777" lon="1.086239">
        <ele>73.8</ele>
        <time>2014-02-14T17:24:18Z</time>
      </trkpt>
      <trkpt lat="44.099830" lon="1.086370">
        <ele>74.4</ele>
        <time>2014-02-14T17:24:36Z</time>
      </trkpt>
      <trkpt lat="44.099809" lon="1.086556">
        <ele>75.2</ele>
        <time>2014-02-14T17:24:46Z</time>
      </trkpt>
      <trkpt lat="44.099792" lon="1.086684">
        <ele>75.7</ele>
        <time>2014-02-14T17:24:57Z</time>
      </trkpt>
      <trkpt lat="44.099782" lon="1.086840">
        <ele>75.9</ele>
        <time>2014-02-14T17:25:08Z</time>
      </trkpt>
      <trkpt lat="44.099766" lon="1.087001">
        <ele>75.7</ele>
        <time>2014-02-14T17:25:18Z</time>
      </trkpt>
      <trkpt lat="44.099752" lon="1.087164">
        <ele>75.5</ele>
        <time>2014-02-14T17:25:30Z</time>
      </trkpt>
      <trkpt lat="44.099727" lon="1.087319">
        <ele>75.3</ele>
        <time>2014-02-14T17:25:40Z</time>
      </trkpt>
      <trkpt lat="44.099715" lon="1.087503">
        <ele>75.2</ele>
        <time>2014-02-14T17:25:52Z</time>
      </trkpt>
      <trkpt lat="44.099692" lon="1.087685">
        <ele>75.1</ele>
        <time>2014-02-14T17:26:04Z</time>
      </trkpt>
      <trkpt lat="44.099674" lon="1.087841">
        <ele>75.3</ele>
        <time>2014-02-14T17:26:16Z</time>
      </trkpt>
      <trkpt lat="44.099642" lon="1.088022">
        <ele>75.3</ele>
        <time>2014-02-14T17:26:29Z</time>
      </trkpt>
      <trkpt lat="44.099617" lon="1.088184">
        <ele>75.2</ele>
        <time>2014-02-14T17:26:40Z</time>
      </trkpt>
      <trkpt lat="44.099603" lon="1.088342">
        <ele>75.5</ele>
        <time>2014-02-14T17:26:52Z</time>
      </trkpt>
      <trkpt lat="44.099580" lon="1.088531">
        <ele>75.2</ele>
        <time>2014-02-14T17:27:03Z</time>
      </trkpt>
      <trkpt lat="44.099550" lon="1.088683">
        <ele>75.3</ele>
        <time>2014-02-14T17:27:13Z</time>
      </trkpt>
      <trkpt lat="44.099539" lon="1.088839">
        <ele>74.7</ele>
        <time>2014-02-14T17:27:24Z</time>
      </trkpt>
      <trkpt lat="44.099519" lon="1.088987">
        <ele>74.7</ele>
        <time>2014-02-14T17:27:34Z</time>
      </trkpt>
      <trkpt lat="44.099512" lon="1.089155">
        <ele>74.8</ele>
        <time>2014-02-14T17:27:45Z</time>
      </trkpt>
      <trkpt lat="44.099494" lon="1.089310">
        <ele>74.4</ele>
        <time>2014-02-14T17:27:55Z</time>
      </trkpt>
      <trkpt lat="44.099507" lon="1.089438">
        <ele>74.5</ele>
        <time>2014-02-14T17:28:05Z</time>
      </trkpt>
      <trkpt lat="44.099550" lon="1.089562">
        <ele>74.2</ele>
        <time>2014-02-14T17:28:16Z</time>
      </trkpt>
      <trkpt lat="44.099605" lon="1.089686">
        <ele>74.4</ele>
        <time>2014-02-14T17:28:28Z</time>
      </trkpt>
      <trkpt lat="44.099657" lon="1.089822">
        <ele>75.8</ele>
        <time>2014-02-14T17:28:44Z</time>
      </trkpt>
      <trkpt lat="44.099721" lon="1.089958">
        <ele>77.8</ele>
        <time>2014-02-14T17:28:59Z</time>
      </trkpt>
      <trkpt lat="44.099862" lon="1.089949">
        <ele>78.0</ele>
        <time>2014-02-14T17:29:13Z</time>
      </trkpt>
      <trkpt lat="44.099893" lon="1.089893">
        <ele>76.7</ele>
        <time>2014-02-14T17:29:30Z</time>
      </trkpt>
    </trkseg>
  </trk>
</gpx>

